Provisional Data: Little Mehoopany Creek near North Mehoopany, PA


Please select a monitoring station.
Please select start date.
Please select start date.

Toggle Unit: C/F Toggle Unit: C/F
Sample Time Temperature (C) Temperature (F) Specific Conductivity (mS/cm) pH   Turbidity (NTU+) DO (mg/L)
3/23/2021 12:00:00 AM 4.99 40.982 0.098 7.41 3.34 12.99
3/23/2021 12:15:00 AM 4.9 40.82 0.098 7.41 3.3 13.02
3/23/2021 12:30:00 AM 4.81 40.658 0.098 7.41 3.49 13.05
3/23/2021 12:45:00 AM 4.73 40.514 0.098 7.41 3.5 13.06
3/23/2021 1:00:00 AM 4.64 40.352 0.098 7.41 3.33 13.11
3/23/2021 1:15:00 AM 4.55 40.19 0.097 7.41 3.31 13.14
3/23/2021 1:30:00 AM 4.49 40.082 0.098 7.42 3.3 13.18
3/23/2021 1:45:00 AM 4.42 39.956 0.097 7.41 3.33 13.2
3/23/2021 2:00:00 AM 4.36 39.848 0.097 7.42 3.29 13.23
3/23/2021 2:15:00 AM 4.32 39.776 0.097 7.39 3.25 13.23
3/23/2021 2:30:00 AM 4.25 39.65 0.097 7.41 3.31 13.27
3/23/2021 2:45:00 AM 4.21 39.578 0.097 7.4 3.31 13.27
3/23/2021 3:00:00 AM 4.15 39.47 0.097 7.41 3.25 13.29
3/23/2021 3:15:00 AM 4.12 39.416 0.096 7.41 3.28 13.3
3/23/2021 3:30:00 AM 4.1 39.38 0.096 7.39 3.26 13.31
3/23/2021 3:45:00 AM 4.07 39.326 0.096 7.4 3.26 13.31
3/23/2021 4:00:00 AM 4.01 39.218 0.096 7.4 3.18 13.33
3/23/2021 4:15:00 AM 4 39.2 0.096 7.4 3.29 13.34
3/23/2021 4:30:00 AM 3.97 39.146 0.096 7.4 3.29 13.35
3/23/2021 4:45:00 AM 3.93 39.074 0.096 7.4 3.25 13.38
3/23/2021 5:00:00 AM 3.92 39.056 0.096 7.39 3.34 13.35
3/23/2021 5:15:00 AM 3.89 39.002 0.096 7.39 3.16 13.37
3/23/2021 5:30:00 AM 3.85 38.93 0.096 7.4 3.25 13.41
3/23/2021 5:45:00 AM 3.83 38.894 0.097 7.4 3.27 13.41
3/23/2021 6:00:00 AM 3.79 38.822 0.096 7.4 3.23 13.4
3/23/2021 6:15:00 AM 3.77 38.786 0.096 7.4 3.4 13.45
3/23/2021 6:30:00 AM 3.72 38.696 0.096 7.41 3.26 13.46
3/23/2021 6:45:00 AM 3.7 38.66 0.096 7.39 3.25 13.45
3/23/2021 7:00:00 AM 3.66 38.588 0.096 7.4 3.32 13.48
3/23/2021 7:15:00 AM 3.66 38.588 0.096 7.39 3.18 13.48
3/23/2021 7:30:00 AM 3.62 38.516 0.096 7.4 3.17 13.55
3/23/2021 7:45:00 AM 3.62 38.516 0.096 7.41 3.18 13.6
3/23/2021 8:00:00 AM 3.62 38.516 0.097 7.41 3.06 13.63
3/23/2021 8:15:00 AM 3.62 38.516 0.096 7.45 3.19 13.7
3/23/2021 8:30:00 AM 3.65 38.57 0.096 7.45 3.3 13.74
3/23/2021 8:45:00 AM 3.7 38.66 0.096 7.45 3.25 13.74
3/23/2021 9:00:00 AM 3.73 38.714 0.095 7.48 3.08 13.79
3/23/2021 9:15:00 AM 3.81 38.858 0.095 7.47 3.19 13.78
3/23/2021 9:30:00 AM 3.88 38.984 0.095 7.5 3.2 13.81
3/23/2021 9:45:00 AM 4.01 39.218 0.095 7.49 3.26 13.77
3/23/2021 10:00:00 AM 4.13 39.434 0.095 7.52 3.15 13.77
3/23/2021 10:15:00 AM 4.31 39.758 0.095 7.51 3.19 13.75
3/23/2021 10:30:00 AM 4.51 40.118 0.095 7.54 3.08 13.75
3/23/2021 10:45:00 AM 4.74 40.532 0.094 7.55 3.21 13.7
3/23/2021 11:00:00 AM 5.02 41.036 0.094 7.55 3.2 13.61
3/23/2021 11:15:00 AM 5.27 41.486 0.094 7.58 3.2 13.55
3/23/2021 11:30:00 AM 5.53 41.954 0.094 7.57 3.17 13.5
3/23/2021 11:45:00 AM 5.87 42.566 0.094 7.58 3.19 13.42
3/23/2021 12:00:00 PM 6.09 42.962 0.094 7.61 3.22 13.36
3/23/2021 12:15:00 PM 6.4 43.52 0.094 7.6 3.16 13.26
3/23/2021 12:30:00 PM 6.6 43.88 0.094 7.62 3.15 13.15
3/23/2021 12:45:00 PM 6.89 44.402 0.094 7.66 3.24 13.12
3/23/2021 1:00:00 PM 7.13 44.834 0.094 7.66 3.2 13.04
3/23/2021 1:15:00 PM 7.39 45.302 0.093 7.65 3.14 12.95
3/23/2021 1:30:00 PM 7.54 45.572 0.093 7.66 3.14 12.91
3/23/2021 1:45:00 PM 7.72 45.896 0.093 7.67 3.17 12.82
3/23/2021 2:00:00 PM 7.89 46.202 0.093 7.7 3.19 12.72
3/23/2021 2:15:00 PM 8.11 46.598 0.093 7.7 3.12 12.69
3/23/2021 2:30:00 PM 8.31 46.958 0.093 7.67 3.17 12.63
3/23/2021 2:45:00 PM 8.46 47.228 0.093 7.72 3.21 12.57
3/23/2021 3:00:00 PM 8.54 47.372 0.093 7.7 3.1 12.5
3/23/2021 3:15:00 PM 8.68 47.624 0.093 7.72 3.25 12.48
3/23/2021 3:30:00 PM 8.73 47.714 0.093 7.72 3.43 12.45
3/23/2021 3:45:00 PM 8.77 47.786 0.093 7.71 3.12 12.39
3/23/2021 4:00:00 PM 8.84 47.912 0.093 7.74 3.09 12.39
3/23/2021 4:15:00 PM 8.86 47.948 0.093 7.72 3.03 12.38
3/23/2021 4:30:00 PM 8.81 47.858 0.093 7.71 3.11 12.33
3/23/2021 4:45:00 PM 8.79 47.822 0.093 7.71 3.14 12.35
3/23/2021 5:00:00 PM 8.77 47.786 0.093 7.72 3.06 12.31
3/23/2021 5:15:00 PM 8.75 47.75 0.094 7.68 3.11 12.3
3/23/2021 5:30:00 PM 8.7 47.66 0.093 7.67 3.14 12.27
3/23/2021 5:45:00 PM 8.66 47.588 0.094 7.62 3.02 12.25
3/23/2021 6:00:00 PM 8.57 47.426 0.094 7.61 3.17 12.15
3/23/2021 6:15:00 PM 8.49 47.282 0.094 7.59 3.72 12.13
3/23/2021 6:30:00 PM 8.42 47.156 0.094 7.56 3.19 12.09
3/23/2021 6:45:00 PM 8.33 46.994 0.094 7.54 3.16 12.05
3/23/2021 7:00:00 PM 8.25 46.85 0.094 7.51 3.11 12.03
3/23/2021 7:15:00 PM 8.14 46.652 0.095 7.51 3.23 12.03
3/23/2021 7:30:00 PM 8.04 46.472 0.095 7.48 3.2 12
3/23/2021 7:45:00 PM 7.93 46.274 0.095 7.47 3.16 11.99
3/23/2021 8:00:00 PM 7.84 46.112 0.096 7.45 3.16 11.98
3/23/2021 8:15:00 PM 7.72 45.896 0.096 7.45 3.28 12.02
3/23/2021 8:30:00 PM 7.62 45.716 0.096 7.43 3.32 12.04
3/23/2021 8:45:00 PM 7.51 45.518 0.096 7.44 3.29 12.11
3/23/2021 9:00:00 PM 7.41 45.338 0.096 7.43 3.16 12.12
3/23/2021 9:15:00 PM 7.31 45.158 0.096 7.42 3.09 12.13
3/23/2021 9:30:00 PM 7.21 44.978 0.096 7.43 3.4 12.18
3/23/2021 9:45:00 PM 7.12 44.816 0.097 7.42 3.1 12.21
3/23/2021 10:00:00 PM 7.03 44.654 0.097 7.42 3.17 12.24
3/23/2021 10:15:00 PM 6.95 44.51 0.097 7.42 3.08 12.25
3/23/2021 10:30:00 PM 6.87 44.366 0.097 7.43 3.25 12.3
3/23/2021 10:45:00 PM 6.8 44.24 0.097 7.43 3.09 12.28
3/23/2021 11:00:00 PM 6.73 44.114 0.097 7.41 3.13 12.31
3/23/2021 11:15:00 PM 6.66 43.988 0.097 7.42 3.15 12.35
3/23/2021 11:30:00 PM 6.62 43.916 0.097 7.41 3.14 12.34
3/23/2021 11:45:00 PM 6.55 43.79 0.097 7.41 3.14 12.36
3/24/2021 12:00:00 AM 6.49 43.682 0.097 7.41 3.14 12.38
3/24/2021 12:15:00 AM 6.44 43.592 0.097 7.42 2.98 12.41
3/24/2021 12:30:00 AM 6.39 43.502 0.097 7.41 3.12 12.42
3/24/2021 12:45:00 AM 6.34 43.412 0.097 7.43 3.02 12.47
3/24/2021 1:00:00 AM 6.3 43.34 0.097 7.4 3.08 12.46
3/24/2021 1:15:00 AM 6.27 43.286 0.097 7.4 3.07 12.47
3/24/2021 1:30:00 AM 6.24 43.232 0.097 7.41 2.97 12.5
3/24/2021 1:45:00 AM 6.22 43.196 0.097 7.42 3.09 12.51
3/24/2021 2:00:00 AM 6.22 43.196 0.097 7.39 3.01 12.48
3/24/2021 2:15:00 AM 6.22 43.196 0.097 7.4 3.09 12.49
3/24/2021 2:30:00 AM 6.23 43.214 0.097 7.4 3.07 12.5
3/24/2021 2:45:00 AM 6.23 43.214 0.097 7.4 2.92 12.49
3/24/2021 3:00:00 AM 6.23 43.214 0.097 7.4 3.06 12.49
3/24/2021 3:15:00 AM 6.22 43.196 0.097 7.41 3.15 12.51
3/24/2021 3:30:00 AM 6.23 43.214 0.097 7.4 3 12.48
3/24/2021 3:45:00 AM 6.24 43.232 0.097 7.4 3.08 12.45
3/24/2021 4:00:00 AM 6.24 43.232 0.097 7.4 3.11 12.5
3/24/2021 4:15:00 AM 6.24 43.232 0.096 7.41 3.1 12.5
3/24/2021 4:30:00 AM 6.25 43.25 0.096 7.4 3.15 12.48
3/24/2021 4:45:00 AM 6.26 43.268 0.096 7.41 3.09 12.48
3/24/2021 5:00:00 AM 6.25 43.25 0.096 7.41 3.03 12.48
3/24/2021 5:15:00 AM 6.26 43.268 0.097 7.39 2.95 12.47
3/24/2021 5:30:00 AM 6.27 43.286 0.096 7.39 3.12 12.46
3/24/2021 5:45:00 AM 6.26 43.268 0.096 7.4 3.08 12.47
3/24/2021 6:00:00 AM 6.27 43.286 0.097 7.4 3 12.46
3/24/2021 6:15:00 AM 6.27 43.286 0.096 7.4 2.98 12.48
3/24/2021 6:30:00 AM 6.29 43.322 0.096 7.4 3.18 12.48
3/24/2021 6:45:00 AM 6.29 43.322 0.096 7.41 3.14 12.47
3/24/2021 7:00:00 AM 6.32 43.376 0.096 7.39 3.08 12.44
3/24/2021 7:15:00 AM 6.33 43.394 0.096 7.38 3 12.44
3/24/2021 7:30:00 AM 6.32 43.376 0.096 7.41 3.07 12.48
3/24/2021 7:45:00 AM 6.35 43.43 0.097 7.39 3.07 12.45
3/24/2021 8:00:00 AM 6.36 43.448 0.097 7.4 3.04 12.49
3/24/2021 8:15:00 AM 6.38 43.484 0.097 7.4 3.03 12.48
3/24/2021 8:30:00 AM 6.38 43.484 0.096 7.43 3.16 12.55
3/24/2021 8:45:00 AM 6.4 43.52 0.096 7.43 2.95 12.56
3/24/2021 9:00:00 AM 6.43 43.574 0.096 7.44 3.2 12.58
3/24/2021 9:15:00 AM 6.46 43.628 0.096 7.43 2.98 12.56
3/24/2021 9:30:00 AM 6.48 43.664 0.096 7.46 3.03 12.62
3/24/2021 9:45:00 AM 6.52 43.736 0.096 7.47 3.14 12.67
3/24/2021 10:00:00 AM 6.55 43.79 0.095 7.49 3.19 12.66
3/24/2021 10:15:00 AM 6.59 43.862 0.095 7.47 3.07 12.64
3/24/2021 10:30:00 AM 6.63 43.934 0.095 7.5 3.01 12.67
3/24/2021 10:45:00 AM 6.68 44.024 0.095 7.5 3.21 12.66
3/24/2021 11:00:00 AM 6.73 44.114 0.095 7.51 3.15 12.67
3/24/2021 11:15:00 AM 6.77 44.186 0.095 7.51 3.11 12.64
3/24/2021 11:30:00 AM 6.82 44.276 0.094 7.5 3.18 12.62
3/24/2021 11:45:00 AM 6.88 44.384 0.094 7.53 3 12.67
3/24/2021 12:00:00 PM 6.93 44.474 0.094 7.53 3.13 12.67
3/24/2021 12:15:00 PM 7.01 44.618 0.094 7.54 3.14 12.71
3/24/2021 12:30:00 PM 7.07 44.726 0.094 7.55 3.15 12.67
3/24/2021 12:45:00 PM 7.14 44.852 0.094 7.58 3.17 12.71
3/24/2021 1:00:00 PM 7.23 45.014 0.094 7.57 3.2 12.7
3/24/2021 1:15:00 PM 7.31 45.158 0.093 7.6 3.31 12.7
3/24/2021 1:30:00 PM 7.37 45.266 0.093 7.6 3.25 12.65
3/24/2021 1:45:00 PM 7.43 45.374 0.093 7.59 3.28 12.58
3/24/2021 2:00:00 PM 7.5 45.5 0.094 7.57 3.42 12.49
3/24/2021 2:15:00 PM 7.56 45.608 0.093 7.57 3.97 12.48
3/24/2021 2:30:00 PM 7.63 45.734 0.093 7.57 4.18 12.48
3/24/2021 2:45:00 PM 7.66 45.788 0.093 7.57 3.98 12.43
3/24/2021 3:00:00 PM 7.69 45.842 0.092 7.55 4.19 12.36
3/24/2021 3:15:00 PM 7.72 45.896 0.092 7.55 4.38 12.39
3/24/2021 3:30:00 PM 7.7 45.86 0.093 7.53 3.86 12.34
3/24/2021 3:45:00 PM 7.69 45.842 0.093 7.54 3.68 12.33
3/24/2021 4:00:00 PM 7.69 45.842 0.093 7.54 3.76 12.32
3/24/2021 4:15:00 PM 7.7 45.86 0.094 7.53 3.93 12.28
3/24/2021 4:30:00 PM 7.71 45.878 0.094 7.52 4.22 12.28
3/24/2021 4:45:00 PM 7.73 45.914 0.095 7.54 4.84 12.28
3/24/2021 5:00:00 PM 7.73 45.914 0.095 7.52 4.75 12.24
3/24/2021 5:15:00 PM 7.73 45.914 0.096 7.51 5.36 12.21
3/24/2021 5:30:00 PM 7.74 45.932 0.096 7.51 6.21 12.22
3/24/2021 5:45:00 PM 7.73 45.914 0.097 7.51 7.45 12.21
3/24/2021 6:00:00 PM 7.72 45.896 0.097 7.49 9.64 12.17
3/24/2021 6:15:00 PM 7.7 45.86 0.097 7.48 8.37 12.17
3/24/2021 6:30:00 PM 7.67 45.806 0.097 7.47 8.34 12.16
3/24/2021 6:45:00 PM 7.65 45.77 0.096 7.47 8.32 12.16
3/24/2021 7:00:00 PM 7.64 45.752 0.096 7.45 7.06 12.14
3/24/2021 7:15:00 PM 7.6 45.68 0.096 7.45 6.04 12.12
3/24/2021 7:30:00 PM 7.58 45.644 0.095 7.44 6.1 12.09
3/24/2021 7:45:00 PM 7.55 45.59 0.095 7.44 5.18 12.11
3/24/2021 8:00:00 PM 7.53 45.554 0.095 7.43 4.92 12.1
3/24/2021 8:15:00 PM 7.51 45.518 0.095 7.43 5.1 12.1
3/24/2021 8:30:00 PM 7.51 45.518 0.096 7.41 4.64 12.09
3/24/2021 8:45:00 PM 7.48 45.464 0.095 7.43 4.82 12.12
3/24/2021 9:00:00 PM 7.48 45.464 0.095 7.41 4.58 12.1
3/24/2021 9:15:00 PM 7.46 45.428 0.095 7.42 4.38 12.11
3/24/2021 9:30:00 PM 7.44 45.392 0.095 7.43 4.51 12.12
3/24/2021 9:45:00 PM 7.44 45.392 0.095 7.43 4.29 12.14
3/24/2021 10:00:00 PM 7.42 45.356 0.095 7.43 4.2 12.15
3/24/2021 10:15:00 PM 7.41 45.338 0.095 7.42 4.3 12.13
3/24/2021 10:30:00 PM 7.41 45.338 0.095 7.42 4.31 12.14
3/24/2021 10:45:00 PM 7.4 45.32 0.095 7.44 4.27 12.15
3/24/2021 11:00:00 PM 7.4 45.32 0.094 7.42 4.43 12.13
3/24/2021 11:15:00 PM 7.39 45.302 0.094 7.41 4.07 12.13
3/24/2021 11:30:00 PM 7.36 45.248 0.094 7.43 4.08 12.17
3/24/2021 11:45:00 PM 7.34 45.212 0.094 7.43 4.14 12.17
3/25/2021 12:00:00 AM 7.33 45.194 0.094 7.4 4 12.16
3/25/2021 12:15:00 AM 7.31 45.158 0.094 7.41 4.06 12.17
3/25/2021 12:30:00 AM 7.29 45.122 0.094 7.41 3.95 12.18
3/25/2021 12:45:00 AM 7.28 45.104 0.094 7.4 4.01 12.17
3/25/2021 1:00:00 AM 7.27 45.086 0.094 7.4 3.92 12.18
3/25/2021 1:15:00 AM 7.26 45.068 0.094 7.41 3.91 12.18
3/25/2021 1:30:00 AM 7.26 45.068 0.093 7.42 3.92 12.2
3/25/2021 1:45:00 AM 7.26 45.068 0.093 7.42 3.89 12.19
3/25/2021 2:00:00 AM 7.28 45.104 0.094 7.41 3.78 12.17
3/25/2021 2:15:00 AM 7.27 45.086 0.093 7.4 3.9 12.17
3/25/2021 2:30:00 AM 7.27 45.086 0.093 7.41 3.78 12.18
3/25/2021 2:45:00 AM 7.28 45.104 0.093 7.39 3.88 12.16
3/25/2021 3:00:00 AM 7.28 45.104 0.093 7.41 4.07 12.17
3/25/2021 3:15:00 AM 7.28 45.104 0.093 7.41 3.71 12.18
3/25/2021 3:30:00 AM 7.28 45.104 0.094 7.41 4.45 12.17
3/25/2021 3:45:00 AM 7.28 45.104 0.094 7.41 3.89 12.16
3/25/2021 4:00:00 AM 7.28 45.104 0.093 7.42 3.77 12.17
3/25/2021 4:15:00 AM 7.29 45.122 0.093 7.41 3.67 12.17
3/25/2021 4:30:00 AM 7.28 45.104 0.093 7.42 3.86 12.17
3/25/2021 4:45:00 AM 7.29 45.122 0.094 7.41 4.16 12.15
3/25/2021 5:00:00 AM 7.28 45.104 0.094 7.41 3.89 12.16
3/25/2021 5:15:00 AM 7.25 45.05 0.093 7.41 3.7 12.19
3/25/2021 5:30:00 AM 7.25 45.05 0.093 7.41 3.74 12.18
3/25/2021 5:45:00 AM 7.23 45.014 0.093 7.41 3.7 12.18
3/25/2021 6:00:00 AM 7.21 44.978 0.094 7.4 3.68 12.19
3/25/2021 6:15:00 AM 7.19 44.942 0.094 7.4 3.65 12.19
3/25/2021 6:30:00 AM 7.17 44.906 0.094 7.39 3.72 12.18
3/25/2021 6:45:00 AM 7.16 44.888 0.094 7.39 3.65 12.2
3/25/2021 7:00:00 AM 7.14 44.852 0.094 7.39 3.9 12.22
3/25/2021 7:15:00 AM 7.11 44.798 0.093 7.41 3.79 12.28
3/25/2021 7:30:00 AM 7.11 44.798 0.093 7.41 3.68 12.28
3/25/2021 7:45:00 AM 7.13 44.834 0.094 7.4 3.59 12.29
3/25/2021 8:00:00 AM 7.14 44.852 0.093 7.42 3.82 12.36
3/25/2021 8:15:00 AM 7.14 44.852 0.093 7.46 3.69 12.44
3/25/2021 8:30:00 AM 7.18 44.924 0.093 7.48 3.78 12.47
3/25/2021 8:45:00 AM 7.22 44.996 0.093 7.48 3.69 12.48
3/25/2021 9:00:00 AM 7.25 45.05 0.093 7.5 3.7 12.51
3/25/2021 9:15:00 AM 7.31 45.158 0.093 7.52 3.93 12.53
3/25/2021 9:30:00 AM 7.38 45.284 0.092 7.53 3.81 12.54
3/25/2021 9:45:00 AM 7.47 45.446 0.092 7.56 3.82 12.54
3/25/2021 10:00:00 AM 7.61 45.698 0.092 7.56 3.62 12.52
3/25/2021 10:15:00 AM 7.78 46.004 0.091 7.57 3.7 12.49
3/25/2021 10:30:00 AM 7.97 46.346 0.091 7.61 3.7 12.48
3/25/2021 10:45:00 AM 8.15 46.67 0.091 7.61 3.68 12.45
3/25/2021 11:00:00 AM 8.37 47.066 0.091 7.62 3.67 12.42
3/25/2021 11:15:00 AM 8.61 47.498 0.09 7.62 3.71 12.35
3/25/2021 11:30:00 AM 8.84 47.912 0.09 7.61 3.59 12.3
3/25/2021 11:45:00 AM 9.08 48.344 0.09 7.64 3.73 12.25
3/25/2021 12:00:00 PM 9.29 48.722 0.09 7.65 3.56 12.19
3/25/2021 12:15:00 PM 9.5 49.1 0.09 7.64 3.51 12.13
3/25/2021 12:30:00 PM 9.69 49.442 0.09 7.63 3.53 12.07
3/25/2021 12:45:00 PM 9.89 49.802 0.09 7.64 3.61 12.01
3/25/2021 1:00:00 PM 10.06 50.108 0.089 7.65 3.47 11.96
3/25/2021 1:15:00 PM 10.23 50.414 0.089 7.67 3.79 11.93
3/25/2021 1:30:00 PM 10.39 50.702 0.089 7.67 3.52 11.87
3/25/2021 1:45:00 PM 10.55 50.99 0.089 7.67 3.6 11.82
3/25/2021 2:00:00 PM 10.73 51.314 0.089 7.67 3.53 11.77
3/25/2021 2:15:00 PM 10.92 51.656 0.089 7.69 3.55 11.73
3/25/2021 2:30:00 PM 11.07 51.926 0.089 7.7 3.58 11.69
3/25/2021 2:45:00 PM 11.2 52.16 0.089 7.7 3.7 11.63
3/25/2021 3:00:00 PM 11.3 52.34 0.089 7.7 3.52 11.59
3/25/2021 3:15:00 PM 11.4 52.52 0.089 7.72 4.05 11.57
3/25/2021 3:30:00 PM 11.46 52.628 0.089 7.74 3.65 11.52
3/25/2021 3:45:00 PM 11.48 52.664 0.09 7.71 3.76 11.51
3/25/2021 4:00:00 PM 11.46 52.628 0.09 7.7 3.69 11.49
3/25/2021 4:15:00 PM 11.44 52.592 0.09 7.68 3.74 11.46
3/25/2021 4:30:00 PM 11.4 52.52 0.09 7.7 3.53 11.44
3/25/2021 4:45:00 PM 11.33 52.394 0.09 7.64 3.84 11.43
3/25/2021 5:00:00 PM 11.27 52.286 0.09 7.67 3.68 11.46
3/25/2021 5:15:00 PM 11.19 52.142 0.09 7.64 3.6 11.42
3/25/2021 5:30:00 PM 11.12 52.016 0.091 7.62 3.63 11.4
3/25/2021 5:45:00 PM 11.06 51.908 0.091 7.6 3.45 11.35
3/25/2021 6:00:00 PM 10.97 51.746 0.09 7.6 3.51 11.37
3/25/2021 6:15:00 PM 10.87 51.566 0.091 7.57 3.56 11.35
3/25/2021 6:30:00 PM 10.77 51.386 0.091 7.57 3.86 11.35
3/25/2021 6:45:00 PM 10.65 51.17 0.091 7.52 3.58 11.3
3/25/2021 7:00:00 PM 10.53 50.954 0.091 7.5 3.89 11.29
3/25/2021 7:15:00 PM 10.4 50.72 0.091 7.46 3.58 11.27
3/25/2021 7:30:00 PM 10.27 50.486 0.091 7.45 3.68 11.27
3/25/2021 7:45:00 PM 10.15 50.27 0.091 7.43 3.77 11.28
3/25/2021 8:00:00 PM 10.04 50.072 0.091 7.44 3.63 11.31
3/25/2021 8:15:00 PM 9.93 49.874 0.091 7.4 3.54 11.29
3/25/2021 8:30:00 PM 9.84 49.712 0.092 7.42 3.57 11.33
3/25/2021 8:45:00 PM 9.76 49.568 0.092 7.4 3.59 11.35
3/25/2021 9:00:00 PM 9.71 49.478 0.093 7.41 3.64 11.37
3/25/2021 9:15:00 PM 9.69 49.442 0.093 7.42 4.35 11.37
3/25/2021 9:30:00 PM 9.68 49.424 0.094 7.42 3.49 11.37
3/25/2021 9:45:00 PM 9.69 49.442 0.094 7.4 3.48 11.34
3/25/2021 10:00:00 PM 9.7 49.46 0.094 7.41 3.7 11.34
3/25/2021 10:15:00 PM 9.7 49.46 0.094 7.41 3.46 11.31
3/25/2021 10:30:00 PM 9.72 49.496 0.094 7.43 3.51 11.34
3/25/2021 10:45:00 PM 9.73 49.514 0.094 7.42 3.39 11.32
3/25/2021 11:00:00 PM 9.75 49.55 0.095 7.38 3.45 11.28
3/25/2021 11:15:00 PM 9.78 49.604 0.095 7.43 3.46 11.31
3/25/2021 11:30:00 PM 9.78 49.604 0.095 7.44 3.62 11.33
3/25/2021 11:45:00 PM 9.76 49.568 0.095 7.42 3.75 11.31
3/26/2021 12:00:00 AM 9.75 49.55 0.095 7.43 3.54 11.33
3/26/2021 12:15:00 AM 9.71 49.478 0.095 7.42 3.66 11.32
3/26/2021 12:30:00 AM 9.67 49.406 0.094 7.42 3.69 11.34
3/26/2021 12:45:00 AM 9.62 49.316 0.095 7.4 3.7 11.34
3/26/2021 1:00:00 AM 9.56 49.208 0.094 7.41 3.77 11.37
3/26/2021 1:15:00 AM 9.52 49.136 0.094 7.41 3.67 11.38
3/26/2021 1:30:00 AM 9.48 49.064 0.094 7.42 3.67 11.4
3/26/2021 1:45:00 AM 9.46 49.028 0.094 7.42 3.79 11.39
3/26/2021 2:00:00 AM 9.47 49.046 0.094 7.4 3.6 11.37
3/26/2021 2:15:00 AM 9.48 49.064 0.094 7.42 3.78 11.38
3/26/2021 2:30:00 AM 9.5 49.1 0.094 7.42 3.67 11.37
3/26/2021 2:45:00 AM 9.53 49.154 0.094 7.41 3.52 11.36
3/26/2021 3:00:00 AM 9.56 49.208 0.094 7.4 3.55 11.34
3/26/2021 3:15:00 AM 9.59 49.262 0.094 7.42 3.52 11.35
3/26/2021 3:30:00 AM 9.6 49.28 0.094 7.41 3.55 11.33
3/26/2021 3:45:00 AM 9.61 49.298 0.094 7.41 3.64 11.32
3/26/2021 4:00:00 AM 9.6 49.28 0.094 7.41 3.94 11.33
3/26/2021 4:15:00 AM 9.58 49.244 0.094 7.41 3.74 11.32
3/26/2021 4:30:00 AM 9.57 49.226 0.094 7.41 3.59 11.34
3/26/2021 4:45:00 AM 9.55 49.19 0.094 7.4 3.53 11.33
3/26/2021 5:00:00 AM 9.5 49.1 0.093 7.4 3.64 11.34
3/26/2021 5:15:00 AM 9.46 49.028 0.093 7.41 3.65 11.34
3/26/2021 5:30:00 AM 9.43 48.974 0.093 7.41 3.61 11.35
3/26/2021 5:45:00 AM 9.38 48.884 0.093 7.41 3.55 11.35
3/26/2021 6:00:00 AM 9.33 48.794 0.093 7.39 3.76 11.37
3/26/2021 6:15:00 AM 9.29 48.722 0.093 7.38 3.58 11.35
3/26/2021 6:30:00 AM 9.24 48.632 0.093 7.39 3.76 11.39
3/26/2021 6:45:00 AM 9.21 48.578 0.093 7.42 3.58 11.41
3/26/2021 7:00:00 AM 9.2 48.56 0.093 7.41 3.63 11.4
3/26/2021 7:15:00 AM 9.2 48.56 0.094 7.42 3.67 11.41
3/26/2021 7:30:00 AM 9.2 48.56 0.094 7.42 3.6 11.43
3/26/2021 7:45:00 AM 9.2 48.56 0.094 7.44 3.6 11.49
3/26/2021 8:00:00 AM 9.25 48.65 0.094 7.46 3.57 11.51
3/26/2021 8:15:00 AM 9.33 48.794 0.094 7.46 3.6 11.56
3/26/2021 8:30:00 AM 9.46 49.028 0.094 7.48 3.62 11.57
3/26/2021 8:45:00 AM 9.63 49.334 0.094 7.5 3.66 11.58
3/26/2021 9:00:00 AM 9.73 49.514 0.094 7.54 3.67 11.57
3/26/2021 9:15:00 AM 9.84 49.712 0.094 7.54 3.61 11.57
3/26/2021 9:30:00 AM 9.97 49.946 0.094 7.57 3.59 11.58
3/26/2021 9:45:00 AM 10.12 50.216 0.093 7.55 3.58 11.54
3/26/2021 10:00:00 AM 10.29 50.522 0.093 7.58 3.52 11.53
3/26/2021 10:15:00 AM 10.49 50.882 0.093 7.58 3.56 11.48
3/26/2021 10:30:00 AM 10.7 51.26 0.093 7.63 3.59 11.51
3/26/2021 10:45:00 AM 10.9 51.62 0.093 7.67 3.5 11.49
3/26/2021 11:00:00 AM 11.08 51.944 0.093 7.65 3.61 11.44
3/26/2021 11:15:00 AM 11.35 52.43 0.093 7.69 3.48 11.47
3/26/2021 11:30:00 AM 11.51 52.718 0.093 7.69 3.67 11.39
3/26/2021 11:45:00 AM 11.61 52.898 0.092 7.66 3.64 11.34
3/26/2021 12:00:00 PM 11.71 53.078 0.093 7.64 3.45 11.27
3/26/2021 12:15:00 PM 11.91 53.438 0.092 7.69 3.51 11.28
3/26/2021 12:30:00 PM 12.05 53.69 0.092 7.74 3.62 11.28
3/26/2021 12:45:00 PM 12 53.6 0.092 7.68 3.61 11.19
3/26/2021 1:00:00 PM 12.08 53.744 0.092 7.7 3.52 11.14
3/26/2021 1:15:00 PM 12.09 53.762 0.092 7.72 3.65 11.15
3/26/2021 1:30:00 PM 12.05 53.69 0.093 7.65 3.78 11.15
3/26/2021 1:45:00 PM 12.02 53.636 0.092 7.68 3.58 11.15
3/26/2021 2:00:00 PM 11.96 53.528 0.092 7.68 3.68 11.14
3/26/2021 2:15:00 PM 11.95 53.51 0.092 7.7 4.06 11.19
3/26/2021 2:30:00 PM 11.88 53.384 0.092 7.68 3.96 11.18
3/26/2021 2:45:00 PM 11.8 53.24 0.093 7.68 3.75 11.19
3/26/2021 3:00:00 PM 11.74 53.132 0.092 7.65 3.71 11.18
3/26/2021 3:15:00 PM 11.69 53.042 0.092 7.7 3.69 11.21
3/26/2021 3:30:00 PM 11.63 52.934 0.092 7.69 3.5 11.23
3/26/2021 3:45:00 PM 11.63 52.934 0.092 7.69 3.71 11.24
3/26/2021 4:00:00 PM 11.68 53.024 0.092 7.71 3.69 11.27
3/26/2021 4:15:00 PM 11.61 52.898 0.092 7.69 3.87 11.25
3/26/2021 4:30:00 PM 11.62 52.916 0.092 7.69 3.48 11.28
3/26/2021 4:45:00 PM 11.61 52.898 0.092 7.66 3.74 11.24
3/26/2021 5:00:00 PM 11.63 52.934 0.092 7.69 3.68 11.26
3/26/2021 5:15:00 PM 11.58 52.844 0.093 7.68 3.71 11.26
3/26/2021 5:30:00 PM 11.47 52.646 0.093 7.65 3.75 11.24
3/26/2021 5:45:00 PM 11.41 52.538 0.093 7.63 3.57 11.19
3/26/2021 6:00:00 PM 11.35 52.43 0.093 7.62 3.7 11.16
3/26/2021 6:15:00 PM 11.27 52.286 0.093 7.57 3.59 11.1
3/26/2021 6:30:00 PM 11.17 52.106 0.093 7.55 3.68 11.08
3/26/2021 6:45:00 PM 11.04 51.872 0.094 7.52 3.76 11.08
3/26/2021 7:00:00 PM 10.95 51.71 0.094 7.53 3.57 11.1
3/26/2021 7:15:00 PM 10.85 51.53 0.094 7.51 3.73 11.1
3/26/2021 7:30:00 PM 10.76 51.368 0.094 7.51 3.93 11.12
3/26/2021 7:45:00 PM 10.67 51.206 0.094 7.49 3.74 11.11
3/26/2021 8:00:00 PM 10.58 51.044 0.094 7.46 3.77 11.1
3/26/2021 8:15:00 PM 10.52 50.936 0.094 7.47 3.62 11.13
3/26/2021 8:30:00 PM 10.46 50.828 0.095 7.45 3.63 11.15
3/26/2021 8:45:00 PM 10.38 50.684 0.095 7.47 3.67 11.16
3/26/2021 9:00:00 PM 10.32 50.576 0.095 7.45 3.6 11.17
3/26/2021 9:15:00 PM 10.27 50.486 0.095 7.45 3.65 11.19
3/26/2021 9:30:00 PM 10.21 50.378 0.095 7.45 3.55 11.19
3/26/2021 9:45:00 PM 10.16 50.288 0.095 7.46 3.59 11.24
3/26/2021 10:00:00 PM 10.1 50.18 0.095 7.45 3.48 11.25
3/26/2021 10:15:00 PM 10.04 50.072 0.095 7.45 3.53 11.28
3/26/2021 10:30:00 PM 9.96 49.928 0.096 7.45 3.53 11.29
3/26/2021 10:45:00 PM 9.91 49.838 0.095 7.47 3.53 11.34
3/26/2021 11:00:00 PM 9.84 49.712 0.095 7.45 3.53 11.31
3/26/2021 11:15:00 PM 9.76 49.568 0.096 7.44 3.59 11.34
3/26/2021 11:30:00 PM 9.68 49.424 0.096 7.46 3.55 11.38
3/26/2021 11:45:00 PM 9.63 49.334 0.096 7.45 3.6 11.39
3/27/2021 12:00:00 AM 9.56 49.208 0.096 7.44 3.64 11.41
3/27/2021 12:15:00 AM 9.51 49.118 0.096 7.43 3.48 11.42
3/27/2021 12:30:00 AM 9.46 49.028 0.096 7.45 3.59 11.45
3/27/2021 12:45:00 AM 9.41 48.938 0.096 7.43 3.41 11.47
3/27/2021 1:00:00 AM 9.34 48.812 0.096 7.43 3.41 11.46
3/27/2021 1:15:00 AM 9.29 48.722 0.096 7.44 3.41 11.49
3/27/2021 1:30:00 AM 9.22 48.596 0.096 7.44 3.51 11.52
3/27/2021 1:45:00 AM 9.17 48.506 0.096 7.44 3.62 11.54
3/27/2021 2:00:00 AM 9.13 48.434 0.096 7.43 3.44 11.53
3/27/2021 2:15:00 AM 9.1 48.38 0.096 7.43 3.57 11.54
3/27/2021 2:30:00 AM 9.07 48.326 0.096 7.42 3.39 11.54
3/27/2021 2:45:00 AM 9.05 48.29 0.096 7.42 3.41 11.55
3/27/2021 3:00:00 AM 9.03 48.254 0.096 7.43 3.43 11.58
3/27/2021 3:15:00 AM 9.02 48.236 0.096 7.42 3.47 11.59
3/27/2021 3:30:00 AM 9 48.2 0.096 7.43 3.82 11.58
3/27/2021 3:45:00 AM 8.98 48.164 0.096 7.41 3.62 11.58
3/27/2021 4:00:00 AM 8.96 48.128 0.096 7.42 3.58 11.58
3/27/2021 4:15:00 AM 8.94 48.092 0.096 7.43 3.56 11.61
3/27/2021 4:30:00 AM 8.92 48.056 0.096 7.42 3.42 11.59
3/27/2021 4:45:00 AM 8.9 48.02 0.096 7.42 3.55 11.61
3/27/2021 5:00:00 AM 8.88 47.984 0.096 7.43 3.55 11.63
3/27/2021 5:15:00 AM 8.86 47.948 0.096 7.4 3.42 11.59
3/27/2021 5:30:00 AM 8.84 47.912 0.096 7.42 3.45 11.63
3/27/2021 5:45:00 AM 8.82 47.876 0.096 7.42 3.38 11.63
3/27/2021 6:00:00 AM 8.81 47.858 0.096 7.42 3.4 11.64
3/27/2021 6:15:00 AM 8.79 47.822 0.096 7.42 3.58 11.65
3/27/2021 6:30:00 AM 8.77 47.786 0.096 7.42 3.44 11.64
3/27/2021 6:45:00 AM 8.75 47.75 0.096 7.41 3.41 11.66
3/27/2021 7:00:00 AM 8.73 47.714 0.097 7.4 3.45 11.66
3/27/2021 7:15:00 AM 8.71 47.678 0.096 7.41 3.35 11.68
3/27/2021 7:30:00 AM 8.7 47.66 0.096 7.43 3.68 11.75
3/27/2021 7:45:00 AM 8.69 47.642 0.096 7.45 3.47 11.8
3/27/2021 8:00:00 AM 8.69 47.642 0.096 7.46 3.56 11.84
3/27/2021 8:15:00 AM 8.71 47.678 0.096 7.47 3.61 11.91
3/27/2021 8:30:00 AM 8.72 47.696 0.096 7.47 3.47 11.91
3/27/2021 8:45:00 AM 8.75 47.75 0.096 7.47 3.64 11.98
3/27/2021 9:00:00 AM 8.8 47.84 0.095 7.52 3.4 12.06
3/27/2021 9:15:00 AM 8.84 47.912 0.095 7.53 3.37 12.11
3/27/2021 9:30:00 AM 8.92 48.056 0.095 7.57 3.61 12.14
3/27/2021 9:45:00 AM 8.98 48.164 0.095 7.57 3.53 12.11
3/27/2021 10:00:00 AM 9.11 48.398 0.095 7.57 3.4 12.12
3/27/2021 10:15:00 AM 9.22 48.596 0.095 7.61 3.42 12.08
3/27/2021 10:30:00 AM 9.32 48.776 0.094 7.65 3.45 12.14
3/27/2021 10:45:00 AM 9.5 49.1 0.094 7.65 3.37 12.12
3/27/2021 11:00:00 AM 9.61 49.298 0.094 7.64 3.38 12.07
3/27/2021 11:15:00 AM 9.83 49.694 0.094 7.64 3.37 12.02
3/27/2021 11:30:00 AM 10.11 50.198 0.094 7.68 3.45 11.98
3/27/2021 11:45:00 AM 10.28 50.504 0.094 7.69 3.52 11.92
3/27/2021 12:00:00 PM 10.52 50.936 0.094 7.67 3.48 11.86
3/27/2021 12:15:00 PM 10.59 51.062 0.094 7.69 3.44 11.81
3/27/2021 12:30:00 PM 10.74 51.332 0.094 7.69 3.34 11.8
3/27/2021 12:45:00 PM 10.96 51.728 0.094 7.69 3.43 11.75
3/27/2021 1:00:00 PM 11.16 52.088 0.094 7.69 3.5 11.7
3/27/2021 1:15:00 PM 11.31 52.358 0.094 7.69 3.68 11.64
3/27/2021 1:30:00 PM 11.45 52.61 0.094 7.69 3.53 11.6
3/27/2021 1:45:00 PM 11.54 52.772 0.094 7.68 3.49 11.55
3/27/2021 2:00:00 PM 11.6 52.88 0.095 7.71 3.45 11.53
3/27/2021 2:15:00 PM 11.75 53.15 0.095 7.7 3.43 11.51
3/27/2021 2:30:00 PM 11.88 53.384 0.095 7.7 3.51 11.48
3/27/2021 2:45:00 PM 11.98 53.564 0.095 7.7 3.46 11.47
3/27/2021 3:00:00 PM 12.05 53.69 0.095 7.74 3.45 11.44
3/27/2021 3:15:00 PM 12.1 53.78 0.095 7.72 3.53 11.4
3/27/2021 3:30:00 PM 12.18 53.924 0.095 7.72 3.75 11.37
3/27/2021 3:45:00 PM 12.21 53.978 0.095 7.74 3.31 11.35
3/27/2021 4:00:00 PM 12.23 54.014 0.095 7.73 3.34 11.31
3/27/2021 4:15:00 PM 12.21 53.978 0.095 7.71 3.38 11.28
3/27/2021 4:30:00 PM 12.19 53.942 0.095 7.71 3.42 11.27
3/27/2021 4:45:00 PM 12.14 53.852 0.096 7.68 3.37 11.28
3/27/2021 5:00:00 PM 12.07 53.726 0.095 7.69 3.45 11.26
3/27/2021 5:15:00 PM 11.98 53.564 0.095 7.68 3.61 11.27
3/27/2021 5:30:00 PM 11.9 53.42 0.095 7.63 3.34 11.25
3/27/2021 5:45:00 PM 11.83 53.294 0.095 7.62 3.37 11.23
3/27/2021 6:00:00 PM 11.77 53.186 0.095 7.63 3.42 11.21
3/27/2021 6:15:00 PM 11.71 53.078 0.096 7.59 3.58 11.15
3/27/2021 6:30:00 PM 11.63 52.934 0.096 7.58 3.26 11.14
3/27/2021 6:45:00 PM 11.56 52.808 0.096 7.58 3.35 11.11
3/27/2021 7:00:00 PM 11.48 52.664 0.096 7.55 3.39 11.08
3/27/2021 7:15:00 PM 11.37 52.466 0.096 7.48 3.4 11.02
3/27/2021 7:30:00 PM 11.28 52.304 0.096 7.48 3.51 10.97
3/27/2021 7:45:00 PM 11.19 52.142 0.097 7.49 3.96 10.97
3/27/2021 8:00:00 PM 11.09 51.962 0.097 7.45 3.66 10.97
3/27/2021 8:15:00 PM 10.98 51.764 0.097 7.46 3.44 10.97
3/27/2021 8:30:00 PM 10.87 51.566 0.097 7.44 3.39 11.02
3/27/2021 8:45:00 PM 10.77 51.386 0.098 7.44 3.45 11.04
3/27/2021 9:00:00 PM 10.67 51.206 0.098 7.44 3.33 11.04
3/27/2021 9:15:00 PM 10.57 51.026 0.098 7.43 3.6 11.07
3/27/2021 9:30:00 PM 10.5 50.9 0.098 7.43 3.64 11.09
3/27/2021 9:45:00 PM 10.41 50.738 0.098 7.43 3.4 11.11
3/27/2021 10:00:00 PM 10.33 50.594 0.098 7.44 3.36 11.15
3/27/2021 10:15:00 PM 10.25 50.45 0.098 7.42 3.36 11.12
3/27/2021 10:30:00 PM 10.17 50.306 0.098 7.42 3.46 11.17
3/27/2021 10:45:00 PM 10.09 50.162 0.098 7.43 3.45 11.2
3/27/2021 11:00:00 PM 10.02 50.036 0.098 7.43 3.41 11.24
3/27/2021 11:15:00 PM 9.93 49.874 0.098 7.43 3.28 11.25
3/27/2021 11:30:00 PM 9.85 49.73 0.098 7.41 3.35 11.25
3/27/2021 11:45:00 PM 9.78 49.604 0.098 7.43 3.41 11.29
3/28/2021 12:00:00 AM 9.71 49.478 0.098 7.44 3.34 11.32
3/28/2021 12:15:00 AM 9.65 49.37 0.098 7.42 3.34 11.32
3/28/2021 12:30:00 AM 9.61 49.298 0.098 7.43 3.27 11.35
3/28/2021 12:45:00 AM 9.56 49.208 0.098 7.42 3.3 11.35
3/28/2021 1:00:00 AM 9.51 49.118 0.098 7.44 3.33 11.39
3/28/2021 1:15:00 AM 9.47 49.046 0.098 7.43 3.56 11.37
3/28/2021 1:30:00 AM 9.43 48.974 0.098 7.42 3.41 11.38
3/28/2021 1:45:00 AM 9.41 48.938 0.098 7.43 3.34 11.4
3/28/2021 2:00:00 AM 9.38 48.884 0.098 7.42 3.34 11.38
3/28/2021 2:15:00 AM 9.35 48.83 0.098 7.41 3.39 11.39
3/28/2021 2:30:00 AM 9.33 48.794 0.098 7.41 3.27 11.39
3/28/2021 2:45:00 AM 9.31 48.758 0.098 7.44 3.26 11.42
3/28/2021 3:00:00 AM 9.29 48.722 0.098 7.43 3.43 11.41
3/28/2021 3:15:00 AM 9.27 48.686 0.098 7.42 3.26 11.39
3/28/2021 3:30:00 AM 9.25 48.65 0.098 7.42 3.32 11.4
3/28/2021 3:45:00 AM 9.23 48.614 0.098 7.41 3.22 11.4
3/28/2021 4:00:00 AM 9.2 48.56 0.098 7.42 3.32 11.4
3/28/2021 4:15:00 AM 9.18 48.524 0.098 7.4 3.23 11.4
3/28/2021 4:30:00 AM 9.16 48.488 0.098 7.43 3.34 11.43
3/28/2021 4:45:00 AM 9.15 48.47 0.098 7.42 3.34 11.42
3/28/2021 5:00:00 AM 9.14 48.452 0.102 7.42 4.11 11.44
3/28/2021 5:15:00 AM 9.15 48.47 0.098 7.4 3.33 11.39
3/28/2021 5:30:00 AM 9.15 48.47 0.098 7.4 3.23 11.42
3/28/2021 5:45:00 AM 9.17 48.506 0.097 7.44 3.3 11.4
3/28/2021 6:00:00 AM 9.18 48.524 0.098 7.41 3.35 11.4
3/28/2021 6:15:00 AM 9.2 48.56 0.098 7.42 3.27 11.39
3/28/2021 6:30:00 AM 9.23 48.614 0.098 7.4 3.33 11.35
3/28/2021 6:45:00 AM 9.26 48.668 0.097 7.41 3.34 11.34
3/28/2021 7:00:00 AM 9.28 48.704 0.097 7.43 3.37 11.38
3/28/2021 7:15:00 AM 9.3 48.74 0.098 7.43 3.26 11.37
3/28/2021 7:30:00 AM 9.32 48.776 0.098 7.45 3.3 11.39
3/28/2021 7:45:00 AM 9.35 48.83 0.098 7.43 3.34 11.38
3/28/2021 8:00:00 AM 9.37 48.866 0.097 7.42 3.32 11.4
3/28/2021 8:15:00 AM 9.39 48.902 0.098 7.42 3.23 11.38
3/28/2021 8:30:00 AM 9.41 48.938 0.098 7.45 3.38 11.4
3/28/2021 8:45:00 AM 9.43 48.974 0.098 7.44 3.34 11.39
3/28/2021 9:00:00 AM 9.45 49.01 0.097 7.46 3.27 11.44
3/28/2021 9:15:00 AM 9.46 49.028 0.097 7.45 3.37 11.43
3/28/2021 9:30:00 AM 9.47 49.046 0.097 7.45 3.35 11.45
3/28/2021 9:45:00 AM 9.49 49.082 0.097 7.47 3.4 11.53
3/28/2021 10:00:00 AM 9.51 49.118 0.097 7.49 3.6 11.52
3/28/2021 10:15:00 AM 9.53 49.154 0.097 7.52 3.33 11.52
3/28/2021 10:30:00 AM 9.54 49.172 0.097 7.49 3.29 11.48
3/28/2021 10:45:00 AM 9.56 49.208 0.096 7.49 3.43 11.57
3/28/2021 11:00:00 AM 9.6 49.28 0.096 7.51 3.48 11.58
3/28/2021 11:15:00 AM 9.64 49.352 0.096 7.53 3.46 11.63
3/28/2021 11:30:00 AM 9.69 49.442 0.096 7.55 3.44 11.66
3/28/2021 11:45:00 AM 9.72 49.496 0.096 7.54 3.61 11.61
3/28/2021 12:00:00 PM 9.76 49.568 0.096 7.54 3.49 11.58
3/28/2021 12:15:00 PM 9.81 49.658 0.096 7.55 3.46 11.57
3/28/2021 12:30:00 PM 9.87 49.766 0.096 7.58 3.41 11.62
3/28/2021 12:45:00 PM 9.93 49.874 0.096 7.59 3.33 11.6
3/28/2021 1:00:00 PM 9.96 49.928 0.096 7.58 3.44 11.52
3/28/2021 1:15:00 PM 9.97 49.946 0.096 7.57 3.28 11.48
3/28/2021 1:30:00 PM 10 50 0.096 7.55 3.41 11.45
3/28/2021 1:45:00 PM 10.04 50.072 0.096 7.56 3.46 11.54
3/28/2021 2:00:00 PM 10.08 50.144 0.096 7.6 3.36 11.52
3/28/2021 2:15:00 PM 10.12 50.216 0.096 7.58 3.58 11.53
3/28/2021 2:30:00 PM 10.14 50.252 0.096 7.59 3.42 11.45
3/28/2021 2:45:00 PM 10.14 50.252 0.096 7.53 3.52 11.41
3/28/2021 3:00:00 PM 10.17 50.306 0.096 7.54 3.49 11.39
3/28/2021 3:15:00 PM 10.16 50.288 0.096 7.48 3.74 11.28
3/28/2021 3:30:00 PM 10.17 50.306 0.096 7.49 3.53 11.29
3/28/2021 3:45:00 PM 10.19 50.342 0.096 7.55 3.49 11.35
3/28/2021 4:00:00 PM 10.21 50.378 0.096 7.53 3.56 11.35
3/28/2021 4:15:00 PM 10.28 50.504 0.096 7.55 3.57 11.43
3/28/2021 4:30:00 PM 10.37 50.666 0.096 7.54 3.4 11.43
3/28/2021 4:45:00 PM 10.4 50.72 0.096 7.52 3.48 11.34
3/28/2021 5:00:00 PM 10.45 50.81 0.096 7.55 3.39 11.27
3/28/2021 5:15:00 PM 10.51 50.918 0.096 7.56 3.56 11.27
3/28/2021 5:30:00 PM 10.55 50.99 0.095 7.57 3.77 11.26
3/28/2021 5:45:00 PM 10.57 51.026 0.095 7.56 3.57 11.21
3/28/2021 6:00:00 PM 10.55 50.99 0.095 7.52 3.46 11.12
3/28/2021 6:15:00 PM 10.53 50.954 0.095 7.51 3.47 11.08
3/28/2021 6:30:00 PM 10.48 50.864 0.096 7.47 3.79 11.08
3/28/2021 6:45:00 PM 10.43 50.774 0.096 7.51 3.62 11.16
3/28/2021 7:00:00 PM 10.37 50.666 0.096 7.49 3.45 11.11
3/28/2021 7:15:00 PM 10.3 50.54 0.096 7.47 3.49 11.07
3/28/2021 7:30:00 PM 10.25 50.45 0.096 7.47 3.41 11.07
3/28/2021 7:45:00 PM 10.18 50.324 0.096 7.46 3.48 11.05
3/28/2021 8:00:00 PM 10.12 50.216 0.096 7.46 3.44 11.08
3/28/2021 8:15:00 PM 10.06 50.108 0.097 7.45 5.4 11.1
3/28/2021 8:30:00 PM 9.99 49.982 0.097 7.45 4.24 11.12
3/28/2021 8:45:00 PM 9.94 49.892 0.097 7.44 3.52 11.11
3/28/2021 9:00:00 PM 9.88 49.784 0.097 7.46 3.44 11.14
3/28/2021 9:15:00 PM 9.82 49.676 0.097 7.45 3.56 11.13
3/28/2021 9:30:00 PM 9.76 49.568 0.097 7.46 3.48 11.17
3/28/2021 9:45:00 PM 9.68 49.424 0.097 7.44 3.69 11.19
3/28/2021 10:00:00 PM 9.59 49.262 0.097 7.44 3.48 11.2
3/28/2021 10:15:00 PM 9.51 49.118 0.097 7.44 3.46 11.22
3/28/2021 10:30:00 PM 9.42 48.956 0.097 7.44 3.58 11.25
3/28/2021 10:45:00 PM 9.36 48.848 0.098 7.45 3.56 11.29
3/28/2021 11:00:00 PM 9.27 48.686 0.098 7.45 3.42 11.31
3/28/2021 11:15:00 PM 9.17 48.506 0.098 7.4 3.48 11.29
3/28/2021 11:30:00 PM 9.11 48.398 0.098 7.46 3.62 11.37
3/28/2021 11:45:00 PM 9.04 48.272 0.098 7.44 3.63 11.38
3/29/2021 12:00:00 AM 8.95 48.11 0.098 7.45 3.47 11.42
3/29/2021 12:15:00 AM 8.85 47.93 0.098 7.44 3.44 11.44
3/29/2021 12:30:00 AM 8.78 47.804 0.098 7.44 3.34 11.45
3/29/2021 12:45:00 AM 8.72 47.696 0.098 7.46 3.52 11.5
3/29/2021 1:00:00 AM 8.66 47.588 0.098 7.45 3.45 11.5
3/29/2021 1:15:00 AM 8.61 47.498 0.098 7.45 3.69 11.53
3/29/2021 1:30:00 AM 8.52 47.336 0.098 7.46 3.82 11.56
3/29/2021 1:45:00 AM 8.41 47.138 0.098 7.45 3.51 11.59
3/29/2021 2:00:00 AM 8.34 47.012 0.098 7.46 3.6 11.63
3/29/2021 2:15:00 AM 8.29 46.922 0.098 7.45 3.38 11.65
3/29/2021 2:30:00 AM 8.2 46.76 0.098 7.46 3.37 11.69
3/29/2021 2:45:00 AM 8.13 46.634 0.098 7.46 3.4 11.7
3/29/2021 3:00:00 AM 8.07 46.526 0.098 7.46 3.6 11.71
3/29/2021 3:15:00 AM 8.01 46.418 0.098 7.46 3.37 11.75
3/29/2021 3:30:00 AM 7.95 46.31 0.098 7.43 3.4 11.72
3/29/2021 3:45:00 AM 7.89 46.202 0.098 7.45 3.36 11.76
3/29/2021 4:00:00 AM 7.84 46.112 0.098 7.46 3.26 11.79
3/29/2021 4:15:00 AM 7.77 45.986 0.098 7.45 3.67 11.81
3/29/2021 4:30:00 AM 7.72 45.896 0.098 7.45 3.33 11.84
3/29/2021 4:45:00 AM 7.67 45.806 0.098 7.46 3.48 11.85
3/29/2021 5:00:00 AM 7.64 45.752 0.098 7.45 3.58 11.86
3/29/2021 5:15:00 AM 7.6 45.68 0.098 7.47 3.51 11.89
3/29/2021 5:30:00 AM 7.58 45.644 0.098 7.44 3.41 11.9
3/29/2021 5:45:00 AM 7.52 45.536 0.097 7.43 3.6 11.91
3/29/2021 6:00:00 AM 7.49 45.482 0.098 7.45 3.37 11.92
3/29/2021 6:15:00 AM 7.45 45.41 0.098 7.44 3.6 11.94
3/29/2021 6:30:00 AM 7.42 45.356 0.098 7.45 3.42 11.97
3/29/2021 6:45:00 AM 7.38 45.284 0.097 7.46 3.49 11.97
3/29/2021 7:00:00 AM 7.34 45.212 0.097 7.46 3.32 12.01
3/29/2021 7:15:00 AM 7.33 45.194 0.097 7.45 3.28 12.02
3/29/2021 7:30:00 AM 7.32 45.176 0.097 7.45 3.64 12.04
3/29/2021 7:45:00 AM 7.27 45.086 0.097 7.47 3.27 12.09
3/29/2021 8:00:00 AM 7.24 45.032 0.097 7.48 3.27 12.15
3/29/2021 8:15:00 AM 7.2 44.96 0.097 7.49 3.39 12.26
3/29/2021 8:30:00 AM 7.19 44.942 0.097 7.49 3.4 12.28
3/29/2021 8:45:00 AM 7.17 44.906 0.097 7.5 3.41 12.26
3/29/2021 9:00:00 AM 7.14 44.852 0.097 7.51 3.34 12.32
3/29/2021 9:15:00 AM 7.12 44.816 0.097 7.49 3.41 12.32
3/29/2021 9:30:00 AM 7.1 44.78 0.097 7.52 3.32 12.38
3/29/2021 9:45:00 AM 7.08 44.744 0.097 7.54 3.34 12.43
3/29/2021 10:00:00 AM 7.09 44.762 0.097 7.52 3.35 12.46
3/29/2021 10:15:00 AM 7.11 44.798 0.096 7.58 3.27 12.55
3/29/2021 10:30:00 AM 7.17 44.906 0.096 7.57 3.23 12.58
3/29/2021 10:45:00 AM 7.26 45.068 0.096 7.6 3.34 12.61
3/29/2021 11:00:00 AM 7.34 45.212 0.096 7.61 3.31 12.62
3/29/2021 11:15:00 AM 7.41 45.338 0.096 7.61 3.43 12.61
3/29/2021 11:30:00 AM 7.51 45.518 0.096 7.62 3.39 12.59
3/29/2021 11:45:00 AM 7.63 45.734 0.096 7.65 3.59 12.58
3/29/2021 12:00:00 PM 7.69 45.842 0.095 7.64 3.33 12.56
3/29/2021 12:15:00 PM 7.76 45.968 0.095 7.63 3.68 12.51
3/29/2021 12:30:00 PM 8.09 46.562 0.095 7.66 3.4 12.5
3/29/2021 12:45:00 PM 8.23 46.814 0.095 7.68 3.49 12.44
3/29/2021 1:00:00 PM 8.31 46.958 0.095 7.66 3.34 12.38
3/29/2021 1:15:00 PM 8.5 47.3 0.095 7.65 3.4 12.37
3/29/2021 1:30:00 PM 8.72 47.696 0.095 7.66 3.39 12.31
3/29/2021 1:45:00 PM 8.83 47.894 0.095 7.64 3.37 12.24
3/29/2021 2:00:00 PM 9.01 48.218 0.095 7.67 3.32 12.22
3/29/2021 2:15:00 PM 9.18 48.524 0.095 7.65 3.33 12.11
3/29/2021 2:30:00 PM 9.37 48.866 0.095 7.64 3.39 12.07
3/29/2021 2:45:00 PM 9.53 49.154 0.095 7.67 3.32 12.03
3/29/2021 3:00:00 PM 9.69 49.442 0.095 7.68 3.35 12.01
3/29/2021 3:15:00 PM 9.79 49.622 0.095 7.63 3.29 11.91
3/29/2021 3:30:00 PM 9.85 49.73 0.095 7.64 3.25 11.89
3/29/2021 3:45:00 PM 9.92 49.856 0.095 7.66 3.31 11.87
3/29/2021 4:00:00 PM 10 50 0.095 7.66 3.29 11.88
3/29/2021 4:15:00 PM 9.96 49.928 0.095 7.61 3.37 11.83
3/29/2021 4:30:00 PM 9.91 49.838 0.095 7.65 3.39 11.83
3/29/2021 4:45:00 PM 9.88 49.784 0.095 7.61 3.31 11.81
3/29/2021 5:00:00 PM 9.84 49.712 0.095 7.6 3.31 11.79
3/29/2021 5:15:00 PM 9.76 49.568 0.095 7.62 3.33 11.8
3/29/2021 5:30:00 PM 9.66 49.388 0.095 7.61 3.4 11.75
3/29/2021 5:45:00 PM 9.58 49.244 0.096 7.58 3.21 11.74
3/29/2021 6:00:00 PM 9.49 49.082 0.096 7.55 3.25 11.73
3/29/2021 6:15:00 PM 9.4 48.92 0.096 7.57 3.5 11.71
3/29/2021 6:30:00 PM 9.3 48.74 0.096 7.54 3.34 11.72
3/29/2021 6:45:00 PM 9.17 48.506 0.096 7.55 3.24 11.76
3/29/2021 7:00:00 PM 9.05 48.29 0.096 7.51 3.3 11.71
3/29/2021 7:15:00 PM 8.94 48.092 0.097 7.49 3.26 11.71
3/29/2021 7:30:00 PM 8.81 47.858 0.097 7.49 3.24 11.72
3/29/2021 7:45:00 PM 8.69 47.642 0.097 7.46 3.36 11.7
3/29/2021 8:00:00 PM 8.57 47.426 0.097 7.46 3.31 11.71
3/29/2021 8:15:00 PM 8.43 47.174 0.097 7.44 3.25 11.72
3/29/2021 8:30:00 PM 8.33 46.994 0.097 7.44 3.25 11.73
3/29/2021 8:45:00 PM 8.21 46.778 0.098 7.45 3.34 11.81
3/29/2021 9:00:00 PM 8.12 46.616 0.098 7.43 3.45 11.83
3/29/2021 9:15:00 PM 8.03 46.454 0.098 7.44 3.34 11.85
3/29/2021 9:30:00 PM 7.93 46.274 0.098 7.44 3.36 11.87
3/29/2021 9:45:00 PM 7.84 46.112 0.098 7.43 3.24 11.91
3/29/2021 10:00:00 PM 7.75 45.95 0.098 7.42 3.22 11.9
3/29/2021 10:15:00 PM 7.66 45.788 0.099 7.43 3.39 11.96
3/29/2021 10:30:00 PM 7.57 45.626 0.099 7.4 3.25 11.95
3/29/2021 10:45:00 PM 7.49 45.482 0.099 7.4 3.36 11.99
3/29/2021 11:00:00 PM 7.41 45.338 0.099 7.41 3.27 12.02
3/29/2021 11:15:00 PM 7.32 45.176 0.099 7.41 3.23 12.05
3/29/2021 11:30:00 PM 7.25 45.05 0.099 7.4 3.26 12.07
3/29/2021 11:45:00 PM 7.17 44.906 0.099 7.41 3.34 12.08
3/30/2021 12:00:00 AM 7.1 44.78 0.099 7.4 3.27 12.11
3/30/2021 12:15:00 AM 7.02 44.636 0.099 7.42 3.23 12.18
3/30/2021 12:30:00 AM 6.95 44.51 0.099 7.4 3.38 12.17
3/30/2021 12:45:00 AM 6.87 44.366 0.099 7.42 3.22 12.21
3/30/2021 1:00:00 AM 6.81 44.258 0.099 7.41 3.27 12.21
3/30/2021 1:15:00 AM 6.75 44.15 0.099 7.41 3.49 12.26
3/30/2021 1:30:00 AM 6.68 44.024 0.099 7.42 3.29 12.31
3/30/2021 1:45:00 AM 6.62 43.916 0.099 7.4 3.25 12.28
3/30/2021 2:00:00 AM 6.53 43.754 0.099 7.42 3.2 12.33
3/30/2021 2:15:00 AM 6.47 43.646 0.099 7.41 3.36 12.32
3/30/2021 2:30:00 AM 6.42 43.556 0.099 7.42 3.26 12.36
3/30/2021 2:45:00 AM 6.37 43.466 0.099 7.41 3.23 12.39
3/30/2021 3:00:00 AM 6.3 43.34 0.099 7.42 3.2 12.41
3/30/2021 3:15:00 AM 6.26 43.268 0.099 7.4 3.2 12.41
3/30/2021 3:30:00 AM 6.19 43.142 0.099 7.41 3.18 12.43
3/30/2021 3:45:00 AM 6.13 43.034 0.099 7.41 3.23 12.46
3/30/2021 4:00:00 AM 6.1 42.98 0.099 7.43 3.39 12.49
3/30/2021 4:15:00 AM 6.05 42.89 0.099 7.4 3.23 12.5
3/30/2021 4:30:00 AM 6 42.8 0.099 7.41 3.17 12.51
3/30/2021 4:45:00 AM 5.94 42.692 0.099 7.41 3.2 12.52
3/30/2021 5:00:00 AM 5.91 42.638 0.099 7.4 3.24 12.51
3/30/2021 5:15:00 AM 5.87 42.566 0.099 7.39 3.25 12.51
3/30/2021 5:30:00 AM 5.8 42.44 0.099 7.39 3.21 12.57
3/30/2021 5:45:00 AM 5.78 42.404 0.099 7.39 3.18 12.57
3/30/2021 6:00:00 AM 5.73 42.314 0.099 7.39 3.23 12.59
3/30/2021 6:15:00 AM 5.67 42.206 0.099 7.41 3.13 12.64
3/30/2021 6:30:00 AM 5.64 42.152 0.099 7.4 3.14 12.62
3/30/2021 6:45:00 AM 5.6 42.08 0.099 7.39 3.24 12.63
3/30/2021 7:00:00 AM 5.56 42.008 0.099 7.4 3.28 12.67
3/30/2021 7:15:00 AM 5.54 41.972 0.099 7.41 3.13 12.75
3/30/2021 7:30:00 AM 5.52 41.936 0.099 7.42 3.15 12.77
3/30/2021 7:45:00 AM 5.5 41.9 0.099 7.41 3.19 12.84
3/30/2021 8:00:00 AM 5.51 41.918 0.099 7.43 3.2 12.9
3/30/2021 8:15:00 AM 5.53 41.954 0.099 7.46 3.2 12.96
3/30/2021 8:30:00 AM 5.55 41.99 0.099 7.48 3.18 13.01
3/30/2021 8:45:00 AM 5.63 42.134 0.099 7.46 3.18 13.01
3/30/2021 9:00:00 AM 5.69 42.242 0.098 7.51 3.21 13.04
3/30/2021 9:15:00 AM 5.79 42.422 0.098 7.51 3.18 13.12
3/30/2021 9:30:00 AM 5.91 42.638 0.098 7.5 3.22 13.05
3/30/2021 9:45:00 AM 6.06 42.908 0.098 7.5 3.12 13.01
3/30/2021 10:00:00 AM 6.23 43.214 0.098 7.52 3.15 12.98
3/30/2021 10:15:00 AM 6.43 43.574 0.098 7.56 3.16 12.95
3/30/2021 10:30:00 AM 6.68 44.024 0.097 7.56 3.15 12.88
3/30/2021 10:45:00 AM 6.97 44.546 0.097 7.56 3.15 12.85
3/30/2021 11:00:00 AM 7.32 45.176 0.097 7.57 3.16 12.8
3/30/2021 11:15:00 AM 7.68 45.824 0.097 7.6 3.17 12.78
3/30/2021 11:30:00 AM 7.94 46.292 0.097 7.58 3.15 12.62
3/30/2021 11:45:00 AM 8.25 46.85 0.097 7.56 3.22 12.55
3/30/2021 12:00:00 PM 8.52 47.336 0.097 7.61 3.17 12.45
3/30/2021 12:15:00 PM 8.88 47.984 0.097 7.61 3.13 12.41
3/30/2021 12:30:00 PM 9.11 48.398 0.097 7.6 3.19 12.3
3/30/2021 12:45:00 PM 9.42 48.956 0.097 7.56 3.11 12.23
3/30/2021 1:00:00 PM 9.65 49.37 0.097 7.6 3.18 12.18
3/30/2021 1:15:00 PM 9.82 49.676 0.097 7.57 3.16 12.1
3/30/2021 1:30:00 PM 10.02 50.036 0.097 7.61 3.14 12.04
3/30/2021 1:45:00 PM 10.26 50.468 0.097 7.61 3.11 12
3/30/2021 2:00:00 PM 10.45 50.81 0.097 7.65 3.07 11.94
3/30/2021 2:15:00 PM 10.55 50.99 0.097 7.64 3.14 11.86
3/30/2021 2:30:00 PM 10.72 51.296 0.097 7.63 3.08 11.83
3/30/2021 2:45:00 PM 10.98 51.764 0.097 7.63 3.19 11.78
3/30/2021 3:00:00 PM 11.18 52.124 0.097 7.63 3.18 11.7
3/30/2021 3:15:00 PM 11.26 52.268 0.096 7.64 4.59 11.69
3/30/2021 3:30:00 PM 11.29 52.322 0.097 7.65 3.23 11.59
3/30/2021 3:45:00 PM 11.42 52.556 0.097 7.64 3.1 11.58
3/30/2021 4:00:00 PM 11.44 52.592 0.097 7.66 3.11 11.53
3/30/2021 4:15:00 PM 11.5 52.7 0.097 7.66 3.12 11.52
3/30/2021 4:30:00 PM 11.57 52.826 0.097 7.67 3.22 11.57
3/30/2021 4:45:00 PM 11.49 52.682 0.097 7.63 3.16 11.45
3/30/2021 5:00:00 PM 11.49 52.682 0.097 7.66 3.16 11.48
3/30/2021 5:15:00 PM 11.42 52.556 0.097 7.64 3.12 11.42
3/30/2021 5:30:00 PM 11.33 52.394 0.097 7.62 3.16 11.39
3/30/2021 5:45:00 PM 11.27 52.286 0.097 7.59 3.23 11.36
3/30/2021 6:00:00 PM 11.23 52.214 0.098 7.61 3.14 11.4
3/30/2021 6:15:00 PM 11.14 52.052 0.097 7.6 3.27 11.32
3/30/2021 6:30:00 PM 11.03 51.854 0.097 7.59 3.22 11.29
3/30/2021 6:45:00 PM 10.89 51.602 0.098 7.55 3.21 11.28
3/30/2021 7:00:00 PM 10.76 51.368 0.098 7.55 3.2 11.27
3/30/2021 7:15:00 PM 10.6 51.08 0.098 7.52 3.21 11.21
3/30/2021 7:30:00 PM 10.46 50.828 0.098 7.48 3.15 11.16
3/30/2021 7:45:00 PM 10.33 50.594 0.099 7.45 3.24 11.13
3/30/2021 8:00:00 PM 10.23 50.414 0.099 7.46 3.3 11.15
3/30/2021 8:15:00 PM 10.12 50.216 0.099 7.45 3.12 11.17
3/30/2021 8:30:00 PM 10.02 50.036 0.099 7.43 3.12 11.16
3/30/2021 8:45:00 PM 9.94 49.892 0.099 7.44 3.2 11.2
3/30/2021 9:00:00 PM 9.86 49.748 0.099 7.42 3.21 11.17
3/30/2021 9:15:00 PM 9.77 49.586 0.1 7.44 3.48 11.25
3/30/2021 9:30:00 PM 9.7 49.46 0.1 7.43 3.23 11.26
3/30/2021 9:45:00 PM 9.62 49.316 0.1 7.43 3.11 11.29
3/30/2021 10:00:00 PM 9.55 49.19 0.1 7.43 3.19 11.33
3/30/2021 10:15:00 PM 9.49 49.082 0.1 7.44 3.21 11.39
3/30/2021 10:30:00 PM 9.41 48.938 0.1 7.42 3.25 11.34
3/30/2021 10:45:00 PM 9.36 48.848 0.1 7.41 3.13 11.36
3/30/2021 11:00:00 PM 9.32 48.776 0.1 7.44 3.06 11.39
3/30/2021 11:15:00 PM 9.27 48.686 0.101 7.44 3.09 11.41
3/30/2021 11:30:00 PM 9.22 48.596 0.1 7.43 3.16 11.41
3/30/2021 11:45:00 PM 9.17 48.506 0.1 7.43 3.16 11.44
3/31/2021 12:00:00 AM 9.12 48.416 0.1 7.42 3.12 11.45
3/31/2021 12:15:00 AM 9.08 48.344 0.1 7.42 3.16 11.43
3/31/2021 12:30:00 AM 9.04 48.272 0.1 7.43 3.11 11.45
3/31/2021 12:45:00 AM 8.99 48.182 0.1 7.39 3.16 11.4
3/31/2021 1:00:00 AM 8.95 48.11 0.1 7.4 3.13 11.46
3/31/2021 1:15:00 AM 8.91 48.038 0.1 7.41 3.17 11.49
3/31/2021 1:30:00 AM 8.86 47.948 0.1 7.43 3.07 11.52
3/31/2021 1:45:00 AM 8.82 47.876 0.1 7.42 3.14 11.53
3/31/2021 2:00:00 AM 8.79 47.822 0.1 7.39 3.22 11.49
3/31/2021 2:15:00 AM 8.77 47.786 0.1 7.42 3.09 11.55
3/31/2021 2:30:00 AM 8.72 47.696 0.1 7.41 4.1 11.53
3/31/2021 2:45:00 AM 8.69 47.642 0.1 7.4 3.29 11.52
3/31/2021 3:00:00 AM 8.66 47.588 0.1 7.41 3.42 11.56
3/31/2021 3:15:00 AM 8.64 47.552 0.1 7.43 3.56 11.57
3/31/2021 3:30:00 AM 8.62 47.516 0.1 7.41 3.2 11.56
3/31/2021 3:45:00 AM 8.59 47.462 0.101 7.39 3.22 11.52
3/31/2021 4:00:00 AM 8.57 47.426 0.1 7.42 3.12 11.57
3/31/2021 4:15:00 AM 8.55 47.39 0.101 7.39 3.27 11.55
3/31/2021 4:30:00 AM 8.54 47.372 0.1 7.41 3.14 11.57
3/31/2021 4:45:00 AM 8.51 47.318 0.101 7.41 3.26 11.56
3/31/2021 5:00:00 AM 8.5 47.3 0.1 7.41 3.19 11.59
3/31/2021 5:15:00 AM 8.48 47.264 0.1 7.41 3.17 11.59
3/31/2021 5:30:00 AM 8.46 47.228 0.1 7.42 3.23 11.62
3/31/2021 5:45:00 AM 8.44 47.192 0.1 7.4 3.18 11.57
3/31/2021 6:00:00 AM 8.43 47.174 0.101 7.39 3.13 11.56
3/31/2021 6:15:00 AM 8.41 47.138 0.101 7.38 3.03 11.58
3/31/2021 6:30:00 AM 8.4 47.12 0.101 7.4 2.95 11.58
3/31/2021 6:45:00 AM 8.4 47.12 0.101 7.42 3.17 11.62
3/31/2021 7:00:00 AM 8.4 47.12 0.1 7.41 3.07 11.63
3/31/2021 7:15:00 AM 8.4 47.12 0.1 7.41 3.21 11.66
3/31/2021 7:30:00 AM 8.41 47.138 0.1 7.43 3.06 11.71
3/31/2021 7:45:00 AM 8.42 47.156 0.1 7.46 3.07 11.78
3/31/2021 8:00:00 AM 8.44 47.192 0.1 7.45 3.06 11.85
3/31/2021 8:15:00 AM 8.47 47.246 0.1 7.47 3.24 11.88
3/31/2021 8:30:00 AM 8.51 47.318 0.1 7.5 3.19 12.02
3/31/2021 8:45:00 AM 8.56 47.408 0.1 7.5 3.09 12.11
3/31/2021 9:00:00 AM 8.62 47.516 0.1 7.55 3.19 12.16
3/31/2021 9:15:00 AM 8.67 47.606 0.1 7.56 3.08 12.19
3/31/2021 9:30:00 AM 8.73 47.714 0.099 7.56 3.12 12.15
3/31/2021 9:45:00 AM 8.8 47.84 0.099 7.56 3.18 12.22
3/31/2021 10:00:00 AM 8.88 47.984 0.099 7.61 3.13 12.23
3/31/2021 10:15:00 AM 8.99 48.182 0.099 7.64 3.08 12.2
3/31/2021 10:30:00 AM 9.1 48.38 0.099 7.66 3.13 12.21
3/31/2021 10:45:00 AM 9.18 48.524 0.099 7.64 3.08 12.15
3/31/2021 11:00:00 AM 9.28 48.704 0.099 7.65 3.2 12.12
3/31/2021 11:15:00 AM 9.35 48.83 0.099 7.65 3.13 12.11
3/31/2021 11:30:00 AM 9.41 48.938 0.099 7.6 3.14 11.96
3/31/2021 11:45:00 AM 9.48 49.064 0.098 7.66 3.19 11.97
3/31/2021 12:00:00 PM 9.53 49.154 0.098 7.64 3.17 11.91
3/31/2021 12:15:00 PM 9.58 49.244 0.098 7.63 3.1 11.88
3/31/2021 12:30:00 PM 9.63 49.334 0.098 7.61 3.19 11.87
3/31/2021 12:45:00 PM 9.68 49.424 0.098 7.62 3.21 11.83
3/31/2021 1:00:00 PM 9.72 49.496 0.098 7.61 3.15 11.87
3/31/2021 1:15:00 PM 9.78 49.604 0.098 7.67 3.14 11.9
3/31/2021 1:30:00 PM 9.83 49.694 0.098 7.65 3.2 11.91
3/31/2021 1:45:00 PM 9.89 49.802 0.098 7.67 3.2 11.89
3/31/2021 2:00:00 PM 9.95 49.91 0.098 7.67 3.27 11.96
3/31/2021 2:15:00 PM 9.94 49.892 0.098 7.59 3.21 11.73
3/31/2021 2:30:00 PM 9.97 49.946 0.098 7.64 3.11 11.8
3/31/2021 2:45:00 PM 10 50 0.098 7.6 3.27 11.75
3/31/2021 3:00:00 PM 10.01 50.018 0.098 7.63 3.13 11.7
3/31/2021 3:15:00 PM 10.09 50.162 0.098 7.65 3.11 11.78
3/31/2021 3:30:00 PM 10.1 50.18 0.098 7.6 3.17 11.74
3/31/2021 3:45:00 PM 10.11 50.198 0.098 7.6 3.1 11.71
3/31/2021 4:00:00 PM 10.14 50.252 0.098 7.63 3.05 11.7
3/31/2021 4:15:00 PM 10.15 50.27 0.099 7.63 3.23 11.66
3/31/2021 4:30:00 PM 10.14 50.252 0.099 7.58 3.16 11.55
3/31/2021 4:45:00 PM 10.14 50.252 0.099 7.52 3.2 11.46
3/31/2021 5:00:00 PM 10.13 50.234 0.099 7.53 3.15 11.38
3/31/2021 5:15:00 PM 10.12 50.216 0.099 7.52 3.08 11.41
3/31/2021 5:30:00 PM 10.12 50.216 0.099 7.52 3.11 11.41
3/31/2021 5:45:00 PM 10.11 50.198 0.099 7.51 3.28 11.39
3/31/2021 6:00:00 PM 10.09 50.162 0.099 7.47 3.09 11.33
3/31/2021 6:15:00 PM 10.08 50.144 0.099 7.47 3.12 11.27
3/31/2021 6:30:00 PM 10.06 50.108 0.099 7.44 3.15 11.19
3/31/2021 6:45:00 PM 10.05 50.09 0.1 7.43 3.16 11.21
3/31/2021 7:00:00 PM 10.03 50.054 0.1 7.45 3.19 11.24
3/31/2021 7:15:00 PM 10.01 50.018 0.1 7.42 3.1 11.17
3/31/2021 7:30:00 PM 9.99 49.982 0.1 7.44 3.09 11.14
3/31/2021 7:45:00 PM 9.97 49.946 0.1 7.42 3.17 11.12
3/31/2021 8:00:00 PM 9.95 49.91 0.1 7.41 3.21 11.12
3/31/2021 8:15:00 PM 9.95 49.91 0.1 7.44 3.41 11.14
3/31/2021 8:30:00 PM 9.86 49.748 0.1 7.43 3.67 11.15
3/31/2021 8:45:00 PM 9.78 49.604 0.1 7.42 3.45 11.15
3/31/2021 9:00:00 PM 9.72 49.496 0.1 7.42 3.69 11.15
3/31/2021 9:15:00 PM 9.66 49.388 0.101 7.4 3.17 11.17
3/31/2021 9:30:00 PM 9.6 49.28 0.101 7.41 3.18 11.2
3/31/2021 9:45:00 PM 9.56 49.208 0.101 7.44 3.36 11.23
3/31/2021 10:00:00 PM 9.51 49.118 0.101 7.42 3.32 11.21
3/31/2021 10:15:00 PM 9.46 49.028 0.102 7.43 3.29 11.29
3/31/2021 10:30:00 PM 9.41 48.938 0.102 7.44 3.18 11.29
3/31/2021 10:45:00 PM 9.35 48.83 0.102 7.44 3.25 11.31
3/31/2021 11:00:00 PM 9.3 48.74 0.102 7.42 3.26 11.31
3/31/2021 11:15:00 PM 9.25 48.65 0.102 7.43 3.17 11.33
3/31/2021 11:30:00 PM 9.2 48.56 0.102 7.46 3.26 11.37
3/31/2021 11:45:00 PM 9.16 48.488 0.102 7.43 3.26 11.36
4/1/2021 12:00:00 AM 9.1 48.38 0.102 7.44 3.18 11.37
4/1/2021 12:15:00 AM 9.06 48.308 0.102 7.44 3.16 11.4
4/1/2021 12:30:00 AM 9.02 48.236 0.102 7.43 3.11 11.39
4/1/2021 12:45:00 AM 8.97 48.146 0.102 7.44 3.01 11.43
4/1/2021 1:00:00 AM 8.94 48.092 0.102 7.43 3.04 11.38
4/1/2021 1:15:00 AM 8.89 48.002 0.102 7.42 3.25 11.42
4/1/2021 1:30:00 AM 8.84 47.912 0.102 7.42 2.95 11.45
4/1/2021 1:45:00 AM 8.8 47.84 0.102 7.42 3.22 11.46
4/1/2021 2:00:00 AM 8.73 47.714 0.102 7.42 2.96 11.46
4/1/2021 2:15:00 AM 8.68 47.624 0.102 7.42 3.09 11.47
4/1/2021 2:30:00 AM 8.63 47.534 0.102 7.44 3.1 11.51
4/1/2021 2:45:00 AM 8.58 47.444 0.102 7.43 3.06 11.49
4/1/2021 3:00:00 AM 8.52 47.336 0.102 7.43 3.18 11.52
4/1/2021 3:15:00 AM 8.46 47.228 0.101 7.42 3.23 11.54
4/1/2021 3:30:00 AM 8.37 47.066 0.101 7.44 3.28 11.59
4/1/2021 3:45:00 AM 8.29 46.922 0.101 7.44 3.16 11.61
4/1/2021 4:00:00 AM 8.2 46.76 0.101 7.43 3.13 11.61
4/1/2021 4:15:00 AM 8.09 46.562 0.101 7.44 3.07 11.64
4/1/2021 4:30:00 AM 7.95 46.31 0.101 7.43 3.09 11.67
4/1/2021 4:45:00 AM 7.84 46.112 0.101 7.41 3.12 11.69
4/1/2021 5:00:00 AM 7.65 45.77 0.101 7.44 3.18 11.78
4/1/2021 5:15:00 AM 7.51 45.518 0.1 7.4 3.37 11.74
4/1/2021 5:30:00 AM 7.41 45.338 0.1 7.43 3.32 11.84
4/1/2021 5:45:00 AM 7.39 45.302 0.101 7.42 3.2 11.88
4/1/2021 6:00:00 AM 7.29 45.122 0.101 7.42 3.06 11.91
4/1/2021 6:15:00 AM 7.06 44.708 0.1 7.42 3.2 11.89
4/1/2021 6:30:00 AM 6.92 44.456 0.1 7.45 3.12 12
4/1/2021 6:45:00 AM 6.88 44.384 0.1 7.42 3.27 12
4/1/2021 7:00:00 AM 6.79 44.222 0.1 7.44 3.26 12.1
4/1/2021 7:15:00 AM 6.78 44.204 0.1 7.44 3.53 12.15
4/1/2021 7:30:00 AM 6.76 44.168 0.1 7.45 3.14 12.18
4/1/2021 7:45:00 AM 6.75 44.15 0.1 7.45 3.2 12.22
4/1/2021 8:00:00 AM 6.74 44.132 0.1 7.47 3.22 12.3
4/1/2021 8:15:00 AM 6.74 44.132 0.1 7.47 3.09 12.3
4/1/2021 8:30:00 AM 6.73 44.114 0.1 7.49 3.24 12.47
4/1/2021 8:45:00 AM 6.76 44.168 0.1 7.48 3.36 12.46
4/1/2021 9:00:00 AM 6.77 44.186 0.1 7.52 3.15 12.56
4/1/2021 9:15:00 AM 6.79 44.222 0.1 7.55 3.19 12.56
4/1/2021 9:30:00 AM 6.84 44.312 0.1 7.51 3.41 12.56
4/1/2021 9:45:00 AM 6.89 44.402 0.1 7.57 3.27 12.61
4/1/2021 10:00:00 AM 6.98 44.564 0.1 7.59 3.38 12.64
4/1/2021 10:15:00 AM 7.07 44.726 0.1 7.64 3.24 12.72
4/1/2021 10:30:00 AM 7.22 44.996 0.1 7.62 3.4 12.65
4/1/2021 10:45:00 AM 7.28 45.104 0.099 7.64 3.26 12.61
4/1/2021 11:00:00 AM 7.46 45.428 0.099 7.62 3.2 12.59
4/1/2021 11:15:00 AM 7.65 45.77 0.099 7.63 3.43 12.54
4/1/2021 11:30:00 AM 7.83 46.094 0.099 7.63 3.25 12.49
4/1/2021 11:45:00 AM 7.78 46.004 0.099 7.65 3.21 12.48
4/1/2021 12:00:00 PM 7.98 46.364 0.099 7.66 3.22 12.46
4/1/2021 12:15:00 PM 8.15 46.67 0.099 7.65 3.12 12.42
4/1/2021 12:30:00 PM 8.08 46.544 0.099 7.63 3.27 12.33
4/1/2021 12:45:00 PM 8.25 46.85 0.099 7.66 3.25 12.37
4/1/2021 1:00:00 PM 8.3 46.94 0.099 7.66 3.17 12.28
4/1/2021 1:15:00 PM 8.35 47.03 0.099 7.63 3.26 12.3
4/1/2021 1:30:00 PM 8.44 47.192 0.099 7.66 3.28 12.27
4/1/2021 1:45:00 PM 8.48 47.264 0.099 7.71 3.1 12.3
4/1/2021 2:00:00 PM 8.37 47.066 0.099 7.65 3.13 12.24
4/1/2021 2:15:00 PM 8.27 46.886 0.099 7.66 3.28 12.29
4/1/2021 2:30:00 PM 8.33 46.994 0.099 7.67 3.14 12.31
4/1/2021 2:45:00 PM 8.44 47.192 0.099 7.67 3.23 12.3
4/1/2021 3:00:00 PM 8.36 47.048 0.098 7.63 3.26 12.23
4/1/2021 3:15:00 PM 8.31 46.958 0.099 7.67 3.24 12.28
4/1/2021 3:30:00 PM 8.35 47.03 0.098 7.68 3.27 12.28
4/1/2021 3:45:00 PM 8.34 47.012 0.098 7.66 3.27 12.27
4/1/2021 4:00:00 PM 8.34 47.012 0.098 7.68 3.35 12.28
4/1/2021 4:15:00 PM 8.29 46.922 0.098 7.65 3.29 12.26
4/1/2021 4:30:00 PM 8.23 46.814 0.098 7.65 3.16 12.23
4/1/2021 4:45:00 PM 8.23 46.814 0.098 7.65 3.16 12.26
4/1/2021 5:00:00 PM 8.22 46.796 0.098 7.66 3.25 12.25
4/1/2021 5:15:00 PM 8.16 46.688 0.098 7.65 3.27 12.23
4/1/2021 5:30:00 PM 8.13 46.634 0.099 7.63 3.36 12.24
4/1/2021 5:45:00 PM 8.08 46.544 0.098 7.62 3.19 12.23
4/1/2021 6:00:00 PM 8.03 46.454 0.099 7.58 3.29 12.17
4/1/2021 6:15:00 PM 7.94 46.292 0.099 7.56 3.22 12.06
4/1/2021 6:30:00 PM 7.87 46.166 0.099 7.56 3.4 12.03
4/1/2021 6:45:00 PM 7.81 46.058 0.099 7.54 3.43 12.06
4/1/2021 7:00:00 PM 7.7 45.86 0.099 7.52 3.35 12.09
4/1/2021 7:15:00 PM 7.56 45.608 0.099 7.53 3.28 12.07
4/1/2021 7:30:00 PM 7.44 45.392 0.1 7.51 3.22 12.05
4/1/2021 7:45:00 PM 7.36 45.248 0.1 7.48 3.13 12.02
4/1/2021 8:00:00 PM 7.3 45.14 0.1 7.48 3.43 12.03
4/1/2021 8:15:00 PM 7.21 44.978 0.1 7.46 3.26 12.05
4/1/2021 8:30:00 PM 7.14 44.852 0.1 7.46 3.25 12.03
4/1/2021 8:45:00 PM 7.08 44.744 0.1 7.46 3.49 12.08
4/1/2021 9:00:00 PM 7.02 44.636 0.1 7.45 3.51 12.1
4/1/2021 9:15:00 PM 6.95 44.51 0.1 7.44 3.21 12.1
4/1/2021 9:30:00 PM 6.88 44.384 0.1 7.44 3.25 12.13
4/1/2021 9:45:00 PM 6.77 44.186 0.1 7.45 3.33 12.17
4/1/2021 10:00:00 PM 6.72 44.096 0.1 7.45 3.23 12.2
4/1/2021 10:15:00 PM 6.66 43.988 0.1 7.43 3.17 12.16
4/1/2021 10:30:00 PM 6.59 43.862 0.1 7.43 3.25 12.2
4/1/2021 10:45:00 PM 6.51 43.718 0.1 7.45 3.19 12.27
4/1/2021 11:00:00 PM 6.43 43.574 0.1 7.44 3.09 12.3
4/1/2021 11:15:00 PM 6.37 43.466 0.1 7.43 3.66 12.3
4/1/2021 11:30:00 PM 6.3 43.34 0.1 7.44 3.08 12.34
4/1/2021 11:45:00 PM 6.21 43.178 0.1 7.47 3 12.41
4/2/2021 12:00:00 AM 6.16 43.088 0.1 7.44 3.15 12.39
4/2/2021 12:15:00 AM 6.12 43.016 0.1 7.42 2.99 12.4
4/2/2021 12:30:00 AM 6.06 42.908 0.1 7.44 3.03 12.4
4/2/2021 12:45:00 AM 6 42.8 0.1 7.43 2.96 12.42
4/2/2021 1:00:00 AM 5.88 42.584 0.1 7.42 3.1 12.43
4/2/2021 1:15:00 AM 5.82 42.476 0.1 7.45 3.13 12.52
4/2/2021 1:30:00 AM 5.77 42.386 0.1 7.42 3 12.5
4/2/2021 1:45:00 AM 5.65 42.17 0.1 7.43 3.02 12.55
4/2/2021 2:00:00 AM 5.62 42.116 0.1 7.43 3.08 12.57
4/2/2021 2:15:00 AM 5.6 42.08 0.1 7.44 2.98 12.61
4/2/2021 2:30:00 AM 5.52 41.936 0.1 7.45 3.01 12.65
4/2/2021 2:45:00 AM 5.45 41.81 0.1 7.43 3.08 12.63
4/2/2021 3:00:00 AM 5.34 41.612 0.1 7.45 2.94 12.69
4/2/2021 3:15:00 AM 5.26 41.468 0.1 7.44 2.97 12.69
4/2/2021 3:30:00 AM 5.18 41.324 0.1 7.46 3.03 12.74
4/2/2021 3:45:00 AM 5.14 41.252 0.1 7.43 3.03 12.73
4/2/2021 4:00:00 AM 5.07 41.126 0.101 7.44 2.92 12.79
4/2/2021 4:15:00 AM 5.01 41.018 0.101 7.43 3.04 12.77
4/2/2021 4:30:00 AM 5 41 0.101 7.42 3.08 12.77
4/2/2021 4:45:00 AM 4.95 40.91 0.101 7.42 3.26 12.84
4/2/2021 5:00:00 AM 4.88 40.784 0.101 7.43 2.96 12.83
4/2/2021 5:15:00 AM 4.84 40.712 0.101 7.42 3.05 12.85
4/2/2021 5:30:00 AM 4.79 40.622 0.101 7.41 3.14 12.86
4/2/2021 5:45:00 AM 4.74 40.532 0.101 7.43 3.12 12.87
4/2/2021 6:00:00 AM 4.69 40.442 0.101 7.42 3.12 12.88
4/2/2021 6:15:00 AM 4.65 40.37 0.101 7.41 3.06 12.92
4/2/2021 6:30:00 AM 4.63 40.334 0.101 7.41 3.04 12.92
4/2/2021 6:45:00 AM 4.57 40.226 0.101 7.41 3.02 12.95
4/2/2021 7:00:00 AM 4.54 40.172 0.101 7.41 2.96 12.97
4/2/2021 7:15:00 AM 4.52 40.136 0.101 7.44 3.04 13.02
4/2/2021 7:30:00 AM 4.5 40.1 0.101 7.44 3.32 13.1
4/2/2021 7:45:00 AM 4.48 40.064 0.1 7.45 2.97 13.17
4/2/2021 8:00:00 AM 4.47 40.046 0.1 7.45 3.06 13.22
4/2/2021 8:15:00 AM 4.5 40.1 0.1 7.46 3 13.26
4/2/2021 8:30:00 AM 4.5 40.1 0.1 7.5 3 13.34
4/2/2021 8:45:00 AM 4.56 40.208 0.101 7.53 2.87 13.44
4/2/2021 9:00:00 AM 4.63 40.334 0.1 7.56 2.88 13.44
4/2/2021 9:15:00 AM 4.7 40.46 0.1 7.55 2.99 13.4
4/2/2021 9:30:00 AM 4.73 40.514 0.1 7.56 3.03 13.46
4/2/2021 9:45:00 AM 4.8 40.64 0.099 7.56 2.93 13.39
4/2/2021 10:00:00 AM 4.91 40.838 0.099 7.58 3.11 13.42
4/2/2021 10:15:00 AM 5.04 41.072 0.099 7.59 3.08 13.36
4/2/2021 10:30:00 AM 5.21 41.378 0.099 7.61 3.12 13.33
4/2/2021 10:45:00 AM 5.4 41.72 0.099 7.6 2.97 13.27
4/2/2021 11:00:00 AM 5.63 42.134 0.099 7.6 3.07 13.25
4/2/2021 11:15:00 AM 5.83 42.494 0.099 7.64 3.09 13.22
4/2/2021 11:30:00 AM 6.01 42.818 0.098 7.62 3.29 13.16
4/2/2021 11:45:00 AM 6.21 43.178 0.099 7.62 2.94 13.12
4/2/2021 12:00:00 PM 6.44 43.592 0.098 7.63 3.09 13.05
4/2/2021 12:15:00 PM 6.64 43.952 0.098 7.63 3.09 13
4/2/2021 12:30:00 PM 6.81 44.258 0.098 7.64 3.09 12.96
4/2/2021 12:45:00 PM 6.98 44.564 0.098 7.64 3.01 12.91
4/2/2021 1:00:00 PM 6.99 44.582 0.098 7.65 3.04 12.85
4/2/2021 1:15:00 PM 7.09 44.762 0.098 7.62 3.03 12.8
4/2/2021 1:30:00 PM 7.21 44.978 0.099 7.65 2.96 12.76
4/2/2021 1:45:00 PM 7.52 45.536 0.098 7.64 3.02 12.74
4/2/2021 2:00:00 PM 7.59 45.662 0.098 7.65 2.99 12.7
4/2/2021 2:15:00 PM 7.62 45.716 0.098 7.66 3.02 12.65
4/2/2021 2:30:00 PM 7.74 45.932 0.098 7.64 2.93 12.6
4/2/2021 2:45:00 PM 7.82 46.076 0.098 7.64 3.1 12.54
4/2/2021 3:00:00 PM 7.98 46.364 0.098 7.65 3.08 12.55
4/2/2021 3:15:00 PM 8.03 46.454 0.097 7.66 3.08 12.52
4/2/2021 3:30:00 PM 8.12 46.616 0.098 7.62 3.11 12.46
4/2/2021 3:45:00 PM 8.21 46.778 0.097 7.62 3.04 12.41
4/2/2021 4:00:00 PM 8.11 46.598 0.097 7.65 3.01 12.39
4/2/2021 4:15:00 PM 8.22 46.796 0.097 7.63 3.1 12.45
4/2/2021 4:30:00 PM 8.1 46.58 0.097 7.67 3.15 12.44
4/2/2021 4:45:00 PM 7.99 46.382 0.097 7.59 3.02 12.32
4/2/2021 5:00:00 PM 7.9 46.22 0.097 7.59 3.07 12.34
4/2/2021 5:15:00 PM 7.79 46.022 0.098 7.62 3.11 12.36
4/2/2021 5:30:00 PM 7.65 45.77 0.098 7.6 3.02 12.37
4/2/2021 5:45:00 PM 7.56 45.608 0.098 7.59 3.07 12.38
4/2/2021 6:00:00 PM 7.45 45.41 0.098 7.59 3.06 12.34
4/2/2021 6:15:00 PM 7.29 45.122 0.098 7.56 3.2 12.35
4/2/2021 6:30:00 PM 7.13 44.834 0.098 7.55 3.08 12.37
4/2/2021 6:45:00 PM 7.03 44.654 0.098 7.53 3.18 12.37
4/2/2021 7:00:00 PM 6.89 44.402 0.099 7.53 3.23 12.4
4/2/2021 7:15:00 PM 6.69 44.042 0.099 7.47 3.11 12.36
4/2/2021 7:30:00 PM 6.54 43.772 0.099 7.49 3.02 12.39
4/2/2021 7:45:00 PM 6.43 43.574 0.099 7.49 2.98 12.39
4/2/2021 8:00:00 PM 6.31 43.358 0.1 7.43 3.01 12.35
4/2/2021 8:15:00 PM 6.17 43.106 0.1 7.45 3.14 12.4
4/2/2021 8:30:00 PM 6.09 42.962 0.1 7.45 3.11 12.46
4/2/2021 8:45:00 PM 6.03 42.854 0.1 7.44 3.04 12.47
4/2/2021 9:00:00 PM 5.93 42.674 0.1 7.43 3.08 12.48
4/2/2021 9:15:00 PM 5.85 42.53 0.1 7.42 3.08 12.5
4/2/2021 9:30:00 PM 5.78 42.404 0.1 7.44 3.09 12.54
4/2/2021 9:45:00 PM 5.68 42.224 0.1 7.44 3.05 12.59
4/2/2021 10:00:00 PM 5.61 42.098 0.101 7.44 3.07 12.62
4/2/2021 10:15:00 PM 5.53 41.954 0.101 7.43 3 12.62
4/2/2021 10:30:00 PM 5.46 41.828 0.101 7.41 3.07 12.64
4/2/2021 10:45:00 PM 5.35 41.63 0.101 7.42 3.06 12.66
4/2/2021 11:00:00 PM 5.28 41.504 0.101 7.42 3.02 12.7
4/2/2021 11:15:00 PM 5.21 41.378 0.101 7.44 3.02 12.76
4/2/2021 11:30:00 PM 5.15 41.27 0.101 7.43 3.11 12.75
4/2/2021 11:45:00 PM 5.09 41.162 0.101 7.43 2.99 12.79
4/3/2021 12:00:00 AM 5 41 0.101 7.43 3.01 12.82
4/3/2021 12:15:00 AM 4.93 40.874 0.101 7.42 2.95 12.85
4/3/2021 12:30:00 AM 4.88 40.784 0.101 7.42 2.96 12.87
4/3/2021 12:45:00 AM 4.8 40.64 0.101 7.41 2.98 12.85
4/3/2021 1:00:00 AM 4.74 40.532 0.101 7.42 2.98 12.87
4/3/2021 1:15:00 AM 4.69 40.442 0.101 7.39 3.04 12.84
4/3/2021 1:30:00 AM 4.61 40.298 0.101 7.42 3.08 12.93
4/3/2021 1:45:00 AM 4.57 40.226 0.101 7.41 3.18 12.94
4/3/2021 2:00:00 AM 4.51 40.118 0.101 7.41 3 12.98
4/3/2021 2:15:00 AM 4.43 39.974 0.101 7.41 3.06 12.96
4/3/2021 2:30:00 AM 4.38 39.884 0.102 7.42 2.95 13.02
4/3/2021 2:45:00 AM 4.33 39.794 0.102 7.42 2.92 13.03
4/3/2021 3:00:00 AM 4.27 39.686 0.101 7.42 3.07 13.04
4/3/2021 3:15:00 AM 4.2 39.56 0.102 7.41 2.98 13.07
4/3/2021 3:30:00 AM 4.15 39.47 0.102 7.42 3.05 13.12
4/3/2021 3:45:00 AM 4.1 39.38 0.102 7.41 3.12 13.09
4/3/2021 4:00:00 AM 4.05 39.29 0.102 7.42 3.07 13.15
4/3/2021 4:15:00 AM 4.01 39.218 0.101 7.42 3.09 13.16
4/3/2021 4:30:00 AM 3.94 39.092 0.102 7.41 3.02 13.17
4/3/2021 4:45:00 AM 3.92 39.056 0.102 7.39 2.97 13.17
4/3/2021 5:00:00 AM 3.84 38.912 0.101 7.42 3.12 13.23
4/3/2021 5:15:00 AM 3.8 38.84 0.102 7.41 2.93 13.23
4/3/2021 5:30:00 AM 3.79 38.822 0.102 7.38 2.95 13.25
4/3/2021 5:45:00 AM 3.72 38.696 0.101 7.42 2.87 13.31
4/3/2021 6:00:00 AM 3.68 38.624 0.102 7.43 2.99 13.31
4/3/2021 6:15:00 AM 3.67 38.606 0.101 7.39 2.89 13.27
4/3/2021 6:30:00 AM 3.62 38.516 0.102 7.41 2.94 13.36
4/3/2021 6:45:00 AM 3.58 38.444 0.102 7.4 2.95 13.32
4/3/2021 7:00:00 AM 3.55 38.39 0.102 7.42 3.14 13.43
4/3/2021 7:15:00 AM 3.51 38.318 0.101 7.44 2.91 13.5
4/3/2021 7:30:00 AM 3.52 38.336 0.102 7.42 2.86 13.52
4/3/2021 7:45:00 AM 3.5 38.3 0.101 7.45 2.94 13.61
4/3/2021 8:00:00 AM 3.49 38.282 0.101 7.46 2.86 13.66
4/3/2021 8:15:00 AM 3.54 38.372 0.101 7.49 2.9 13.71
4/3/2021 8:30:00 AM 3.59 38.462 0.101 7.49 3.04 13.75
4/3/2021 8:45:00 AM 3.65 38.57 0.101 7.51 2.91 13.8
4/3/2021 9:00:00 AM 3.72 38.696 0.101 7.51 2.9 13.8
4/3/2021 9:15:00 AM 3.81 38.858 0.101 7.52 2.96 13.77
4/3/2021 9:30:00 AM 3.92 39.056 0.1 7.51 2.9 13.74
4/3/2021 9:45:00 AM 4.05 39.29 0.1 7.54 2.98 13.75
4/3/2021 10:00:00 AM 4.21 39.578 0.101 7.55 2.81 13.71
4/3/2021 10:15:00 AM 4.37 39.866 0.1 7.56 2.98 13.69
4/3/2021 10:30:00 AM 4.6 40.28 0.1 7.56 2.92 13.62
4/3/2021 10:45:00 AM 4.89 40.802 0.1 7.57 2.99 13.57
4/3/2021 11:00:00 AM 5.19 41.342 0.1 7.6 2.98 13.51
4/3/2021 11:15:00 AM 5.51 41.918 0.099 7.58 2.96 13.44
4/3/2021 11:30:00 AM 5.85 42.53 0.099 7.58 3.01 13.38
4/3/2021 11:45:00 AM 6.15 43.07 0.099 7.57 2.95 13.25
4/3/2021 12:00:00 PM 6.32 43.376 0.099 7.63 2.99 13.19
4/3/2021 12:15:00 PM 6.73 44.114 0.099 7.61 2.84 13.07
4/3/2021 12:30:00 PM 6.84 44.312 0.099 7.63 3 13.01
4/3/2021 12:45:00 PM 7.12 44.816 0.099 7.6 2.86 12.95
4/3/2021 1:00:00 PM 7.42 45.356 0.099 7.64 2.94 12.89
4/3/2021 1:15:00 PM 7.57 45.626 0.099 7.6 2.86 12.81
4/3/2021 1:30:00 PM 7.69 45.842 0.099 7.64 2.95 12.75
4/3/2021 1:45:00 PM 7.92 46.256 0.099 7.54 3.04 12.66
4/3/2021 2:00:00 PM 8.05 46.49 0.098 7.64 2.92 12.62
4/3/2021 2:15:00 PM 8.13 46.634 0.098 7.65 3.01 12.55
4/3/2021 2:30:00 PM 8.46 47.228 0.099 7.65 3.03 12.53
4/3/2021 2:45:00 PM 8.42 47.156 0.098 7.63 3.02 12.41
4/3/2021 3:00:00 PM 8.58 47.444 0.098 7.61 2.91 12.33
4/3/2021 3:15:00 PM 8.8 47.84 0.099 7.57 2.93 12.33
4/3/2021 3:30:00 PM 8.71 47.678 0.098 7.58 3.33 12.26
4/3/2021 3:45:00 PM 8.78 47.804 0.098 7.65 2.92 12.26
4/3/2021 4:00:00 PM 8.91 48.038 0.098 7.56 2.85 12.27
4/3/2021 4:15:00 PM 8.82 47.876 0.098 7.65 2.88 12.25
4/3/2021 4:30:00 PM 8.75 47.75 0.098 7.64 2.88 12.19
4/3/2021 4:45:00 PM 8.72 47.696 0.099 7.67 2.94 12.22
4/3/2021 5:00:00 PM 8.67 47.606 0.098 7.65 2.91 12.25
4/3/2021 5:15:00 PM 8.57 47.426 0.099 7.6 2.92 12.24
4/3/2021 5:30:00 PM 8.47 47.246 0.099 7.6 2.95 12.23
4/3/2021 5:45:00 PM 8.38 47.084 0.099 7.59 3.01 12.21
4/3/2021 6:00:00 PM 8.3 46.94 0.099 7.51 3.03 12.18
4/3/2021 6:15:00 PM 8.24 46.832 0.099 7.58 2.93 12.24
4/3/2021 6:30:00 PM 8.19 46.742 0.099 7.53 2.9 12.24
4/3/2021 6:45:00 PM 8.09 46.562 0.099 7.44 2.97 12.17
4/3/2021 7:00:00 PM 8 46.4 0.099 7.46 2.99 12.17
4/3/2021 7:15:00 PM 7.9 46.22 0.1 7.5 3.62 12.12
4/3/2021 7:30:00 PM 7.79 46.022 0.1 7.48 3.01 12.05
4/3/2021 7:45:00 PM 7.68 45.824 0.1 7.41 3 11.97
4/3/2021 8:00:00 PM 7.55 45.59 0.1 7.47 2.96 12.02
4/3/2021 8:15:00 PM 7.44 45.392 0.101 7.43 3 11.95
4/3/2021 8:30:00 PM 7.35 45.23 0.1 7.39 3.06 11.99
4/3/2021 8:45:00 PM 7.25 45.05 0.101 7.38 3.06 11.97
4/3/2021 9:00:00 PM 7.17 44.906 0.101 7.4 3.01 12.05
4/3/2021 9:15:00 PM 7.09 44.762 0.101 7.41 3.02 12.03
4/3/2021 9:30:00 PM 7.04 44.672 0.101 7.44 2.92 12.11
4/3/2021 9:45:00 PM 7 44.6 0.101 7.42 3.06 12.13
4/3/2021 10:00:00 PM 6.95 44.51 0.101 7.42 3.04 12.14
4/3/2021 10:15:00 PM 6.91 44.438 0.101 7.4 3.09 12.13
4/3/2021 10:30:00 PM 6.87 44.366 0.101 7.41 3.03 12.15
4/3/2021 10:45:00 PM 6.88 44.384 0.102 7.36 3 12.08
4/3/2021 11:00:00 PM 6.87 44.366 0.102 7.42 3.03 12.18
4/3/2021 11:15:00 PM 6.86 44.348 0.102 7.38 3.21 12.17
4/3/2021 11:30:00 PM 6.85 44.33 0.102 7.29 2.87 12.16
4/3/2021 11:45:00 PM 6.85 44.33 0.102 7.38 2.91 12.14
4/4/2021 12:00:00 AM 6.82 44.276 0.102 7.43 3.17 12.19
4/4/2021 12:15:00 AM 6.81 44.258 0.102 7.39 2.94 12.16
4/4/2021 12:30:00 AM 6.8 44.24 0.102 7.44 3.01 12.21
4/4/2021 12:45:00 AM 6.78 44.204 0.102 7.42 3.14 12.19
4/4/2021 1:00:00 AM 6.77 44.186 0.102 7.4 2.97 12.15
4/4/2021 1:15:00 AM 6.75 44.15 0.102 7.42 2.98 12.18
4/4/2021 1:30:00 AM 6.74 44.132 0.103 7.4 2.96 12.18
4/4/2021 1:45:00 AM 6.72 44.096 0.102 7.42 2.94 12.19
4/4/2021 2:00:00 AM 6.71 44.078 0.102 7.43 2.89 12.22
4/4/2021 2:15:00 AM 6.7 44.06 0.102 7.4 2.93 12.18
4/4/2021 2:30:00 AM 6.68 44.024 0.102 7.44 3.28 12.23
4/4/2021 2:45:00 AM 6.67 44.006 0.103 7.42 2.92 12.18
4/4/2021 3:00:00 AM 6.66 43.988 0.102 7.39 3.03 12.18
4/4/2021 3:15:00 AM 6.64 43.952 0.102 7.41 2.99 12.2
4/4/2021 3:30:00 AM 6.61 43.898 0.102 7.39 2.9 12.14
4/4/2021 3:45:00 AM 6.61 43.898 0.102 7.4 2.88 12.23
4/4/2021 4:00:00 AM 6.59 43.862 0.102 7.4 2.92 12.23
4/4/2021 4:15:00 AM 6.58 43.844 0.102 7.43 2.95 12.22
4/4/2021 4:30:00 AM 6.56 43.808 0.102 7.41 2.79 12.18
4/4/2021 4:45:00 AM 6.52 43.736 0.102 7.43 2.95 12.25
4/4/2021 5:00:00 AM 6.51 43.718 0.102 7.43 2.81 12.26
4/4/2021 5:15:00 AM 6.49 43.682 0.102 7.42 2.95 12.2
4/4/2021 5:30:00 AM 6.49 43.682 0.102 7.4 2.96 12.24
4/4/2021 5:45:00 AM 6.46 43.628 0.102 7.42 2.96 12.24
4/4/2021 6:00:00 AM 6.44 43.592 0.102 7.39 2.98 12.23
4/4/2021 6:15:00 AM 6.42 43.556 0.102 7.39 2.86 12.24
4/4/2021 6:30:00 AM 6.4 43.52 0.102 7.4 2.88 12.27
4/4/2021 6:45:00 AM 6.36 43.448 0.102 7.45 2.88 12.35
4/4/2021 7:00:00 AM 6.34 43.412 0.102 7.42 2.86 12.31
4/4/2021 7:15:00 AM 6.34 43.412 0.102 7.4 2.88 12.3
4/4/2021 7:30:00 AM 6.34 43.412 0.102 7.43 2.9 12.41
4/4/2021 7:45:00 AM 6.33 43.394 0.102 7.47 2.88 12.52
4/4/2021 8:00:00 AM 6.31 43.358 0.101 7.47 2.92 12.59
4/4/2021 8:15:00 AM 6.33 43.394 0.101 7.49 2.79 12.66
4/4/2021 8:30:00 AM 6.37 43.466 0.101 7.48 2.9 12.69
4/4/2021 8:45:00 AM 6.42 43.556 0.101 7.52 2.86 12.7
4/4/2021 9:00:00 AM 6.47 43.646 0.101 7.55 2.86 12.76
4/4/2021 9:15:00 AM 6.54 43.772 0.101 7.55 2.91 12.77
4/4/2021 9:30:00 AM 6.64 43.952 0.101 7.54 2.9 12.75
4/4/2021 9:45:00 AM 6.74 44.132 0.101 7.57 2.84 12.76
4/4/2021 10:00:00 AM 6.88 44.384 0.1 7.58 2.97 12.74
4/4/2021 10:15:00 AM 7.04 44.672 0.1 7.6 2.82 12.71
4/4/2021 10:30:00 AM 7.24 45.032 0.1 7.61 2.86 12.69
4/4/2021 10:45:00 AM 7.48 45.464 0.1 7.62 2.92 12.64
4/4/2021 11:00:00 AM 7.74 45.932 0.1 7.63 2.96 12.56
4/4/2021 11:15:00 AM 8.06 46.508 0.1 7.64 2.85 12.56
4/4/2021 11:30:00 AM 8.28 46.904 0.1 7.67 2.93 12.48
4/4/2021 11:45:00 AM 8.59 47.462 0.1 7.6 2.85 12.38
4/4/2021 12:00:00 PM 8.85 47.93 0.099 7.67 2.85 12.36
4/4/2021 12:15:00 PM 9.09 48.362 0.099 7.68 2.95 12.27
4/4/2021 12:30:00 PM 9.28 48.704 0.099 7.68 2.87 12.18
4/4/2021 12:45:00 PM 9.56 49.208 0.099 7.66 2.91 12.1
4/4/2021 1:00:00 PM 9.81 49.658 0.099 7.64 2.88 12.07
4/4/2021 1:15:00 PM 10 50 0.099 7.72 2.97 12.03
4/4/2021 1:30:00 PM 10.15 50.27 0.099 7.68 2.92 11.94
4/4/2021 1:45:00 PM 10.37 50.666 0.099 7.7 2.84 11.92
4/4/2021 2:00:00 PM 10.61 51.098 0.099 7.68 2.92 11.85
4/4/2021 2:15:00 PM 10.69 51.242 0.099 7.72 2.84 11.8
4/4/2021 2:30:00 PM 10.84 51.512 0.099 7.74 2.97 11.74
4/4/2021 2:45:00 PM 10.97 51.746 0.099 7.78 2.86 11.72
4/4/2021 3:00:00 PM 11.09 51.962 0.099 7.73 2.91 11.64
4/4/2021 3:15:00 PM 11.2 52.16 0.099 7.7 2.92 11.6
4/4/2021 3:30:00 PM 11.07 51.926 0.099 7.71 2.91 11.52
4/4/2021 3:45:00 PM 11 51.8 0.099 7.69 2.86 11.51
4/4/2021 4:00:00 PM 11.01 51.818 0.099 7.66 2.96 11.49
4/4/2021 4:15:00 PM 10.94 51.692 0.099 7.65 3.1 11.47
4/4/2021 4:30:00 PM 10.88 51.584 0.099 7.69 3.04 11.51
4/4/2021 4:45:00 PM 10.79 51.422 0.1 7.63 2.93 11.46
4/4/2021 5:00:00 PM 10.73 51.314 0.099 7.67 2.97 11.49
4/4/2021 5:15:00 PM 10.66 51.188 0.099 7.66 2.99 11.55
4/4/2021 5:30:00 PM 10.55 50.99 0.099 7.64 2.95 11.46
4/4/2021 5:45:00 PM 10.45 50.81 0.099 7.64 2.9 11.5
4/4/2021 6:00:00 PM 10.33 50.594 0.099 7.6 2.97 11.47
4/4/2021 6:15:00 PM 10.21 50.378 0.1 7.59 2.92 11.49
4/4/2021 6:30:00 PM 10.06 50.108 0.1 7.48 2.84 11.46
4/4/2021 6:45:00 PM 9.99 49.982 0.1 7.55 2.86 11.46
4/4/2021 7:00:00 PM 9.89 49.802 0.1 7.55 2.92 11.46
4/4/2021 7:15:00 PM 9.78 49.604 0.1 7.49 2.89 11.4
4/4/2021 7:30:00 PM 9.68 49.424 0.1 7.46 3.01 11.37
4/4/2021 7:45:00 PM 9.59 49.262 0.101 7.5 3.26 11.4
4/4/2021 8:00:00 PM 9.46 49.028 0.101 7.47 3.12 11.38
4/4/2021 8:15:00 PM 9.33 48.794 0.101 7.45 2.99 11.39
4/4/2021 8:30:00 PM 9.23 48.614 0.101 7.47 3.02 11.41
4/4/2021 8:45:00 PM 9.11 48.398 0.101 7.45 3.02 11.39
4/4/2021 9:00:00 PM 9.02 48.236 0.101 7.44 3.04 11.43
4/4/2021 9:15:00 PM 8.93 48.074 0.102 7.46 2.98 11.5
4/4/2021 9:30:00 PM 8.84 47.912 0.102 7.45 3.01 11.5
4/4/2021 9:45:00 PM 8.75 47.75 0.102 7.43 2.95 11.51
4/4/2021 10:00:00 PM 8.68 47.624 0.102 7.44 3.05 11.53
4/4/2021 10:15:00 PM 8.58 47.444 0.102 7.45 2.98 11.55
4/4/2021 10:30:00 PM 8.47 47.246 0.102 7.43 3.28 11.6
4/4/2021 10:45:00 PM 8.4 47.12 0.102 7.45 3.13 11.63
4/4/2021 11:00:00 PM 8.3 46.94 0.102 7.45 2.91 11.67
4/4/2021 11:15:00 PM 8.2 46.76 0.102 7.45 3.01 11.71
4/4/2021 11:30:00 PM 8.1 46.58 0.103 7.44 2.92 11.74
4/4/2021 11:45:00 PM 8.01 46.418 0.103 7.43 2.92 11.73
4/5/2021 12:00:00 AM 7.9 46.22 0.103 7.46 2.96 11.8
4/5/2021 12:15:00 AM 7.8 46.04 0.103 7.43 2.94 11.77
4/5/2021 12:30:00 AM 7.73 45.914 0.103 7.45 2.92 11.85
4/5/2021 12:45:00 AM 7.65 45.77 0.103 7.47 2.91 11.91
4/5/2021 1:00:00 AM 7.58 45.644 0.103 7.47 2.92 11.93
4/5/2021 1:15:00 AM 7.5 45.5 0.103 7.47 2.81 11.96
4/5/2021 1:30:00 AM 7.41 45.338 0.103 7.41 2.93 11.91
4/5/2021 1:45:00 AM 7.36 45.248 0.103 7.43 2.86 11.94
4/5/2021 2:00:00 AM 7.29 45.122 0.103 7.43 2.84 11.96
4/5/2021 2:15:00 AM 7.22 44.996 0.103 7.43 2.82 11.99
4/5/2021 2:30:00 AM 7.14 44.852 0.103 7.44 2.91 12.01
4/5/2021 2:45:00 AM 7.07 44.726 0.103 7.44 2.92 12.04
4/5/2021 3:00:00 AM 6.99 44.582 0.103 7.43 3 12.04
4/5/2021 3:15:00 AM 6.94 44.492 0.103 7.45 2.92 12.11
4/5/2021 3:30:00 AM 6.86 44.348 0.104 7.46 2.73 12.11
4/5/2021 3:45:00 AM 6.81 44.258 0.103 7.29 3.01 12.07
4/5/2021 4:00:00 AM 6.73 44.114 0.104 7.43 2.86 12.15
4/5/2021 4:15:00 AM 6.67 44.006 0.103 7.43 2.92 12.16
4/5/2021 4:30:00 AM 6.59 43.862 0.103 7.42 2.84 12.15
4/5/2021 4:45:00 AM 6.53 43.754 0.104 7.4 2.84 12.21
4/5/2021 5:00:00 AM 6.48 43.664 0.104 7.44 2.94 12.24
4/5/2021 5:15:00 AM 6.39 43.502 0.104 7.44 2.89 12.23
4/5/2021 5:30:00 AM 6.34 43.412 0.104 7.43 2.84 12.28
4/5/2021 5:45:00 AM 6.27 43.286 0.103 7.45 2.88 12.34
4/5/2021 6:00:00 AM 6.22 43.196 0.104 7.46 2.83 12.36
4/5/2021 6:15:00 AM 6.18 43.124 0.104 7.43 3.46 12.35
4/5/2021 6:30:00 AM 6.15 43.07 0.104 7.43 2.99 12.37
4/5/2021 6:45:00 AM 6.07 42.926 0.104 7.4 2.95 12.34
4/5/2021 7:00:00 AM 6.03 42.854 0.104 7.44 2.87 12.43
4/5/2021 7:15:00 AM 6.01 42.818 0.104 7.44 2.84 12.45
4/5/2021 7:30:00 AM 5.97 42.746 0.103 7.49 2.99 12.58
4/5/2021 7:45:00 AM 5.95 42.71 0.103 7.49 2.85 12.64
4/5/2021 8:00:00 AM 5.95 42.71 0.103 7.51 2.81 12.7
4/5/2021 8:15:00 AM 5.98 42.764 0.103 7.48 2.81 12.73
4/5/2021 8:30:00 AM 6.03 42.854 0.103 7.51 2.86 12.75
4/5/2021 8:45:00 AM 6.1 42.98 0.107 7.53 2.39 12.82
4/5/2021 9:00:00 AM 6.17 43.106 0.103 7.55 2.83 12.85
4/5/2021 9:15:00 AM 6.26 43.268 0.102 7.58 2.96 12.88
4/5/2021 9:30:00 AM 6.39 43.502 0.102 7.59 2.97 12.83
4/5/2021 9:45:00 AM 6.54 43.772 0.102 7.58 2.98 12.79
4/5/2021 10:00:00 AM 6.69 44.042 0.103 7.57 2.85 12.78
4/5/2021 10:15:00 AM 6.89 44.402 0.102 7.61 2.85 12.75
4/5/2021 10:30:00 AM 7.1 44.78 0.102 7.62 2.85 12.71
4/5/2021 10:45:00 AM 7.36 45.248 0.102 7.64 2.98 12.63
4/5/2021 11:00:00 AM 7.67 45.806 0.102 7.62 2.85 12.58
4/5/2021 11:15:00 AM 7.97 46.346 0.101 7.61 2.83 12.49
4/5/2021 11:30:00 AM 8.3 46.94 0.101 7.58 2.91 12.48
4/5/2021 11:45:00 AM 8.51 47.318 0.101 7.66 2.95 12.37
4/5/2021 12:00:00 PM 8.81 47.858 0.101 7.68 2.91 12.33
4/5/2021 12:15:00 PM 9.06 48.308 0.101 7.68 2.95 12.24
4/5/2021 12:30:00 PM 9.33 48.794 0.101 7.7 2.83 12.19
4/5/2021 12:45:00 PM 9.6 49.28 0.101 7.69 2.84 12.1
4/5/2021 1:00:00 PM 9.84 49.712 0.101 7.68 2.83 12.02
4/5/2021 1:15:00 PM 10.04 50.072 0.101 7.71 2.83 11.98
4/5/2021 1:30:00 PM 10.19 50.342 0.101 7.72 2.87 11.91
4/5/2021 1:45:00 PM 10.38 50.684 0.102 7.75 2.81 11.85
4/5/2021 2:00:00 PM 10.53 50.954 0.107 7.71 2.81 11.79
4/5/2021 2:15:00 PM 10.65 51.17 0.1 7.77 2.87 11.77
4/5/2021 2:30:00 PM 10.77 51.386 0.107 7.77 2.87 11.72
4/5/2021 2:45:00 PM 10.94 51.692 0.107 7.73 2.93 11.66
4/5/2021 3:00:00 PM 11.09 51.962 0.1 7.71 2.89 11.61
4/5/2021 3:15:00 PM 11.18 52.124 0.1 7.71 2.89 11.56
4/5/2021 3:30:00 PM 11.26 52.268 0.107 7.75 2.99 11.55
4/5/2021 3:45:00 PM 11.37 52.466 0.1 7.69 2.86 11.55
4/5/2021 4:00:00 PM 11.35 52.43 0.1 7.75 3 11.51
4/5/2021 4:15:00 PM 11.45 52.61 0.107 7.69 2.85 11.5
4/5/2021 4:30:00 PM 11.38 52.484 0.1 7.72 2.87 11.49
4/5/2021 4:45:00 PM 11.31 52.358 0.107 7.75 3.09 11.44
4/5/2021 5:00:00 PM 11.26 52.268 0.107 7.67 2.91 11.39
4/5/2021 5:15:00 PM 11.21 52.178 0.107 7.71 2.94 11.4
4/5/2021 5:30:00 PM 11.14 52.052 0.107 7.7 2.97 11.4
4/5/2021 5:45:00 PM 11.03 51.854 0.1 7.64 2.93 11.37
4/5/2021 6:00:00 PM 10.92 51.656 0.101 7.68 2.88 11.36
4/5/2021 6:15:00 PM 10.82 51.476 0.101 7.61 2.9 11.36
4/5/2021 6:30:00 PM 10.7 51.26 0.107 7.6 2.86 11.33
4/5/2021 6:45:00 PM 10.59 51.062 0.107 7.61 2.95 11.33
4/5/2021 7:00:00 PM 10.44 50.792 0.108 7.58 2.94 11.3
4/5/2021 7:15:00 PM 10.27 50.486 0.101 7.57 2.98 11.28
4/5/2021 7:30:00 PM 10.11 50.198 0.101 7.54 2.9 11.26
4/5/2021 7:45:00 PM 9.96 49.928 0.102 7.5 2.99 11.23
4/5/2021 8:00:00 PM 9.83 49.694 0.109 7.48 2.93 11.19
4/5/2021 8:15:00 PM 9.72 49.496 0.102 7.49 2.98 11.25
4/5/2021 8:30:00 PM 9.6 49.28 0.102 7.46 2.87 11.25
4/5/2021 8:45:00 PM 9.5 49.1 0.102 7.45 3.21 11.27
4/5/2021 9:00:00 PM 9.4 48.92 0.102 7.47 3.07 11.32
4/5/2021 9:15:00 PM 9.31 48.758 0.103 7.47 2.94 11.35
4/5/2021 9:30:00 PM 9.22 48.596 0.103 7.46 2.95 11.35
4/5/2021 9:45:00 PM 9.12 48.416 0.103 7.47 2.99 11.41
4/5/2021 10:00:00 PM 9.02 48.236 0.103 7.47 2.96 11.45
4/5/2021 10:15:00 PM 8.91 48.038 0.103 7.44 2.91 11.42
4/5/2021 10:30:00 PM 8.82 47.876 0.103 7.45 2.96 11.49
4/5/2021 10:45:00 PM 8.73 47.714 0.103 7.48 2.88 11.54
4/5/2021 11:00:00 PM 8.62 47.516 0.104 7.46 2.96 11.52
4/5/2021 11:15:00 PM 8.52 47.336 0.104 7.48 4.03 11.61
4/5/2021 11:30:00 PM 8.42 47.156 0.104 7.47 3.72 11.61
4/5/2021 11:45:00 PM 8.31 46.958 0.104 7.46 2.98 11.63
4/6/2021 12:00:00 AM 8.23 46.814 0.104 7.47 2.91 11.68
4/6/2021 12:15:00 AM 8.12 46.616 0.104 7.47 2.87 11.71
4/6/2021 12:30:00 AM 8.03 46.454 0.104 7.46 3 11.69
4/6/2021 12:45:00 AM 7.94 46.292 0.104 7.47 2.97 11.76
4/6/2021 1:00:00 AM 7.86 46.148 0.104 7.44 2.85 11.73
4/6/2021 1:15:00 AM 7.77 45.986 0.105 7.47 3.01 11.79
4/6/2021 1:30:00 AM 7.69 45.842 0.105 7.46 2.93 11.84
4/6/2021 1:45:00 AM 7.6 45.68 0.105 7.44 2.85 11.82
4/6/2021 2:00:00 AM 7.51 45.518 0.105 7.45 2.85 11.87
4/6/2021 2:15:00 AM 7.44 45.392 0.105 7.47 2.91 11.9
4/6/2021 2:30:00 AM 7.36 45.248 0.105 7.47 3.74 11.94
4/6/2021 2:45:00 AM 7.3 45.14 0.105 7.45 2.89 11.91
4/6/2021 3:00:00 AM 7.22 44.996 0.105 7.45 2.88 11.94
4/6/2021 3:15:00 AM 7.14 44.852 0.105 7.47 2.87 12
4/6/2021 3:30:00 AM 7.05 44.69 0.105 7.46 2.89 12.03
4/6/2021 3:45:00 AM 6.98 44.564 0.105 7.47 2.82 12.06
4/6/2021 4:00:00 AM 6.92 44.456 0.105 7.46 2.87 12.06
4/6/2021 4:15:00 AM 6.85 44.33 0.105 7.45 2.87 12.07
4/6/2021 4:30:00 AM 6.77 44.186 0.105 7.45 2.94 12.11
4/6/2021 4:45:00 AM 6.69 44.042 0.105 7.46 2.95 12.13
4/6/2021 5:00:00 AM 6.61 43.898 0.105 7.44 2.89 12.11
4/6/2021 5:15:00 AM 6.55 43.79 0.105 7.46 2.89 12.17
4/6/2021 5:30:00 AM 6.48 43.664 0.105 7.45 2.9 12.18
4/6/2021 5:45:00 AM 6.43 43.574 0.105 7.42 2.92 12.18
4/6/2021 6:00:00 AM 6.35 43.43 0.105 7.48 3.01 12.29
4/6/2021 6:15:00 AM 6.28 43.304 0.105 7.46 2.88 12.29
4/6/2021 6:30:00 AM 6.22 43.196 0.105 7.46 2.91 12.29
4/6/2021 6:45:00 AM 6.16 43.088 0.105 7.45 2.98 12.31
4/6/2021 7:00:00 AM 6.12 43.016 0.106 7.44 2.8 12.35
4/6/2021 7:15:00 AM 6.06 42.908 0.105 7.47 2.9 12.42
4/6/2021 7:30:00 AM 6.02 42.836 0.105 7.49 2.87 12.49
4/6/2021 7:45:00 AM 6 42.8 0.106 7.49 2.79 12.56
4/6/2021 8:00:00 AM 6 42.8 0.105 7.5 2.94 12.62
4/6/2021 8:15:00 AM 6.01 42.818 0.105 7.53 2.93 12.67
4/6/2021 8:30:00 AM 6.05 42.89 0.105 7.54 2.95 12.73
4/6/2021 8:45:00 AM 6.11 42.998 0.105 7.54 2.93 12.78
4/6/2021 9:00:00 AM 6.2 43.16 0.104 7.54 2.92 12.79
4/6/2021 9:15:00 AM 6.3 43.34 0.104 7.56 2.86 12.8
4/6/2021 9:30:00 AM 6.4 43.52 0.104 7.59 2.83 12.8
4/6/2021 9:45:00 AM 6.54 43.772 0.104 7.59 2.93 12.76
4/6/2021 10:00:00 AM 6.71 44.078 0.104 7.6 2.89 12.75
4/6/2021 10:15:00 AM 6.91 44.438 0.104 7.62 2.9 12.71
4/6/2021 10:30:00 AM 7.14 44.852 0.103 7.65 2.88 12.67
4/6/2021 10:45:00 AM 7.41 45.338 0.103 7.66 2.9 12.63
4/6/2021 11:00:00 AM 7.73 45.914 0.103 7.63 2.89 12.54
4/6/2021 11:15:00 AM 8.01 46.418 0.103 7.66 2.91 12.5
4/6/2021 11:30:00 AM 8.33 46.994 0.103 7.65 2.83 12.4
4/6/2021 11:45:00 AM 8.62 47.516 0.103 7.69 2.85 12.36
4/6/2021 12:00:00 PM 8.93 48.074 0.103 7.72 2.85 12.29
4/6/2021 12:15:00 PM 9.19 48.542 0.103 7.72 2.88 12.2
4/6/2021 12:30:00 PM 9.48 49.064 0.103 7.72 2.88 12.15
4/6/2021 12:45:00 PM 9.74 49.532 0.103 7.74 2.9 12.07
4/6/2021 1:00:00 PM 10.01 50.018 0.109 7.7 2.8 11.98
4/6/2021 1:15:00 PM 10.22 50.396 0.109 7.72 2.8 11.93
4/6/2021 1:30:00 PM 10.41 50.738 0.109 7.75 2.89 11.87
4/6/2021 1:45:00 PM 10.55 50.99 0.109 7.79 2.87 11.82
4/6/2021 2:00:00 PM 10.74 51.332 0.109 7.72 2.84 11.76
4/6/2021 2:15:00 PM 10.9 51.62 0.109 7.81 2.96 11.75
4/6/2021 2:30:00 PM 10.98 51.764 0.109 7.81 2.88 11.69
4/6/2021 2:45:00 PM 11 51.8 0.109 7.79 2.89 11.66
4/6/2021 3:00:00 PM 11.16 52.088 0.109 7.83 2.95 11.64
4/6/2021 3:15:00 PM 11.31 52.358 0.109 7.82 2.9 11.59
4/6/2021 3:30:00 PM 11.43 52.574 0.109 7.81 2.93 11.55
4/6/2021 3:45:00 PM 11.49 52.682 0.109 7.8 2.81 11.5
4/6/2021 4:00:00 PM 11.52 52.736 0.109 7.8 2.89 11.46
4/6/2021 4:15:00 PM 11.54 52.772 0.109 7.78 2.85 11.41
4/6/2021 4:30:00 PM 11.56 52.808 0.109 7.8 2.96 11.41
4/6/2021 4:45:00 PM 11.55 52.79 0.109 7.8 3.02 11.38
4/6/2021 5:00:00 PM 11.51 52.718 0.109 7.75 2.86 11.34
4/6/2021 5:15:00 PM 11.48 52.664 0.109 7.78 2.95 11.33
4/6/2021 5:30:00 PM 11.44 52.592 0.109 7.76 2.85 11.29
4/6/2021 5:45:00 PM 11.37 52.466 0.109 7.71 2.9 11.23
4/6/2021 6:00:00 PM 11.31 52.358 0.109 7.68 2.96 11.18
4/6/2021 6:15:00 PM 11.23 52.214 0.109 7.64 2.88 11.13
4/6/2021 6:30:00 PM 11.15 52.07 0.11 7.62 3.12 11.12
4/6/2021 6:45:00 PM 11.06 51.908 0.11 7.62 2.96 11.13
4/6/2021 7:00:00 PM 10.95 51.71 0.11 7.6 2.95 11.12
4/6/2021 7:15:00 PM 10.82 51.476 0.11 7.57 2.92 11.12
4/6/2021 7:30:00 PM 10.69 51.242 0.11 7.56 3.15 11.11
4/6/2021 7:45:00 PM 10.53 50.954 0.111 7.55 3.08 11.09
4/6/2021 8:00:00 PM 10.36 50.648 0.111 7.53 3.04 11.07
4/6/2021 8:15:00 PM 10.17 50.306 0.111 7.48 3.02 11.08
4/6/2021 8:30:00 PM 10.02 50.036 0.111 7.5 3 11.14
4/6/2021 8:45:00 PM 9.89 49.802 0.111 7.5 2.93 11.17
4/6/2021 9:00:00 PM 9.78 49.604 0.112 7.51 3.01 11.21
4/6/2021 9:15:00 PM 9.68 49.424 0.112 7.49 3 11.24
4/6/2021 9:30:00 PM 9.59 49.262 0.105 7.49 2.97 11.25
4/6/2021 9:45:00 PM 9.5 49.1 0.112 7.46 2.98 11.24
4/6/2021 10:00:00 PM 9.41 48.938 0.112 7.46 2.98 11.26
4/6/2021 10:15:00 PM 9.33 48.794 0.112 7.48 2.98 11.33
4/6/2021 10:30:00 PM 9.26 48.668 0.112 7.48 3.05 11.35
4/6/2021 10:45:00 PM 9.19 48.542 0.112 7.46 3.19 11.34
4/6/2021 11:00:00 PM 9.12 48.416 0.113 7.47 3.01 11.38
4/6/2021 11:15:00 PM 9.07 48.326 0.113 7.48 3.03 11.41
4/6/2021 11:30:00 PM 9.03 48.254 0.113 7.47 3.1 11.41
4/6/2021 11:45:00 PM 8.98 48.164 0.113 7.46 2.97 11.42
4/7/2021 12:00:00 AM 8.93 48.074 0.113 7.47 2.95 11.45
4/7/2021 12:15:00 AM 8.89 48.002 0.113 7.47 2.96 11.45
4/7/2021 12:30:00 AM 8.85 47.93 0.113 7.47 2.86 11.49
4/7/2021 12:45:00 AM 8.81 47.858 0.113 7.47 3.09 11.49
4/7/2021 1:00:00 AM 8.78 47.804 0.113 7.47 2.93 11.49
4/7/2021 1:15:00 AM 8.74 47.732 0.106 7.46 3.09 11.47
4/7/2021 1:30:00 AM 8.69 47.642 0.113 7.44 3.07 11.47
4/7/2021 1:45:00 AM 8.64 47.552 0.108 7.47 2.87 11.53
4/7/2021 2:00:00 AM 8.61 47.498 0.113 7.47 2.94 11.54
4/7/2021 2:15:00 AM 8.58 47.444 0.113 7.44 2.91 11.49
4/7/2021 2:30:00 AM 8.56 47.408 0.114 7.46 2.9 11.55
4/7/2021 2:45:00 AM 8.53 47.354 0.114 7.46 2.9 11.52
4/7/2021 3:00:00 AM 8.51 47.318 0.114 7.48 3.01 11.58
4/7/2021 3:15:00 AM 8.47 47.246 0.114 7.47 2.97 11.56
4/7/2021 3:30:00 AM 8.45 47.21 0.114 7.45 3 11.56
4/7/2021 3:45:00 AM 8.43 47.174 0.107 7.46 3.11 11.58
4/7/2021 4:00:00 AM 8.41 47.138 0.114 7.46 2.97 11.55
4/7/2021 4:15:00 AM 8.4 47.12 0.114 7.45 2.9 11.57
4/7/2021 4:30:00 AM 8.38 47.084 0.107 7.46 2.96 11.6
4/7/2021 4:45:00 AM 8.36 47.048 0.114 7.47 2.9 11.6
4/7/2021 5:00:00 AM 8.35 47.03 0.114 7.44 2.91 11.59
4/7/2021 5:15:00 AM 8.33 46.994 0.107 7.47 2.94 11.64
4/7/2021 5:30:00 AM 8.32 46.976 0.107 7.44 2.96 11.6
4/7/2021 5:45:00 AM 8.29 46.922 0.107 7.48 2.89 11.66
4/7/2021 6:00:00 AM 8.27 46.886 0.107 7.48 3 11.66
4/7/2021 6:15:00 AM 8.24 46.832 0.107 7.48 2.96 11.66
4/7/2021 6:30:00 AM 8.23 46.814 0.107 7.47 2.93 11.66
4/7/2021 6:45:00 AM 8.21 46.778 0.107 7.47 3.03 11.68
4/7/2021 7:00:00 AM 8.19 46.742 0.107 7.46 3.01 11.64
4/7/2021 7:15:00 AM 8.17 46.706 0.113 7.47 3.26 11.68
4/7/2021 7:30:00 AM 8.15 46.67 0.106 7.5 3.01 11.73
4/7/2021 7:45:00 AM 8.14 46.652 0.106 7.48 3.29 11.75
4/7/2021 8:00:00 AM 8.13 46.634 0.106 7.5 3.31 11.81
4/7/2021 8:15:00 AM 8.14 46.652 0.106 7.49 3.18 11.89
4/7/2021 8:30:00 AM 8.15 46.67 0.106 7.52 3.12 11.94
4/7/2021 8:45:00 AM 8.19 46.742 0.106 7.54 3.04 12.04
4/7/2021 9:00:00 AM 8.21 46.778 0.105 7.57 2.93 12.1
4/7/2021 9:15:00 AM 8.27 46.886 0.105 7.56 3.09 12.14
4/7/2021 9:30:00 AM 8.39 47.102 0.105 7.61 3.05 12.22
4/7/2021 9:45:00 AM 8.45 47.21 0.105 7.64 2.98 12.23
4/7/2021 10:00:00 AM 8.54 47.372 0.105 7.61 2.91 12.22
4/7/2021 10:15:00 AM 8.69 47.642 0.105 7.63 2.95 12.25
4/7/2021 10:30:00 AM 8.88 47.984 0.104 7.65 2.9 12.17
4/7/2021 10:45:00 AM 9.12 48.416 0.104 7.66 2.83 12.16
4/7/2021 11:00:00 AM 9.25 48.65 0.104 7.71 2.91 12.15
4/7/2021 11:15:00 AM 9.44 48.992 0.104 7.72 2.93 12.15
4/7/2021 11:30:00 AM 9.65 49.37 0.104 7.7 2.99 12.1
4/7/2021 11:45:00 AM 9.85 49.73 0.111 7.78 2.92 12.03
4/7/2021 12:00:00 PM 10.12 50.216 0.11 7.65 2.96 11.97
4/7/2021 12:15:00 PM 10.42 50.756 0.11 7.75 2.96 11.91
4/7/2021 12:30:00 PM 10.66 51.188 0.11 7.75 2.86 11.87
4/7/2021 12:45:00 PM 10.92 51.656 0.11 7.78 2.99 11.8
4/7/2021 1:00:00 PM 11.22 52.196 0.11 7.7 2.96 11.69
4/7/2021 1:15:00 PM 11.45 52.61 0.11 7.71 2.96 11.63
4/7/2021 1:30:00 PM 11.72 53.096 0.11 7.73 2.91 11.53
4/7/2021 1:45:00 PM 11.94 53.492 0.11 7.75 2.98 11.52
4/7/2021 2:00:00 PM 12.12 53.816 0.11 7.81 2.94 11.47
4/7/2021 2:15:00 PM 12.35 54.23 0.11 7.83 2.96 11.41
4/7/2021 2:30:00 PM 12.51 54.518 0.11 7.83 2.87 11.35
4/7/2021 2:45:00 PM 12.57 54.626 0.11 7.75 3.08 11.28
4/7/2021 3:00:00 PM 12.77 54.986 0.11 7.79 2.87 11.26
4/7/2021 3:15:00 PM 12.94 55.292 0.11 7.85 3.13 11.19
4/7/2021 3:30:00 PM 13.06 55.508 0.11 7.76 2.9 11.13
4/7/2021 3:45:00 PM 13.2 55.76 0.11 7.87 2.95 11.1
4/7/2021 4:00:00 PM 13.27 55.886 0.11 7.86 2.98 11.06
4/7/2021 4:15:00 PM 13.32 55.976 0.11 7.78 2.95 11.03
4/7/2021 4:30:00 PM 13.36 56.048 0.11 7.8 2.92 10.98
4/7/2021 4:45:00 PM 13.44 56.192 0.11 7.84 3.05 10.98
4/7/2021 5:00:00 PM 13.39 56.102 0.11 7.78 3.01 10.89
4/7/2021 5:15:00 PM 13.37 56.066 0.11 7.8 3.02 10.88
4/7/2021 5:30:00 PM 13.3 55.94 0.11 7.71 3.04 10.83
4/7/2021 5:45:00 PM 13.27 55.886 0.11 7.75 3.04 10.8
4/7/2021 6:00:00 PM 13.19 55.742 0.11 7.7 3.04 10.75
4/7/2021 6:15:00 PM 13.08 55.544 0.111 7.65 3.05 10.69
4/7/2021 6:30:00 PM 13.01 55.418 0.111 7.65 2.96 10.68
4/7/2021 6:45:00 PM 12.8 55.04 0.111 7.52 2.96 10.56
4/7/2021 7:00:00 PM 12.77 54.986 0.111 7.59 2.93 10.65
4/7/2021 7:15:00 PM 12.64 54.752 0.111 7.59 2.98 10.63
4/7/2021 7:30:00 PM 12.48 54.464 0.112 7.57 3.06 10.61
4/7/2021 7:45:00 PM 12.29 54.122 0.112 7.53 3.11 10.53
4/7/2021 8:00:00 PM 12.11 53.798 0.112 7.55 3.02 10.6
4/7/2021 8:15:00 PM 11.91 53.438 0.112 7.54 3.04 10.65
4/7/2021 8:30:00 PM 11.72 53.096 0.112 7.5 3.05 10.65
4/7/2021 8:45:00 PM 11.56 52.808 0.113 7.52 3.27 10.73
4/7/2021 9:00:00 PM 11.38 52.484 0.113 7.44 3.04 10.66
4/7/2021 9:15:00 PM 11.26 52.268 0.113 7.49 3.08 10.78
4/7/2021 9:30:00 PM 11.12 52.016 0.113 7.5 3.06 10.81
4/7/2021 9:45:00 PM 11.01 51.818 0.113 7.48 2.96 10.82
4/7/2021 10:00:00 PM 10.89 51.602 0.113 7.47 3.09 10.87
4/7/2021 10:15:00 PM 10.8 51.44 0.113 7.5 2.87 10.92
4/7/2021 10:30:00 PM 10.69 51.242 0.113 7.48 2.95 10.94
4/7/2021 10:45:00 PM 10.59 51.062 0.113 7.5 3.01 10.97
4/7/2021 11:00:00 PM 10.49 50.882 0.114 7.45 3.16 11
4/7/2021 11:15:00 PM 10.39 50.702 0.114 7.44 4.12 10.97
4/7/2021 11:30:00 PM 10.3 50.54 0.114 7.46 8.78 11.06
4/7/2021 11:45:00 PM 10.21 50.378 0.114 7.47 3.66 11.07
4/8/2021 12:00:00 AM 10.11 50.198 0.114 7.43 4.77 11.03
4/8/2021 12:15:00 AM 10.03 50.054 0.114 7.46 3.36 11.08
4/8/2021 12:30:00 AM 9.95 49.91 0.114 7.47 3.11 11.13
4/8/2021 12:45:00 AM 9.86 49.748 0.114 7.46 2.94 11.13
4/8/2021 1:00:00 AM 9.77 49.586 0.114 7.47 3 11.19
4/8/2021 1:15:00 AM 9.69 49.442 0.114 7.46 3.39 11.19
4/8/2021 1:30:00 AM 9.61 49.298 0.114 7.47 3 11.23
4/8/2021 1:45:00 AM 9.54 49.172 0.114 7.44 2.94 11.21
4/8/2021 2:00:00 AM 9.46 49.028 0.114 7.47 2.9 11.29
4/8/2021 2:15:00 AM 9.38 48.884 0.114 7.47 2.99 11.31
4/8/2021 2:30:00 AM 9.31 48.758 0.114 7.44 3.1 11.27
4/8/2021 2:45:00 AM 9.24 48.632 0.114 7.44 3.03 11.31
4/8/2021 3:00:00 AM 9.18 48.524 0.114 7.45 2.95 11.32
4/8/2021 3:15:00 AM 9.11 48.398 0.114 7.45 2.92 11.34
4/8/2021 3:30:00 AM 9.04 48.272 0.114 7.43 2.91 11.35
4/8/2021 3:45:00 AM 8.98 48.164 0.114 7.45 2.92 11.38
4/8/2021 4:00:00 AM 8.92 48.056 0.114 7.45 2.87 11.38
4/8/2021 4:15:00 AM 8.86 47.948 0.114 7.45 3.06 11.43
4/8/2021 4:30:00 AM 8.8 47.84 0.115 7.46 3.01 11.48
4/8/2021 4:45:00 AM 8.74 47.732 0.108 7.45 2.96 11.49
4/8/2021 5:00:00 AM 8.68 47.624 0.115 7.46 3.28 11.52
4/8/2021 5:15:00 AM 8.63 47.534 0.115 7.45 3.02 11.54
4/8/2021 5:30:00 AM 8.57 47.426 0.115 7.45 3 11.56
4/8/2021 5:45:00 AM 8.52 47.336 0.115 7.44 2.97 11.53
4/8/2021 6:00:00 AM 8.46 47.228 0.115 7.45 3.02 11.58
4/8/2021 6:15:00 AM 8.41 47.138 0.115 7.45 3.04 11.6
4/8/2021 6:30:00 AM 8.36 47.048 0.115 7.45 3.02 11.59
4/8/2021 6:45:00 AM 8.31 46.958 0.115 7.46 3.05 11.66
4/8/2021 7:00:00 AM 8.27 46.886 0.115 7.48 3.02 11.67
4/8/2021 7:15:00 AM 8.23 46.814 0.114 7.5 2.97 11.78
4/8/2021 7:30:00 AM 8.21 46.778 0.114 7.5 3 11.81
4/8/2021 7:45:00 AM 8.2 46.76 0.114 7.51 2.93 11.89
4/8/2021 8:00:00 AM 8.21 46.778 0.114 7.53 2.9 11.96
4/8/2021 8:15:00 AM 8.25 46.85 0.114 7.53 2.97 12
4/8/2021 8:30:00 AM 8.31 46.958 0.107 7.55 3.04 12.07
4/8/2021 8:45:00 AM 8.4 47.12 0.107 7.57 3.02 12.1
4/8/2021 9:00:00 AM 8.5 47.3 0.114 7.58 2.99 12.09
4/8/2021 9:15:00 AM 8.62 47.516 0.106 7.6 2.98 12.09
4/8/2021 9:30:00 AM 8.75 47.75 0.113 7.61 2.99 12.11
4/8/2021 9:45:00 AM 8.9 48.02 0.113 7.63 2.95 12.11
4/8/2021 10:00:00 AM 9.1 48.38 0.113 7.63 3.25 12.05
4/8/2021 10:15:00 AM 9.32 48.776 0.113 7.65 2.87 12.02
4/8/2021 10:30:00 AM 9.54 49.172 0.112 7.62 3.04 11.99
4/8/2021 10:45:00 AM 9.82 49.676 0.112 7.64 2.92 11.93
4/8/2021 11:00:00 AM 10.16 50.288 0.112 7.66 2.86 11.93
4/8/2021 11:15:00 AM 10.46 50.828 0.112 7.63 2.92 11.81
4/8/2021 11:30:00 AM 10.79 51.422 0.112 7.69 2.96 11.84
4/8/2021 11:45:00 AM 11.07 51.926 0.112 7.65 2.96 11.72
4/8/2021 12:00:00 PM 11.37 52.466 0.112 7.64 2.92 11.68
4/8/2021 12:15:00 PM 11.65 52.97 0.112 7.73 2.93 11.61
4/8/2021 12:30:00 PM 11.94 53.492 0.112 7.68 3.02 11.53
4/8/2021 12:45:00 PM 12.21 53.978 0.112 7.68 2.98 11.45
4/8/2021 1:00:00 PM 12.47 54.446 0.112 7.7 2.95 11.37
4/8/2021 1:15:00 PM 12.69 54.842 0.111 7.66 2.99 11.29
4/8/2021 1:30:00 PM 12.95 55.31 0.111 7.7 2.96 11.27
4/8/2021 1:45:00 PM 13.14 55.652 0.111 7.73 2.85 11.21
4/8/2021 2:00:00 PM 13.29 55.922 0.111 7.64 2.91 11.14
4/8/2021 2:15:00 PM 13.49 56.282 0.111 7.71 3.01 11.06
4/8/2021 2:30:00 PM 13.63 56.534 0.111 7.74 2.93 11.04
4/8/2021 2:45:00 PM 13.73 56.714 0.111 7.65 2.87 10.97
4/8/2021 3:00:00 PM 13.92 57.056 0.111 7.8 2.9 10.98
4/8/2021 3:15:00 PM 14.02 57.236 0.111 7.8 2.93 10.94
4/8/2021 3:30:00 PM 14.07 57.326 0.111 7.68 2.99 10.86
4/8/2021 3:45:00 PM 14.21 57.578 0.111 7.71 2.93 10.82
4/8/2021 4:00:00 PM 14.25 57.65 0.111 7.71 2.92 10.8
4/8/2021 4:15:00 PM 14.29 57.722 0.111 7.74 2.96 10.77
4/8/2021 4:30:00 PM 14.33 57.794 0.111 7.77 2.96 10.75
4/8/2021 4:45:00 PM 14.28 57.704 0.112 7.67 3.02 10.68
4/8/2021 5:00:00 PM 14.29 57.722 0.112 7.71 2.91 10.68
4/8/2021 5:15:00 PM 14.32 57.776 0.112 7.79 3.01 10.69
4/8/2021 5:30:00 PM 14.18 57.524 0.112 7.66 2.92 10.61
4/8/2021 5:45:00 PM 14.13 57.434 0.112 7.71 3.06 10.59
4/8/2021 6:00:00 PM 14.08 57.344 0.113 7.72 2.89 10.56
4/8/2021 6:15:00 PM 13.94 57.092 0.113 7.63 3.06 10.49
4/8/2021 6:30:00 PM 13.9 57.02 0.113 7.67 2.93 10.5
4/8/2021 6:45:00 PM 13.77 56.786 0.113 7.63 2.93 10.46
4/8/2021 7:00:00 PM 13.62 56.516 0.113 7.59 2.99 10.41
4/8/2021 7:15:00 PM 13.52 56.336 0.114 7.62 3.08 10.43
4/8/2021 7:30:00 PM 13.31 55.958 0.114 7.54 2.92 10.37
4/8/2021 7:45:00 PM 13.17 55.706 0.114 7.55 3.05 10.37
4/8/2021 8:00:00 PM 13.01 55.418 0.114 7.56 3.18 10.36
4/8/2021 8:15:00 PM 12.84 55.112 0.114 7.54 3.16 10.4
4/8/2021 8:30:00 PM 12.67 54.806 0.115 7.53 3.21 10.42
4/8/2021 8:45:00 PM 12.52 54.536 0.115 7.51 3.17 10.42
4/8/2021 9:00:00 PM 12.38 54.284 0.115 7.52 3.04 10.47
4/8/2021 9:15:00 PM 12.24 54.032 0.115 7.51 3.11 10.5
4/8/2021 9:30:00 PM 12.13 53.834 0.115 7.53 3.07 10.58
4/8/2021 9:45:00 PM 12.01 53.618 0.115 7.51 2.94 10.59
4/8/2021 10:00:00 PM 11.9 53.42 0.115 7.5 3.01 10.61
4/8/2021 10:15:00 PM 11.81 53.258 0.116 7.5 3.05 10.62
4/8/2021 10:30:00 PM 11.74 53.132 0.116 7.52 3.04 10.66
4/8/2021 10:45:00 PM 11.65 52.97 0.116 7.51 2.96 10.67
4/8/2021 11:00:00 PM 11.57 52.826 0.116 7.5 3 10.69
4/8/2021 11:15:00 PM 11.48 52.664 0.116 7.51 3.04 10.75
4/8/2021 11:30:00 PM 11.4 52.52 0.116 7.51 3.05 10.77
4/8/2021 11:45:00 PM 11.32 52.376 0.116 7.51 3.01 10.8
4/9/2021 12:00:00 AM 11.23 52.214 0.116 7.49 2.91 10.8
4/9/2021 12:15:00 AM 11.17 52.106 0.116 7.52 2.91 10.83
4/9/2021 12:30:00 AM 11.1 51.98 0.116 7.52 2.96 10.86
4/9/2021 12:45:00 AM 11.03 51.854 0.116 7.5 3.08 10.84
4/9/2021 1:00:00 AM 10.96 51.728 0.116 7.5 3.04 10.86
4/9/2021 1:15:00 AM 10.89 51.602 0.116 7.49 3.15 10.9
4/9/2021 1:30:00 AM 10.83 51.494 0.116 7.52 2.98 10.93
4/9/2021 1:45:00 AM 10.76 51.368 0.116 7.49 2.93 10.91
4/9/2021 2:00:00 AM 10.71 51.278 0.116 7.52 3 10.95
4/9/2021 2:15:00 AM 10.65 51.17 0.116 7.51 3.1 10.97
4/9/2021 2:30:00 AM 10.59 51.062 0.116 7.5 2.97 10.98
4/9/2021 2:45:00 AM 10.54 50.972 0.116 7.5 3.27 10.99
4/9/2021 3:00:00 AM 10.49 50.882 0.116 7.5 3.09 10.99
4/9/2021 3:15:00 AM 10.44 50.792 0.116 7.51 2.96 11.02
4/9/2021 3:30:00 AM 10.39 50.702 0.116 7.51 2.97 11.04
4/9/2021 3:45:00 AM 10.35 50.63 0.116 7.52 2.94 11.07
4/9/2021 4:00:00 AM 10.3 50.54 0.116 7.49 2.98 11.06
4/9/2021 4:15:00 AM 10.26 50.468 0.117 7.51 2.93 11.09
4/9/2021 4:30:00 AM 10.21 50.378 0.116 7.49 2.98 11.07
4/9/2021 4:45:00 AM 10.18 50.324 0.117 7.52 3.01 11.13
4/9/2021 5:00:00 AM 10.13 50.234 0.116 7.49 3.04 11.12
4/9/2021 5:15:00 AM 10.1 50.18 0.117 7.5 2.99 11.14
4/9/2021 5:30:00 AM 10.07 50.126 0.117 7.51 2.95 11.16
4/9/2021 5:45:00 AM 10.03 50.054 0.117 7.49 2.93 11.15
4/9/2021 6:00:00 AM 10 50 0.117 7.48 3.05 11.14
4/9/2021 6:15:00 AM 9.96 49.928 0.117 7.48 2.98 11.15
4/9/2021 6:30:00 AM 9.93 49.874 0.117 7.5 2.98 11.16
4/9/2021 6:45:00 AM 9.89 49.802 0.117 7.51 3.01 11.2
4/9/2021 7:00:00 AM 9.86 49.748 0.117 7.53 2.91 11.25
4/9/2021 7:15:00 AM 9.85 49.73 0.117 7.53 3.22 11.28
4/9/2021 7:30:00 AM 9.84 49.712 0.117 7.55 2.98 11.38
4/9/2021 7:45:00 AM 9.84 49.712 0.117 7.57 2.97 11.47
4/9/2021 8:00:00 AM 9.87 49.766 0.116 7.58 3.11 11.58
4/9/2021 8:15:00 AM 9.92 49.856 0.116 7.55 3.01 11.64
4/9/2021 8:30:00 AM 9.97 49.946 0.116 7.63 3.05 11.68
4/9/2021 8:45:00 AM 10.01 50.018 0.116 7.66 2.99 11.71
4/9/2021 9:00:00 AM 10.04 50.072 0.116 7.68 3.03 11.74
4/9/2021 9:15:00 AM 10.07 50.126 0.116 7.64 3.06 11.71
4/9/2021 9:30:00 AM 10.1 50.18 0.116 7.68 3.01 11.71
4/9/2021 9:45:00 AM 10.13 50.234 0.116 7.67 3.04 11.69
4/9/2021 10:00:00 AM 10.15 50.27 0.116 7.68 3.08 11.64
4/9/2021 10:15:00 AM 10.2 50.36 0.116 7.7 3 11.7
4/9/2021 10:30:00 AM 10.25 50.45 0.116 7.71 3.01 11.71
4/9/2021 10:45:00 AM 10.3 50.54 0.116 7.74 3.28 11.72
4/9/2021 11:00:00 AM 10.33 50.594 0.116 7.71 3.09 11.71
4/9/2021 11:15:00 AM 10.37 50.666 0.115 7.74 3.08 11.72
4/9/2021 11:30:00 AM 10.41 50.738 0.115 7.74 2.99 11.71
4/9/2021 11:45:00 AM 10.49 50.882 0.115 7.78 2.99 11.76
4/9/2021 12:00:00 PM 10.58 51.044 0.115 7.78 3.03 11.76
4/9/2021 12:15:00 PM 10.67 51.206 0.115 7.81 3.04 11.78
4/9/2021 12:30:00 PM 10.72 51.296 0.115 7.81 2.96 11.76
4/9/2021 12:45:00 PM 10.81 51.458 0.115 7.84 2.99 11.77
4/9/2021 1:00:00 PM 10.96 51.728 0.115 7.81 2.97 11.76
4/9/2021 1:15:00 PM 11.05 51.89 0.115 7.86 3.05 11.7
4/9/2021 1:30:00 PM 11.06 51.908 0.115 7.82 3.01 11.66
4/9/2021 1:45:00 PM 11.06 51.908 0.115 7.82 3.02 11.59
4/9/2021 2:00:00 PM 11.14 52.052 0.115 7.75 3.01 11.58
4/9/2021 2:15:00 PM 11.36 52.448 0.115 7.8 2.92 11.64
4/9/2021 2:30:00 PM 11.44 52.592 0.115 7.82 2.94 11.59
4/9/2021 2:45:00 PM 11.47 52.646 0.115 7.89 2.94 11.58
4/9/2021 3:00:00 PM 11.47 52.646 0.115 7.88 2.92 11.56
4/9/2021 3:15:00 PM 11.51 52.718 0.114 7.86 2.97 11.53
4/9/2021 3:30:00 PM 11.54 52.772 0.115 7.87 2.96 11.53
4/9/2021 3:45:00 PM 11.57 52.826 0.115 7.85 3.01 11.5
4/9/2021 4:00:00 PM 11.58 52.844 0.115 7.87 2.94 11.47
4/9/2021 4:15:00 PM 11.56 52.808 0.115 7.83 2.93 11.43
4/9/2021 4:30:00 PM 11.54 52.772 0.115 7.82 2.98 11.41
4/9/2021 4:45:00 PM 11.53 52.754 0.115 7.81 3.03 11.4
4/9/2021 5:00:00 PM 11.52 52.736 0.115 7.81 3.04 11.4
4/9/2021 5:15:00 PM 11.52 52.736 0.115 7.78 3.03 11.39
4/9/2021 5:30:00 PM 11.54 52.772 0.115 7.82 3 11.44
4/9/2021 5:45:00 PM 11.5 52.7 0.115 7.79 3.09 11.36
4/9/2021 6:00:00 PM 11.48 52.664 0.116 7.79 3 11.34
4/9/2021 6:15:00 PM 11.44 52.592 0.116 7.73 2.94 11.29
4/9/2021 6:30:00 PM 11.45 52.61 0.116 7.77 3.03 11.35
4/9/2021 6:45:00 PM 11.42 52.556 0.116 7.73 3.11 11.26
4/9/2021 7:00:00 PM 11.38 52.484 0.116 7.7 3.09 11.18
4/9/2021 7:15:00 PM 11.35 52.43 0.116 7.67 2.99 11.07
4/9/2021 7:30:00 PM 11.3 52.34 0.116 7.63 3.07 10.99
4/9/2021 7:45:00 PM 11.27 52.286 0.117 7.63 3.1 10.94
4/9/2021 8:00:00 PM 11.24 52.232 0.117 7.6 3.24 10.89
4/9/2021 8:15:00 PM 11.2 52.16 0.117 7.58 3.01 10.88
4/9/2021 8:30:00 PM 11.17 52.106 0.117 7.57 3.04 10.87
4/9/2021 8:45:00 PM 11.12 52.016 0.117 7.55 3.1 10.86
4/9/2021 9:00:00 PM 11.09 51.962 0.117 7.56 3 10.88
4/9/2021 9:15:00 PM 11.05 51.89 0.118 7.55 3.03 10.87
4/9/2021 9:30:00 PM 11.01 51.818 0.118 7.55 3.08 10.89
4/9/2021 9:45:00 PM 10.98 51.764 0.118 7.54 3.2 10.87
4/9/2021 10:00:00 PM 10.94 51.692 0.118 7.54 3.08 10.9
4/9/2021 10:15:00 PM 10.91 51.638 0.118 7.53 3.02 10.91
4/9/2021 10:30:00 PM 10.88 51.584 0.118 7.55 2.95 10.93
4/9/2021 10:45:00 PM 10.85 51.53 0.118 7.53 3.13 10.94
4/9/2021 11:00:00 PM 10.83 51.494 0.118 7.54 3.02 10.95
4/9/2021 11:15:00 PM 10.8 51.44 0.118 7.54 3 10.95
4/9/2021 11:30:00 PM 10.78 51.404 0.118 7.54 3.06 10.96
4/9/2021 11:45:00 PM 10.75 51.35 0.118 7.53 3.08 10.96
4/10/2021 12:00:00 AM 10.73 51.314 0.118 7.53 3.09 10.98
4/10/2021 12:15:00 AM 10.71 51.278 0.118 7.53 11.16 10.97
4/10/2021 12:30:00 AM 10.69 51.242 0.118 7.53 4.84 10.97
4/10/2021 12:45:00 AM 10.68 51.224 0.118 7.53 3.28 10.97
4/10/2021 1:00:00 AM 10.65 51.17 0.118 7.52 3.03 10.91
4/10/2021 1:15:00 AM 10.64 51.152 0.118 7.53 3.19 10.97
4/10/2021 1:30:00 AM 10.62 51.116 0.118 7.53 3.8 10.98
4/10/2021 1:45:00 AM 10.61 51.098 0.118 7.52 9.75 10.94
4/10/2021 2:00:00 AM 10.6 51.08 0.118 7.53 4.61 10.99
4/10/2021 2:15:00 AM 10.58 51.044 0.118 7.53 3.51 10.99
4/10/2021 2:30:00 AM 10.57 51.026 0.118 7.54 2.84 11
4/10/2021 2:45:00 AM 10.56 51.008 0.118 7.53 2.75 10.99
4/10/2021 3:00:00 AM 10.55 50.99 0.118 7.54 2.56 10.99
4/10/2021 3:15:00 AM 10.54 50.972 0.118 7.54 2.62 10.99
4/10/2021 3:30:00 AM 10.52 50.936 0.118 7.54 2.55 11.02
4/10/2021 3:45:00 AM 10.51 50.918 0.118 7.54 2.49 11
4/10/2021 4:00:00 AM 10.5 50.9 0.118 7.54 2.41 11.02
4/10/2021 4:15:00 AM 10.49 50.882 0.118 7.53 2.59 11.01
4/10/2021 4:30:00 AM 10.48 50.864 0.118 7.54 2.53 11.01
4/10/2021 4:45:00 AM 10.46 50.828 0.118 7.52 2.48 10.93
4/10/2021 5:00:00 AM 10.45 50.81 0.118 7.53 3.72 11
4/10/2021 5:15:00 AM 10.45 50.81 0.118 7.54 2.51 11.01
4/10/2021 5:30:00 AM 10.44 50.792 0.118 7.54 2.49 11
4/10/2021 5:45:00 AM 10.42 50.756 0.118 7.54 2.48 11.01
4/10/2021 6:00:00 AM 10.42 50.756 0.118 7.54 2.43 11.02
4/10/2021 6:15:00 AM 10.41 50.738 0.119 7.54 2.54 11.02
4/10/2021 6:30:00 AM 10.4 50.72 0.119 7.56 2.4 11.04
4/10/2021 6:45:00 AM 10.39 50.702 0.119 7.55 2.49 11.05
4/10/2021 7:00:00 AM 10.38 50.684 0.119 7.55 2.63 11.07
4/10/2021 7:15:00 AM 10.38 50.684 0.119 7.57 2.57 11.13
4/10/2021 7:30:00 AM 10.39 50.702 0.118 7.58 2.53 11.22
4/10/2021 7:45:00 AM 10.4 50.72 0.118 7.59 2.56 11.29
4/10/2021 8:00:00 AM 10.43 50.774 0.118 7.64 2.61 11.39
4/10/2021 8:15:00 AM 10.46 50.828 0.118 7.66 2.6 11.44
4/10/2021 8:30:00 AM 10.48 50.864 0.118 7.67 2.56 11.5
4/10/2021 8:45:00 AM 10.53 50.954 0.118 7.72 2.82 11.58
4/10/2021 9:00:00 AM 10.58 51.044 0.118 7.71 2.52 11.6
4/10/2021 9:15:00 AM 10.65 51.17 0.118 7.75 2.5 11.66
4/10/2021 9:30:00 AM 10.72 51.296 0.118 7.77 2.47 11.68
4/10/2021 9:45:00 AM 10.79 51.422 0.117 7.78 2.46 11.7
4/10/2021 10:00:00 AM 10.87 51.566 0.117 7.85 2.41 11.71
4/10/2021 10:15:00 AM 10.98 51.764 0.117 7.85 2.53 11.73
4/10/2021 10:30:00 AM 11.09 51.962 0.117 7.85 2.62 11.7
4/10/2021 10:45:00 AM 11.22 52.196 0.117 7.88 2.72 11.69
4/10/2021 11:00:00 AM 11.39 52.502 0.117 7.91 2.47 11.7
4/10/2021 11:15:00 AM 11.75 53.15 0.117 7.92 2.43 11.64
4/10/2021 11:30:00 AM 12.11 53.798 0.116 7.9 2.52 11.58
4/10/2021 11:45:00 AM 12.4 54.32 0.116 7.9 2.53 11.5
4/10/2021 12:00:00 PM 12.75 54.95 0.116 7.97 2.45 11.46
4/10/2021 12:15:00 PM 12.98 55.364 0.116 7.93 2.54 11.37
4/10/2021 12:30:00 PM 13.3 55.94 0.116 7.99 2.54 11.31
4/10/2021 12:45:00 PM 13.51 56.318 0.116 7.87 2.42 11.2
4/10/2021 1:00:00 PM 13.8 56.84 0.116 7.95 2.41 11.14
4/10/2021 1:15:00 PM 13.96 57.128 0.116 7.94 2.54 11.12
4/10/2021 1:30:00 PM 14.11 57.398 0.116 7.97 2.55 11.1
4/10/2021 1:45:00 PM 14.27 57.686 0.116 8.06 2.39 11.05
4/10/2021 2:00:00 PM 14.36 57.848 0.116 8.02 2.55 11
4/10/2021 2:15:00 PM 14.44 57.992 0.116 8 2.52 10.98
4/10/2021 2:30:00 PM 14.52 58.136 0.116 8.03 2.6 10.94
4/10/2021 2:45:00 PM 14.55 58.19 0.116 7.95 2.53 10.92
4/10/2021 3:00:00 PM 14.69 58.442 0.116 8.07 2.56 10.91
4/10/2021 3:15:00 PM 14.73 58.514 0.116 7.95 2.52 10.86
4/10/2021 3:30:00 PM 14.89 58.802 0.116 8.1 2.59 10.84
4/10/2021 3:45:00 PM 14.94 58.892 0.116 8.09 2.53 10.8
4/10/2021 4:00:00 PM 14.98 58.964 0.116 8.08 2.53 10.76
4/10/2021 4:15:00 PM 15.06 59.108 0.116 8.16 2.58 10.79
4/10/2021 4:30:00 PM 15.08 59.144 0.116 8.16 5.99 10.75
4/10/2021 4:45:00 PM 15.09 59.162 0.116 8.13 3.25 10.74
4/10/2021 5:00:00 PM 15.09 59.162 0.116 8.11 2.62 10.71
4/10/2021 5:15:00 PM 14.99 58.982 0.116 7.94 2.63 10.62
4/10/2021 5:30:00 PM 14.97 58.946 0.116 7.98 2.61 10.6
4/10/2021 5:45:00 PM 14.98 58.964 0.117 8.01 2.52 10.61
4/10/2021 6:00:00 PM 14.92 58.856 0.117 7.98 2.53 10.57
4/10/2021 6:15:00 PM 14.86 58.748 0.117 7.96 2.55 10.53
4/10/2021 6:30:00 PM 14.79 58.622 0.117 7.92 2.5 10.48
4/10/2021 6:45:00 PM 14.68 58.424 0.118 7.85 2.63 10.41
4/10/2021 7:00:00 PM 14.57 58.226 0.118 7.78 2.6 10.33
4/10/2021 7:15:00 PM 14.45 58.01 0.118 7.73 2.94 10.24
4/10/2021 7:30:00 PM 14.33 57.794 0.118 7.7 2.62 10.16
4/10/2021 7:45:00 PM 14.19 57.542 0.119 7.66 2.6 10.1
4/10/2021 8:00:00 PM 14.05 57.29 0.119 7.63 2.53 10.08
4/10/2021 8:15:00 PM 13.89 57.002 0.119 7.6 2.93 10.05
4/10/2021 8:30:00 PM 13.74 56.732 0.119 7.59 2.91 10.08
4/10/2021 8:45:00 PM 13.59 56.462 0.12 7.58 2.8 10.1
4/10/2021 9:00:00 PM 13.46 56.228 0.12 7.58 3.04 10.14
4/10/2021 9:15:00 PM 13.32 55.976 0.12 7.56 2.5 10.15
4/10/2021 9:30:00 PM 13.2 55.76 0.12 7.56 2.6 10.18
4/10/2021 9:45:00 PM 13.07 55.526 0.12 7.56 2.61 10.21
4/10/2021 10:00:00 PM 12.96 55.328 0.12 7.57 2.58 10.25
4/10/2021 10:15:00 PM 12.85 55.13 0.12 7.56 2.73 10.28
4/10/2021 10:30:00 PM 12.75 54.95 0.12 7.55 2.52 10.3
4/10/2021 10:45:00 PM 12.65 54.77 0.121 7.55 2.52 10.33
4/10/2021 11:00:00 PM 12.56 54.608 0.121 7.56 2.44 10.34
4/10/2021 11:15:00 PM 12.47 54.446 0.121 7.55 2.57 10.37
4/10/2021 11:30:00 PM 12.39 54.302 0.121 7.54 2.46 10.38
4/10/2021 11:45:00 PM 12.31 54.158 0.121 7.55 2.6 10.41
4/11/2021 12:00:00 AM 12.22 53.996 0.121 7.53 2.51 10.41
4/11/2021 12:15:00 AM 12.16 53.888 0.121 7.54 2.74 10.44
4/11/2021 12:30:00 AM 12.1 53.78 0.121 7.55 2.51 10.47
4/11/2021 12:45:00 AM 12.03 53.654 0.121 7.53 2.52 10.47
4/11/2021 1:00:00 AM 11.98 53.564 0.121 7.55 2.56 10.5
4/11/2021 1:15:00 AM 11.92 53.456 0.121 7.54 2.7 10.51
4/11/2021 1:30:00 AM 11.86 53.348 0.121 7.53 2.49 10.5
4/11/2021 1:45:00 AM 11.8 53.24 0.121 7.53 2.58 10.52
4/11/2021 2:00:00 AM 11.76 53.168 0.121 7.54 2.86 10.54
4/11/2021 2:15:00 AM 11.7 53.06 0.121 7.53 2.48 10.54
4/11/2021 2:30:00 AM 11.66 52.988 0.121 7.54 2.52 10.57
4/11/2021 2:45:00 AM 11.61 52.898 0.121 7.54 2.6 10.58
4/11/2021 3:00:00 AM 11.56 52.808 0.121 7.54 2.57 10.59
4/11/2021 3:15:00 AM 11.53 52.754 0.121 7.52 2.53 10.59
4/11/2021 3:30:00 AM 11.49 52.682 0.121 7.52 4.88 10.59
4/11/2021 3:45:00 AM 11.46 52.628 0.121 7.53 2.48 10.61
4/11/2021 4:00:00 AM 11.44 52.592 0.121 7.53 2.75 10.6
4/11/2021 4:15:00 AM 11.41 52.538 0.121 7.52 7.77 10.61
4/11/2021 4:30:00 AM 11.41 52.538 0.12 7.54 2.8 10.62
4/11/2021 4:45:00 AM 11.39 52.502 0.121 7.52 2.63 10.61
4/11/2021 5:00:00 AM 11.37 52.466 0.121 7.52 2.52 10.61
4/11/2021 5:15:00 AM 11.36 52.448 0.121 7.53 2.55 10.64
4/11/2021 5:30:00 AM 11.35 52.43 0.121 7.54 2.42 10.64
4/11/2021 5:45:00 AM 11.33 52.394 0.121 7.53 2.45 10.64
4/11/2021 6:00:00 AM 11.31 52.358 0.121 7.53 2.46 10.64
4/11/2021 6:15:00 AM 11.29 52.322 0.121 7.53 2.64 10.64
4/11/2021 6:30:00 AM 11.27 52.286 0.121 7.52 2.54 10.63
4/11/2021 6:45:00 AM 11.27 52.286 0.121 7.52 2.53 10.64
4/11/2021 7:00:00 AM 11.26 52.268 0.121 7.53 2.6 10.66
4/11/2021 7:15:00 AM 11.25 52.25 0.121 7.54 2.62 10.68
4/11/2021 7:30:00 AM 11.25 52.25 0.121 7.56 2.49 10.74
4/11/2021 7:45:00 AM 11.25 52.25 0.121 7.56 2.5 10.75
4/11/2021 8:00:00 AM 11.25 52.25 0.12 7.57 2.57 10.79
4/11/2021 8:15:00 AM 11.25 52.25 0.12 7.58 2.68 10.82
4/11/2021 8:30:00 AM 11.26 52.268 0.12 7.59 2.81 10.84
4/11/2021 8:45:00 AM 11.27 52.286 0.12 7.6 2.83 10.87
4/11/2021 9:00:00 AM 11.27 52.286 0.12 7.6 2.78 10.85
4/11/2021 9:15:00 AM 11.28 52.304 0.12 7.61 2.74 10.87
4/11/2021 9:30:00 AM 11.29 52.322 0.12 7.62 2.62 10.91
4/11/2021 9:45:00 AM 11.3 52.34 0.119 7.61 2.89 10.92
4/11/2021 10:00:00 AM 11.33 52.394 0.119 7.63 3.24 10.93
4/11/2021 10:15:00 AM 11.34 52.412 0.119 7.65 3.33 10.99
4/11/2021 10:30:00 AM 11.35 52.43 0.119 7.65 2.9 11.01
4/11/2021 10:45:00 AM 11.37 52.466 0.118 7.66 2.79 11.08
4/11/2021 11:00:00 AM 11.39 52.502 0.118 7.68 2.69 11.09
4/11/2021 11:15:00 AM 11.42 52.556 0.118 7.7 2.72 11.14
4/11/2021 11:30:00 AM 11.45 52.61 0.118 7.7 2.73 11.15
4/11/2021 11:45:00 AM 11.52 52.736 0.117 7.73 3.04 11.21
4/11/2021 12:00:00 PM 11.61 52.898 0.117 7.77 3.07 11.26
4/11/2021 12:15:00 PM 11.68 53.024 0.117 7.8 2.8 11.27
4/11/2021 12:30:00 PM 11.74 53.132 0.117 7.82 2.73 11.29
4/11/2021 12:45:00 PM 11.79 53.222 0.117 7.83 2.69 11.29
4/11/2021 1:00:00 PM 11.85 53.33 0.117 7.85 2.67 11.29
4/11/2021 1:15:00 PM 11.91 53.438 0.117 7.88 2.69 11.27
4/11/2021 1:30:00 PM 11.93 53.474 0.117 7.85 2.69 11.23
4/11/2021 1:45:00 PM 11.97 53.546 0.117 7.86 2.61 11.21
4/11/2021 2:00:00 PM 12.01 53.618 0.117 7.85 2.6 11.19
4/11/2021 2:15:00 PM 12.04 53.672 0.117 7.84 2.64 11.16
4/11/2021 2:30:00 PM 12.12 53.816 0.116 7.82 2.71 11.16
4/11/2021 2:45:00 PM 12.2 53.96 0.116 7.86 3.02 11.16
4/11/2021 3:00:00 PM 12.26 54.068 0.116 7.85 2.88 11.14
4/11/2021 3:15:00 PM 12.27 54.086 0.116 7.8 2.76 11.12
4/11/2021 3:30:00 PM 12.35 54.23 0.116 7.85 2.72 11.12
4/11/2021 3:45:00 PM 12.37 54.266 0.116 7.84 2.72 11.05
4/11/2021 4:00:00 PM 12.38 54.284 0.116 7.82 2.8 10.99
4/11/2021 4:15:00 PM 12.38 54.284 0.116 7.75 2.97 10.95
4/11/2021 4:30:00 PM 12.4 54.32 0.115 7.75 3.1 10.89
4/11/2021 4:45:00 PM 12.42 54.356 0.115 7.74 3.66 10.83
4/11/2021 5:00:00 PM 12.41 54.338 0.115 7.72 3.59 10.78
4/11/2021 5:15:00 PM 12.4 54.32 0.115 7.68 3.27 10.76
4/11/2021 5:30:00 PM 12.39 54.302 0.114 7.64 3.66 10.76
4/11/2021 5:45:00 PM 12.38 54.284 0.114 7.64 3.18 10.71
4/11/2021 6:00:00 PM 12.33 54.194 0.114 7.55 3.14 10.56
4/11/2021 6:15:00 PM 12.34 54.212 0.114 7.55 3.15 10.57
4/11/2021 6:30:00 PM 12.35 54.23 0.115 7.57 3.09 10.54
4/11/2021 6:45:00 PM 12.35 54.23 0.116 7.57 3.04 10.53
4/11/2021 7:00:00 PM 12.33 54.194 0.116 7.53 3.16 10.46
4/11/2021 7:15:00 PM 12.3 54.14 0.117 7.51 3.12 10.41
4/11/2021 7:30:00 PM 12.27 54.086 0.118 7.47 3.46 10.35
4/11/2021 7:45:00 PM 12.27 54.086 0.119 7.51 3.44 10.38
4/11/2021 8:00:00 PM 12.25 54.05 0.119 7.48 3.87 10.33
4/11/2021 8:15:00 PM 12.24 54.032 0.119 7.49 3.31 10.38
4/11/2021 8:30:00 PM 12.21 53.978 0.119 7.48 3.31 10.35
4/11/2021 8:45:00 PM 12.2 53.96 0.12 7.48 3.23 10.39
4/11/2021 9:00:00 PM 12.15 53.87 0.119 7.46 3.2 10.37
4/11/2021 9:15:00 PM 12.16 53.888 0.119 7.48 3.81 10.38
4/11/2021 9:30:00 PM 12.11 53.798 0.119 7.41 3.78 10.31
4/11/2021 9:45:00 PM 12.09 53.762 0.119 7.42 3.91 10.32
4/11/2021 10:00:00 PM 12.09 53.762 0.12 7.46 3.88 10.39
4/11/2021 10:15:00 PM 12.07 53.726 0.12 7.47 4.01 10.41
4/11/2021 10:30:00 PM 12.04 53.672 0.12 7.47 3.88 10.43
4/11/2021 10:45:00 PM 12.03 53.654 0.12 7.49 4.25 10.47
4/11/2021 11:00:00 PM 11.98 53.564 0.12 7.46 5.23 10.36
4/11/2021 11:15:00 PM 11.98 53.564 0.119 7.46 6.14 10.48
4/11/2021 11:30:00 PM 11.98 53.564 0.118 7.47 6.29 10.52
4/11/2021 11:45:00 PM 11.97 53.546 0.117 7.45 8.03 10.44
4/12/2021 12:00:00 AM 11.98 53.564 0.116 7.42 6.46 10.47
4/12/2021 12:15:00 AM 11.96 53.528 0.114 7.39 6.7 10.43
4/12/2021 12:30:00 AM 11.99 53.582 0.114 7.42 6.58 10.45
4/12/2021 12:45:00 AM 12.02 53.636 0.112 7.44 6.86 10.5
4/12/2021 1:00:00 AM 11.98 53.564 0.111 7.39 7.43 10.45
4/12/2021 1:15:00 AM 11.99 53.582 0.111 7.44 7.84 10.52
4/12/2021 1:30:00 AM 11.97 53.546 0.111 7.43 7.7 10.53
4/12/2021 1:45:00 AM 11.91 53.438 0.111 7.41 7.12 10.46
4/12/2021 2:00:00 AM 11.91 53.438 0.11 7.43 6.6 10.54
4/12/2021 2:15:00 AM 11.89 53.402 0.11 7.43 5.96 10.53
4/12/2021 2:30:00 AM 11.84 53.312 0.11 7.39 6.07 10.45
4/12/2021 2:45:00 AM 11.83 53.294 0.11 7.42 5.31 10.52
4/12/2021 3:00:00 AM 11.81 53.258 0.11 7.41 5.09 10.51
4/12/2021 3:15:00 AM 11.82 53.276 0.11 7.47 4.88 10.58
4/12/2021 3:30:00 AM 11.8 53.24 0.11 7.47 4.91 10.61
4/12/2021 3:45:00 AM 11.77 53.186 0.11 7.45 4.44 10.57
4/12/2021 4:00:00 AM 11.75 53.15 0.11 7.45 4.58 10.56
4/12/2021 4:15:00 AM 11.73 53.114 0.11 7.44 6.28 10.54
4/12/2021 4:30:00 AM 11.7 53.06 0.109 7.43 4.58 10.59
4/12/2021 4:45:00 AM 11.7 53.06 0.109 7.45 4.24 10.62
4/12/2021 5:00:00 AM 11.67 53.006 0.109 7.44 4.33 10.61
4/12/2021 5:15:00 AM 11.64 52.952 0.109 7.42 4.13 10.58
4/12/2021 5:30:00 AM 11.63 52.934 0.109 7.41 4.19 10.57
4/12/2021 5:45:00 AM 11.59 52.862 0.109 7.41 4.07 10.59
4/12/2021 6:00:00 AM 11.55 52.79 0.109 7.37 3.99 10.59
4/12/2021 6:15:00 AM 11.55 52.79 0.108 7.38 4.03 10.61
4/12/2021 6:30:00 AM 11.51 52.718 0.108 7.4 4.04 10.61
4/12/2021 6:45:00 AM 11.52 52.736 0.109 7.46 4.03 10.69
4/12/2021 7:00:00 AM 11.48 52.664 0.109 7.45 4.01 10.72
4/12/2021 7:15:00 AM 11.44 52.592 0.109 7.45 4.21 10.72
4/12/2021 7:30:00 AM 11.41 52.538 0.109 7.44 3.9 10.74
4/12/2021 7:45:00 AM 11.34 52.412 0.109 7.41 4.05 10.64
4/12/2021 8:00:00 AM 11.33 52.394 0.109 7.41 4.07 10.76
4/12/2021 8:15:00 AM 11.32 52.376 0.109 7.45 3.97 10.78
4/12/2021 8:30:00 AM 11.28 52.304 0.109 7.42 3.91 10.77
4/12/2021 8:45:00 AM 11.29 52.322 0.109 7.48 3.87 10.84
4/12/2021 9:00:00 AM 11.22 52.196 0.109 7.38 4.07 10.76
4/12/2021 9:15:00 AM 11.25 52.25 0.109 7.49 3.69 10.89
4/12/2021 9:30:00 AM 11.21 52.178 0.108 7.43 3.66 10.85
4/12/2021 9:45:00 AM 11.18 52.124 0.108 7.49 3.7 10.94
4/12/2021 10:00:00 AM 11.14 52.052 0.108 7.47 3.62 10.99
4/12/2021 10:15:00 AM 11.12 52.016 0.108 7.46 3.5 11.04
4/12/2021 10:30:00 AM 11.11 51.998 0.108 7.54 3.59 11.09
4/12/2021 10:45:00 AM 11.11 51.998 0.108 7.54 3.75 11.13
4/12/2021 11:00:00 AM 11.11 51.998 0.108 7.51 3.58 11.1
4/12/2021 11:15:00 AM 11.11 51.998 0.108 7.53 3.5 11.12
4/12/2021 11:30:00 AM 11.13 52.034 0.108 7.6 3.61 11.18
4/12/2021 11:45:00 AM 11.13 52.034 0.107 7.57 3.41 11.13
4/12/2021 12:00:00 PM 11.13 52.034 0.107 7.59 3.56 11.16
4/12/2021 12:15:00 PM 11.12 52.016 0.107 7.54 3.43 11.13
4/12/2021 12:30:00 PM 11.13 52.034 0.107 7.54 3.36 11.18
4/12/2021 12:45:00 PM 11.18 52.124 0.101 7.6 3.35 11.21
4/12/2021 1:00:00 PM 11.21 52.178 0.107 7.62 3.29 11.22
4/12/2021 1:15:00 PM 11.26 52.268 0.1 7.67 3.33 11.26
4/12/2021 1:30:00 PM 11.27 52.286 0.107 7.64 3.41 11.22
4/12/2021 1:45:00 PM 11.28 52.304 0.107 7.61 3.34 11.19
4/12/2021 2:00:00 PM 11.26 52.268 0.107 7.57 3.45 11.12
4/12/2021 2:15:00 PM 11.26 52.268 0.1 7.59 3.45 11.13
4/12/2021 2:30:00 PM 11.23 52.214 0.107 7.54 3.31 11.12
4/12/2021 2:45:00 PM 11.24 52.232 0.106 7.6 3.35 11.13
4/12/2021 3:00:00 PM 11.23 52.214 0.106 7.58 3.63 11.14
4/12/2021 3:15:00 PM 11.2 52.16 0.106 7.59 3.55 11.15
4/12/2021 3:30:00 PM 11.19 52.142 0.099 7.58 3.49 11.16
4/12/2021 3:45:00 PM 11.18 52.124 0.105 7.58 3.36 11.16
4/12/2021 4:00:00 PM 11.17 52.106 0.099 7.58 3.49 11.16
4/12/2021 4:15:00 PM 11.17 52.106 0.099 7.61 3.56 11.17
4/12/2021 4:30:00 PM 11.14 52.052 0.098 7.58 3.42 11.12
4/12/2021 4:45:00 PM 11.11 51.998 0.099 7.56 3.41 11.09
4/12/2021 5:00:00 PM 11.08 51.944 0.099 7.53 3.92 11.08
4/12/2021 5:15:00 PM 11.07 51.926 0.098 7.55 3.47 11.05
4/12/2021 5:30:00 PM 11.04 51.872 0.105 7.53 3.5 11.05
4/12/2021 5:45:00 PM 11.02 51.836 0.099 7.53 3.47 11.03
4/12/2021 6:00:00 PM 11 51.8 0.105 7.53 3.49 11.04
4/12/2021 6:15:00 PM 10.97 51.746 0.099 7.51 3.42 11.02
4/12/2021 6:30:00 PM 10.94 51.692 0.1 7.5 3.44 10.99
4/12/2021 6:45:00 PM 10.91 51.638 0.106 7.51 3.33 10.99
4/12/2021 7:00:00 PM 10.87 51.566 0.1 7.48 3.59 10.96
4/12/2021 7:15:00 PM 10.85 51.53 0.107 7.46 3.41 10.95
4/12/2021 7:30:00 PM 10.81 51.458 0.1 7.44 3.38 10.94
4/12/2021 7:45:00 PM 10.82 51.476 0.107 7.48 3.31 10.98
4/12/2021 8:00:00 PM 10.78 51.404 0.1 7.46 3.39 10.95
4/12/2021 8:15:00 PM 10.78 51.404 0.101 7.47 3.89 10.97
4/12/2021 8:30:00 PM 10.76 51.368 0.107 7.48 3.56 10.98
4/12/2021 8:45:00 PM 10.73 51.314 0.107 7.47 3.36 10.97
4/12/2021 9:00:00 PM 10.71 51.278 0.107 7.47 3.33 10.98
4/12/2021 9:15:00 PM 10.68 51.224 0.101 7.46 3.33 10.99
4/12/2021 9:30:00 PM 10.66 51.188 0.107 7.46 3.38 10.97
4/12/2021 9:45:00 PM 10.65 51.17 0.107 7.47 3.49 11.01
4/12/2021 10:00:00 PM 10.62 51.116 0.107 7.45 3.4 11.01
4/12/2021 10:15:00 PM 10.6 51.08 0.108 7.43 3.32 11
4/12/2021 10:30:00 PM 10.58 51.044 0.101 7.47 3.36 11
4/12/2021 10:45:00 PM 10.57 51.026 0.108 7.44 3.55 11.01
4/12/2021 11:00:00 PM 10.55 50.99 0.108 7.46 3.39 11.01
4/12/2021 11:15:00 PM 10.53 50.954 0.101 7.44 3.17 11.01
4/12/2021 11:30:00 PM 10.52 50.936 0.101 7.47 3.19 11.05
4/12/2021 11:45:00 PM 10.49 50.882 0.108 7.44 3.23 11.05
4/13/2021 12:00:00 AM 10.47 50.846 0.108 7.45 3.24 11.03
4/13/2021 12:15:00 AM 10.45 50.81 0.101 7.43 3.25 11.02
4/13/2021 12:30:00 AM 10.43 50.774 0.108 7.45 3.21 11.04
4/13/2021 12:45:00 AM 10.43 50.774 0.108 7.47 3.36 11.09
4/13/2021 1:00:00 AM 10.4 50.72 0.101 7.45 3.43 11.06
4/13/2021 1:15:00 AM 10.38 50.684 0.101 7.44 3.25 11.04
4/13/2021 1:30:00 AM 10.37 50.666 0.102 7.45 3.42 11.1
4/13/2021 1:45:00 AM 10.36 50.648 0.108 7.45 3.26 11.09
4/13/2021 2:00:00 AM 10.35 50.63 0.108 7.46 3.11 11.1
4/13/2021 2:15:00 AM 10.33 50.594 0.108 7.47 3.31 11.12
4/13/2021 2:30:00 AM 10.32 50.576 0.102 7.45 3.3 11.11
4/13/2021 2:45:00 AM 10.3 50.54 0.101 7.43 3.32 11.1
4/13/2021 3:00:00 AM 10.28 50.504 0.108 7.46 3.29 11.13
4/13/2021 3:15:00 AM 10.24 50.432 0.102 7.44 3.29 11.11
4/13/2021 3:30:00 AM 10.22 50.396 0.108 7.46 3.11 11.13
4/13/2021 3:45:00 AM 10.2 50.36 0.108 7.46 3.21 11.12
4/13/2021 4:00:00 AM 10.17 50.306 0.101 7.46 3.63 11.13
4/13/2021 4:15:00 AM 10.16 50.288 0.101 7.47 3.3 11.18
4/13/2021 4:30:00 AM 10.14 50.252 0.101 7.47 3.12 11.16
4/13/2021 4:45:00 AM 10.12 50.216 0.101 7.46 3.15 11.16
4/13/2021 5:00:00 AM 10.09 50.162 0.108 7.47 3.07 11.17
4/13/2021 5:15:00 AM 10.07 50.126 0.101 7.47 3.14 11.19
4/13/2021 5:30:00 AM 10.06 50.108 0.102 7.48 3.39 11.21
4/13/2021 5:45:00 AM 10.04 50.072 0.108 7.46 3.05 11.2
4/13/2021 6:00:00 AM 10.01 50.018 0.102 7.46 3.09 11.21
4/13/2021 6:15:00 AM 9.95 49.91 0.102 7.45 3.12 11.2
4/13/2021 6:30:00 AM 9.9 49.82 0.102 7.44 3.41 11.19
4/13/2021 6:45:00 AM 9.86 49.748 0.102 7.47 3.18 11.27
4/13/2021 7:00:00 AM 9.81 49.658 0.101 7.47 3.22 11.3
4/13/2021 7:15:00 AM 9.76 49.568 0.102 7.48 3.15 11.35
4/13/2021 7:30:00 AM 9.73 49.514 0.102 7.5 3.25 11.41
4/13/2021 7:45:00 AM 9.71 49.478 0.102 7.5 3.12 11.43
4/13/2021 8:00:00 AM 9.7 49.46 0.101 7.51 3.35 11.47
4/13/2021 8:15:00 AM 9.71 49.478 0.101 7.51 3.12 11.47
4/13/2021 8:30:00 AM 9.75 49.55 0.101 7.54 3.18 11.57
4/13/2021 8:45:00 AM 9.79 49.622 0.101 7.53 3.09 11.57
4/13/2021 9:00:00 AM 9.85 49.73 0.101 7.55 3.01 11.58
4/13/2021 9:15:00 AM 9.93 49.874 0.102 7.59 3.02 11.62
4/13/2021 9:30:00 AM 10.02 50.036 0.101 7.59 3.1 11.62
4/13/2021 9:45:00 AM 10.13 50.234 0.101 7.6 3.08 11.59
4/13/2021 10:00:00 AM 10.28 50.504 0.101 7.59 3.04 11.57
4/13/2021 10:15:00 AM 10.47 50.846 0.107 7.61 3.06 11.53
4/13/2021 10:30:00 AM 10.67 51.206 0.107 7.62 3 11.49
4/13/2021 10:45:00 AM 10.87 51.566 0.107 7.62 3.05 11.45
4/13/2021 11:00:00 AM 11.17 52.106 0.107 7.64 3.09 11.45
4/13/2021 11:15:00 AM 11.44 52.592 0.107 7.63 3.11 11.4
4/13/2021 11:30:00 AM 11.7 53.06 0.107 7.61 3 11.33
4/13/2021 11:45:00 AM 11.93 53.474 0.107 7.63 2.96 11.28
4/13/2021 12:00:00 PM 12.21 53.978 0.107 7.64 3.08 11.23
4/13/2021 12:15:00 PM 12.46 54.428 0.107 7.67 2.94 11.19
4/13/2021 12:30:00 PM 12.65 54.77 0.107 7.68 3.18 11.15
4/13/2021 12:45:00 PM 12.85 55.13 0.107 7.7 3.06 11.1
4/13/2021 1:00:00 PM 13.12 55.616 0.107 7.67 2.95 11.03
4/13/2021 1:15:00 PM 13.24 55.832 0.107 7.68 3.08 10.99
4/13/2021 1:30:00 PM 13.42 56.156 0.107 7.7 3.39 10.96
4/13/2021 1:45:00 PM 13.58 56.444 0.107 7.7 2.98 10.9
4/13/2021 2:00:00 PM 13.77 56.786 0.107 7.67 2.93 10.85
4/13/2021 2:15:00 PM 13.87 56.966 0.107 7.68 3.01 10.78
4/13/2021 2:30:00 PM 13.99 57.182 0.107 7.71 3.03 10.79
4/13/2021 2:45:00 PM 14.13 57.434 0.107 7.68 2.98 10.76
4/13/2021 3:00:00 PM 14.24 57.632 0.107 7.76 3.1 10.73
4/13/2021 3:15:00 PM 14.31 57.758 0.107 7.69 3.05 10.65
4/13/2021 3:30:00 PM 14.37 57.866 0.107 7.68 3.2 10.64
4/13/2021 3:45:00 PM 14.43 57.974 0.107 7.67 3.49 10.62
4/13/2021 4:00:00 PM 14.49 58.082 0.107 7.72 3.13 10.61
4/13/2021 4:15:00 PM 14.45 58.01 0.107 7.73 3.1 10.56
4/13/2021 4:30:00 PM 14.45 58.01 0.107 7.69 4.12 10.57
4/13/2021 4:45:00 PM 14.42 57.956 0.107 7.65 3.1 10.54
4/13/2021 5:00:00 PM 14.35 57.83 0.107 7.63 3.44 10.53
4/13/2021 5:15:00 PM 14.26 57.668 0.107 7.63 3.15 10.48
4/13/2021 5:30:00 PM 14.2 57.56 0.107 7.64 3.06 10.48
4/13/2021 5:45:00 PM 14.12 57.416 0.108 7.65 3.19 10.47
4/13/2021 6:00:00 PM 14.02 57.236 0.108 7.62 2.99 10.42
4/13/2021 6:15:00 PM 13.93 57.074 0.108 7.6 2.95 10.48
4/13/2021 6:30:00 PM 13.81 56.858 0.108 7.56 3 10.44
4/13/2021 6:45:00 PM 13.73 56.714 0.108 7.59 3.13 10.47
4/13/2021 7:00:00 PM 13.56 56.408 0.108 7.54 3.07 10.43
4/13/2021 7:15:00 PM 13.38 56.084 0.108 7.51 3.09 10.41
4/13/2021 7:30:00 PM 13.3 55.94 0.109 7.54 3.09 10.44
4/13/2021 7:45:00 PM 13.14 55.652 0.109 7.5 3.3 10.38
4/13/2021 8:00:00 PM 12.99 55.382 0.109 7.47 3.15 10.39
4/13/2021 8:15:00 PM 12.87 55.166 0.109 7.47 3.44 10.41
4/13/2021 8:30:00 PM 12.75 54.95 0.109 7.46 3.17 10.44
4/13/2021 8:45:00 PM 12.68 54.824 0.109 7.48 3.23 10.47
4/13/2021 9:00:00 PM 12.58 54.644 0.109 7.47 3.29 10.49
4/13/2021 9:15:00 PM 12.48 54.464 0.11 7.47 3.13 10.52
4/13/2021 9:30:00 PM 12.38 54.284 0.11 7.45 3.29 10.52
4/13/2021 9:45:00 PM 12.27 54.086 0.11 7.44 3.13 10.52
4/13/2021 10:00:00 PM 12.17 53.906 0.11 7.43 3.26 10.53
4/13/2021 10:15:00 PM 12.09 53.762 0.11 7.46 3.39 10.62
4/13/2021 10:30:00 PM 12 53.6 0.11 7.46 3.09 10.64
4/13/2021 10:45:00 PM 11.9 53.42 0.11 7.45 3.08 10.63
4/13/2021 11:00:00 PM 11.81 53.258 0.11 7.46 3.2 10.65
4/13/2021 11:15:00 PM 11.74 53.132 0.11 7.47 3.28 10.71
4/13/2021 11:30:00 PM 11.65 52.97 0.11 7.47 3.05 10.73
4/13/2021 11:45:00 PM 11.57 52.826 0.11 7.46 2.99 10.76
4/14/2021 12:00:00 AM 11.47 52.646 0.11 7.44 3.12 10.76
4/14/2021 12:15:00 AM 11.39 52.502 0.11 7.43 2.98 10.76
4/14/2021 12:30:00 AM 11.3 52.34 0.111 7.43 3.21 10.75
4/14/2021 12:45:00 AM 11.25 52.25 0.111 7.46 3.16 10.84
4/14/2021 1:00:00 AM 11.16 52.088 0.111 7.44 3.08 10.82
4/14/2021 1:15:00 AM 11.11 51.998 0.111 7.48 2.92 10.9
4/14/2021 1:30:00 AM 11.03 51.854 0.111 7.44 3.08 10.87
4/14/2021 1:45:00 AM 10.95 51.71 0.111 7.46 3.06 10.9
4/14/2021 2:00:00 AM 10.88 51.584 0.111 7.42 3.02 10.89
4/14/2021 2:15:00 AM 10.81 51.458 0.111 7.45 3.03 10.92
4/14/2021 2:30:00 AM 10.75 51.35 0.111 7.44 3 10.95
4/14/2021 2:45:00 AM 10.69 51.242 0.111 7.44 2.95 10.94
4/14/2021 3:00:00 AM 10.66 51.188 0.111 7.45 3.14 10.99
4/14/2021 3:15:00 AM 10.62 51.116 0.111 7.45 3.18 11
4/14/2021 3:30:00 AM 10.56 51.008 0.111 7.44 3.26 11
4/14/2021 3:45:00 AM 10.53 50.954 0.111 7.46 2.97 11.02
4/14/2021 4:00:00 AM 10.48 50.864 0.111 7.41 2.97 11.01
4/14/2021 4:15:00 AM 10.45 50.81 0.111 7.43 3.15 11
4/14/2021 4:30:00 AM 10.41 50.738 0.111 7.45 2.93 11.05
4/14/2021 4:45:00 AM 10.35 50.63 0.111 7.45 2.98 11.05
4/14/2021 5:00:00 AM 10.29 50.522 0.111 7.43 3.04 11.06
4/14/2021 5:15:00 AM 10.25 50.45 0.111 7.46 2.94 11.1
4/14/2021 5:30:00 AM 10.19 50.342 0.111 7.44 3.07 11.12
4/14/2021 5:45:00 AM 10.12 50.216 0.111 7.43 3.07 11.11
4/14/2021 6:00:00 AM 10.07 50.126 0.111 7.44 3.14 11.14
4/14/2021 6:15:00 AM 10.02 50.036 0.111 7.45 3.02 11.16
4/14/2021 6:30:00 AM 9.97 49.946 0.111 7.45 3.89 11.2
4/14/2021 6:45:00 AM 9.93 49.874 0.111 7.46 3.15 11.23
4/14/2021 7:00:00 AM 9.9 49.82 0.111 7.47 3.06 11.27
4/14/2021 7:15:00 AM 9.87 49.766 0.111 7.49 2.95 11.34
4/14/2021 7:30:00 AM 9.86 49.748 0.111 7.47 3.25 11.35
4/14/2021 7:45:00 AM 9.85 49.73 0.111 7.51 3.09 11.45
4/14/2021 8:00:00 AM 9.88 49.784 0.111 7.53 3.01 11.54
4/14/2021 8:15:00 AM 9.9 49.82 0.111 7.51 3 11.51
4/14/2021 8:30:00 AM 9.95 49.91 0.111 7.53 3.11 11.56
4/14/2021 8:45:00 AM 10.01 50.018 0.111 7.57 3.08 11.62
4/14/2021 9:00:00 AM 10.12 50.216 0.111 7.6 3.04 11.63
4/14/2021 9:15:00 AM 10.23 50.414 0.111 7.6 2.94 11.65
4/14/2021 9:30:00 AM 10.29 50.522 0.11 7.59 3.01 11.64
4/14/2021 9:45:00 AM 10.38 50.684 0.11 7.61 3.04 11.64
4/14/2021 10:00:00 AM 10.54 50.972 0.11 7.65 2.96 11.64
4/14/2021 10:15:00 AM 10.65 51.17 0.11 7.68 2.89 11.63
4/14/2021 10:30:00 AM 10.81 51.458 0.11 7.69 3.03 11.62
4/14/2021 10:45:00 AM 10.96 51.728 0.11 7.69 3.07 11.56
4/14/2021 11:00:00 AM 11.09 51.962 0.11 7.67 2.99 11.51
4/14/2021 11:15:00 AM 11.23 52.214 0.11 7.66 3.04 11.45
4/14/2021 11:30:00 AM 11.55 52.79 0.11 7.7 3.02 11.48
4/14/2021 11:45:00 AM 11.81 53.258 0.11 7.71 2.89 11.38
4/14/2021 12:00:00 PM 11.82 53.276 0.11 7.72 3.05 11.3
4/14/2021 12:15:00 PM 11.85 53.33 0.11 7.67 3.03 11.22
4/14/2021 12:30:00 PM 11.93 53.474 0.11 7.72 3.03 11.17
4/14/2021 12:45:00 PM 11.91 53.438 0.11 7.64 3.01 11
4/14/2021 1:00:00 PM 11.88 53.384 0.11 7.59 3.38 10.89
4/14/2021 1:15:00 PM 11.95 53.51 0.11 7.64 3.42 11.03
4/14/2021 1:30:00 PM 11.96 53.528 0.11 7.6 2.96 10.97
4/14/2021 1:45:00 PM 11.94 53.492 0.11 7.59 3.04 10.92
4/14/2021 2:00:00 PM 12.2 53.96 0.11 7.58 3.09 11.05
4/14/2021 2:15:00 PM 12.53 54.554 0.11 7.65 2.92 11.07
4/14/2021 2:30:00 PM 12.43 54.374 0.11 7.66 3.1 11.04
4/14/2021 2:45:00 PM 12.41 54.338 0.11 7.66 3.12 10.96
4/14/2021 3:00:00 PM 12.42 54.356 0.11 7.66 3.02 10.91
4/14/2021 3:15:00 PM 12.42 54.356 0.11 7.63 3.38 10.88
4/14/2021 3:30:00 PM 12.35 54.23 0.11 7.51 2.86 10.69
4/14/2021 3:45:00 PM 12.34 54.212 0.11 7.52 3.14 10.67
4/14/2021 4:00:00 PM 12.34 54.212 0.11 7.56 3.07 10.68
4/14/2021 4:15:00 PM 12.29 54.122 0.11 7.52 3.03 10.66
4/14/2021 4:30:00 PM 12.25 54.05 0.11 7.53 3.04 10.73
4/14/2021 4:45:00 PM 12.27 54.086 0.11 7.54 3.02 10.86
4/14/2021 5:00:00 PM 12.35 54.23 0.11 7.6 2.99 10.96
4/14/2021 5:15:00 PM 12.31 54.158 0.11 7.63 2.93 10.9
4/14/2021 5:30:00 PM 12.26 54.068 0.11 7.57 3.09 10.77
4/14/2021 5:45:00 PM 12.27 54.086 0.11 7.58 3.18 10.77
4/14/2021 6:00:00 PM 12.25 54.05 0.11 7.55 3.18 10.7
4/14/2021 6:15:00 PM 12.24 54.032 0.11 7.53 2.86 10.68
4/14/2021 6:30:00 PM 12.21 53.978 0.11 7.52 2.95 10.72
4/14/2021 6:45:00 PM 12.2 53.96 0.11 7.51 2.97 10.71
4/14/2021 7:00:00 PM 12.19 53.942 0.11 7.54 3.08 10.73
4/14/2021 7:15:00 PM 12.17 53.906 0.11 7.52 2.96 10.72
4/14/2021 7:30:00 PM 12.13 53.834 0.11 7.5 2.95 10.62
4/14/2021 7:45:00 PM 12.07 53.726 0.111 7.48 3.11 10.59
4/14/2021 8:00:00 PM 12.02 53.636 0.111 7.47 2.89 10.57
4/14/2021 8:15:00 PM 11.93 53.474 0.111 7.44 3.01 10.53
4/14/2021 8:30:00 PM 11.89 53.402 0.111 7.46 2.93 10.55
4/14/2021 8:45:00 PM 11.82 53.276 0.111 7.45 3.08 10.57
4/14/2021 9:00:00 PM 11.74 53.132 0.111 7.44 3.15 10.56
4/14/2021 9:15:00 PM 11.66 52.988 0.111 7.45 3.29 10.62
4/14/2021 9:30:00 PM 11.56 52.808 0.111 7.45 3.08 10.61
4/14/2021 9:45:00 PM 11.5 52.7 0.111 7.43 3.1 10.63
4/14/2021 10:00:00 PM 11.46 52.628 0.111 7.47 3 10.7
4/14/2021 10:15:00 PM 11.39 52.502 0.112 7.46 3.29 10.69
4/14/2021 10:30:00 PM 11.31 52.358 0.112 7.44 3.2 10.67
4/14/2021 10:45:00 PM 11.26 52.268 0.112 7.45 3.08 10.73
4/14/2021 11:00:00 PM 11.22 52.196 0.112 7.48 3.26 10.77
4/14/2021 11:15:00 PM 11.14 52.052 0.112 7.44 3.11 10.72
4/14/2021 11:30:00 PM 11.11 51.998 0.112 7.46 3.11 10.76
4/14/2021 11:45:00 PM 11.05 51.89 0.112 7.44 3.03 10.75
4/15/2021 12:00:00 AM 11.02 51.836 0.112 7.43 3.04 10.76
4/15/2021 12:15:00 AM 11.02 51.836 0.112 7.45 3.01 10.76
4/15/2021 12:30:00 AM 11.01 51.818 0.112 7.47 3 10.8
4/15/2021 12:45:00 AM 10.96 51.728 0.112 7.44 2.97 10.78
4/15/2021 1:00:00 AM 10.93 51.674 0.113 7.45 3.08 10.79
4/15/2021 1:15:00 AM 10.89 51.602 0.112 7.44 3.1 10.79
4/15/2021 1:30:00 AM 10.87 51.566 0.112 7.46 3.13 10.84
4/15/2021 1:45:00 AM 10.82 51.476 0.112 7.47 3.17 10.84
4/15/2021 2:00:00 AM 10.75 51.35 0.112 7.47 3.03 10.88
4/15/2021 2:15:00 AM 10.69 51.242 0.112 7.44 3.36 10.83
4/15/2021 2:30:00 AM 10.63 51.134 0.112 7.47 3.29 10.89
4/15/2021 2:45:00 AM 10.52 50.936 0.112 7.46 3.3 10.89
4/15/2021 3:00:00 AM 10.46 50.828 0.112 7.46 3.04 10.9
4/15/2021 3:15:00 AM 10.41 50.738 0.112 7.47 3.21 10.92
4/15/2021 3:30:00 AM 10.36 50.648 0.113 7.47 3.26 10.94
4/15/2021 3:45:00 AM 10.31 50.558 0.112 7.49 3.05 10.99
4/15/2021 4:00:00 AM 10.24 50.432 0.112 7.46 3.13 10.98
4/15/2021 4:15:00 AM 10.19 50.342 0.112 7.47 3.03 11
4/15/2021 4:30:00 AM 10.16 50.288 0.112 7.46 3.14 11
4/15/2021 4:45:00 AM 10.13 50.234 0.112 7.44 3.07 10.99
4/15/2021 5:00:00 AM 10.11 50.198 0.112 7.46 3.14 11.03
4/15/2021 5:15:00 AM 10.07 50.126 0.112 7.47 2.94 11.04
4/15/2021 5:30:00 AM 10.03 50.054 0.112 7.45 2.99 11.01
4/15/2021 5:45:00 AM 10.01 50.018 0.112 7.46 2.99 11.04
4/15/2021 6:00:00 AM 9.98 49.964 0.112 7.46 3.23 11.05
4/15/2021 6:15:00 AM 9.97 49.946 0.112 7.48 3.03 11.07
4/15/2021 6:30:00 AM 9.95 49.91 0.112 7.46 3 11.04
4/15/2021 6:45:00 AM 9.93 49.874 0.112 7.47 3.16 11.09
4/15/2021 7:00:00 AM 9.92 49.856 0.112 7.46 3.13 11.09
4/15/2021 7:15:00 AM 9.9 49.82 0.112 7.44 3.02 11.21
4/15/2021 7:30:00 AM 9.92 49.856 0.112 7.51 2.91 11.31
4/15/2021 7:45:00 AM 9.93 49.874 0.112 7.49 2.97 11.36
4/15/2021 8:00:00 AM 9.96 49.928 0.112 7.54 2.98 11.41
4/15/2021 8:15:00 AM 9.97 49.946 0.111 7.55 2.91 11.47
4/15/2021 8:30:00 AM 10.01 50.018 0.111 7.57 2.97 11.51
4/15/2021 8:45:00 AM 10.03 50.054 0.111 7.58 3.07 11.51
4/15/2021 9:00:00 AM 10.06 50.108 0.111 7.59 2.91 11.51
4/15/2021 9:15:00 AM 10.09 50.162 0.111 7.61 2.87 11.51
4/15/2021 9:30:00 AM 10.1 50.18 0.111 7.61 2.95 11.47
4/15/2021 9:45:00 AM 10.1 50.18 0.111 7.58 2.9 11.38
4/15/2021 10:00:00 AM 10.09 50.162 0.111 7.56 2.93 11.37
4/15/2021 10:15:00 AM 10.1 50.18 0.111 7.59 2.92 11.43
4/15/2021 10:30:00 AM 10.13 50.234 0.111 7.62 2.96 11.48
4/15/2021 10:45:00 AM 10.15 50.27 0.111 7.6 2.81 11.48
4/15/2021 11:00:00 AM 10.18 50.324 0.111 7.64 2.93 11.55
4/15/2021 11:15:00 AM 10.22 50.396 0.111 7.64 3.14 11.53
4/15/2021 11:30:00 AM 10.26 50.468 0.111 7.65 2.91 11.55
4/15/2021 11:45:00 AM 10.31 50.558 0.111 7.67 2.99 11.55
4/15/2021 12:00:00 PM 10.34 50.612 0.111 7.68 2.9 11.56
4/15/2021 12:15:00 PM 10.45 50.81 0.111 7.71 3.07 11.59
4/15/2021 12:30:00 PM 10.56 51.008 0.11 7.7 2.86 11.59
4/15/2021 12:45:00 PM 10.61 51.098 0.11 7.74 2.95 11.61
4/15/2021 1:00:00 PM 10.64 51.152 0.11 7.74 2.82 11.6
4/15/2021 1:15:00 PM 10.62 51.116 0.11 7.67 2.92 11.52
4/15/2021 1:30:00 PM 10.61 51.098 0.11 7.73 2.84 11.52
4/15/2021 1:45:00 PM 10.58 51.044 0.11 7.71 3.05 11.47
4/15/2021 2:00:00 PM 10.59 51.062 0.11 7.69 3.01 11.48
4/15/2021 2:15:00 PM 10.66 51.188 0.11 7.68 3.01 11.51
4/15/2021 2:30:00 PM 10.91 51.638 0.11 7.77 3.13 11.55
4/15/2021 2:45:00 PM 10.97 51.746 0.109 7.71 2.92 11.5
4/15/2021 3:00:00 PM 11.2 52.16 0.109 7.73 2.81 11.49
4/15/2021 3:15:00 PM 11.34 52.412 0.109 7.79 2.94 11.44
4/15/2021 3:30:00 PM 11.43 52.574 0.109 7.78 2.79 11.44
4/15/2021 3:45:00 PM 11.39 52.502 0.109 7.74 2.94 11.35
4/15/2021 4:00:00 PM 11.31 52.358 0.109 7.68 2.97 11.18
4/15/2021 4:15:00 PM 11.26 52.268 0.11 7.66 2.82 11.14
4/15/2021 4:30:00 PM 11.25 52.25 0.11 7.65 2.92 11.04
4/15/2021 4:45:00 PM 11.14 52.052 0.11 7.6 2.97 11.01
4/15/2021 5:00:00 PM 11.05 51.89 0.11 7.55 2.86 10.9
4/15/2021 5:15:00 PM 10.97 51.746 0.11 7.6 2.92 10.97
4/15/2021 5:30:00 PM 10.83 51.494 0.11 7.54 2.96 10.97
4/15/2021 5:45:00 PM 10.73 51.314 0.11 7.55 2.94 11
4/15/2021 6:00:00 PM 10.63 51.134 0.11 7.54 2.93 10.97
4/15/2021 6:15:00 PM 10.54 50.972 0.11 7.53 3.08 11
4/15/2021 6:30:00 PM 10.47 50.846 0.111 7.54 2.98 11
4/15/2021 6:45:00 PM 10.38 50.684 0.111 7.51 2.92 10.98
4/15/2021 7:00:00 PM 10.32 50.576 0.111 7.52 2.91 11.01
4/15/2021 7:15:00 PM 10.24 50.432 0.111 7.49 3.06 11
4/15/2021 7:30:00 PM 10.18 50.324 0.111 7.49 3 11.01
4/15/2021 7:45:00 PM 10.12 50.216 0.111 7.5 2.94 11
4/15/2021 8:00:00 PM 10.06 50.108 0.111 7.48 2.93 11.01
4/15/2021 8:15:00 PM 10 50 0.111 7.47 2.89 10.98
4/15/2021 8:30:00 PM 9.96 49.928 0.111 7.48 3 11.01
4/15/2021 8:45:00 PM 9.9 49.82 0.111 7.47 3.19 10.99
4/15/2021 9:00:00 PM 9.85 49.73 0.104 7.48 2.94 11.03
4/15/2021 9:15:00 PM 9.79 49.622 0.111 7.46 2.95 11.03
4/15/2021 9:30:00 PM 9.7 49.46 0.111 7.47 3.03 11.07
4/15/2021 9:45:00 PM 9.64 49.352 0.111 7.46 3.08 11.09
4/15/2021 10:00:00 PM 9.56 49.208 0.112 7.47 2.92 11.12
4/15/2021 10:15:00 PM 9.48 49.064 0.112 7.45 2.95 11.14
4/15/2021 10:30:00 PM 9.4 48.92 0.112 7.48 2.96 11.18
4/15/2021 10:45:00 PM 9.3 48.74 0.105 7.44 2.9 11.16
4/15/2021 11:00:00 PM 9.21 48.578 0.112 7.47 2.99 11.21
4/15/2021 11:15:00 PM 9.1 48.38 0.112 7.44 2.87 11.21
4/15/2021 11:30:00 PM 9.02 48.236 0.112 7.46 2.93 11.23
4/15/2021 11:45:00 PM 8.95 48.11 0.105 7.46 3.13 11.27
4/16/2021 12:00:00 AM 8.9 48.02 0.112 7.47 2.99 11.31
4/16/2021 12:15:00 AM 8.81 47.858 0.105 7.45 2.98 11.3
4/16/2021 12:30:00 AM 8.74 47.732 0.105 7.48 3.14 11.34
4/16/2021 12:45:00 AM 8.64 47.552 0.105 7.45 2.89 11.34
4/16/2021 1:00:00 AM 8.57 47.426 0.105 7.46 2.92 11.36
4/16/2021 1:15:00 AM 8.51 47.318 0.105 7.47 2.88 11.4
4/16/2021 1:30:00 AM 8.43 47.174 0.105 7.47 2.88 11.41
4/16/2021 1:45:00 AM 8.33 46.994 0.105 7.44 2.81 11.41
4/16/2021 2:00:00 AM 8.32 46.976 0.105 7.45 2.86 11.41
4/16/2021 2:15:00 AM 8.27 46.886 0.105 7.46 2.75 11.47
4/16/2021 2:30:00 AM 8.24 46.832 0.105 7.46 2.92 11.49
4/16/2021 2:45:00 AM 8.21 46.778 0.105 7.47 2.88 11.5
4/16/2021 3:00:00 AM 8.2 46.76 0.106 7.46 2.78 11.52
4/16/2021 3:15:00 AM 8.17 46.706 0.106 7.48 2.9 11.54
4/16/2021 3:30:00 AM 8.11 46.598 0.106 7.45 3.27 11.5
4/16/2021 3:45:00 AM 8.12 46.616 0.106 7.45 2.96 11.51
4/16/2021 4:00:00 AM 8.1 46.58 0.106 7.45 2.98 11.52
4/16/2021 4:15:00 AM 8.09 46.562 0.107 7.47 3.09 11.55
4/16/2021 4:30:00 AM 8.08 46.544 0.106 7.47 2.97 11.53
4/16/2021 4:45:00 AM 8.07 46.526 0.106 7.47 2.8 11.53
4/16/2021 5:00:00 AM 8.05 46.49 0.107 7.46 2.98 11.54
4/16/2021 5:15:00 AM 8.05 46.49 0.106 7.45 2.86 11.51
4/16/2021 5:30:00 AM 8.05 46.49 0.106 7.47 2.87 11.53
4/16/2021 5:45:00 AM 8.05 46.49 0.106 7.47 2.84 11.55
4/16/2021 6:00:00 AM 8.05 46.49 0.106 7.46 2.84 11.54
4/16/2021 6:15:00 AM 8.04 46.472 0.106 7.45 2.88 11.53
4/16/2021 6:30:00 AM 8.04 46.472 0.106 7.46 2.87 11.51
4/16/2021 6:45:00 AM 8.01 46.418 0.106 7.45 3.04 11.56
4/16/2021 7:00:00 AM 8.02 46.436 0.106 7.48 3 11.6
4/16/2021 7:15:00 AM 8.04 46.472 0.105 7.51 3.11 11.74
4/16/2021 7:30:00 AM 8.04 46.472 0.105 7.49 2.99 11.76
4/16/2021 7:45:00 AM 8.07 46.526 0.105 7.52 3.04 11.81
4/16/2021 8:00:00 AM 8.07 46.526 0.105 7.54 2.93 11.87
4/16/2021 8:15:00 AM 8.06 46.508 0.105 7.54 3.04 11.91
4/16/2021 8:30:00 AM 8.08 46.544 0.105 7.56 2.98 11.92
4/16/2021 8:45:00 AM 8.1 46.58 0.105 7.59 3.21 12
4/16/2021 9:00:00 AM 8.13 46.634 0.104 7.6 3.06 12.05
4/16/2021 9:15:00 AM 8.18 46.724 0.104 7.6 3.02 12.05
4/16/2021 9:30:00 AM 8.28 46.904 0.104 7.63 2.88 12.11
4/16/2021 9:45:00 AM 8.35 47.03 0.103 7.66 3.03 12.13
4/16/2021 10:00:00 AM 8.41 47.138 0.103 7.69 2.91 12.14
4/16/2021 10:15:00 AM 8.52 47.336 0.103 7.7 2.97 12.17
4/16/2021 10:30:00 AM 8.58 47.444 0.103 7.7